<?xml version="1.0" encoding="UTF-8" standalone="no" ?>
<gpx xmlns="http://www.topografix.com/GPX/1/1" xmlns:xsi="http://www.w3.org/2001/XMLSchema-instance" xsi:schemaLocation="http://www.topografix.com/GPX/1/1 http://www.topografix.com/GPX/1/1/gpx.xsd" version="1.1" creator="VisuGPX - https://www.visugpx.com">
  <metadata>
    <name>2019-05-16 13:03:53</name>
    <desc><![CDATA[

]]></desc>
  </metadata>
  <trk>
    <name><![CDATA[2019-05-16 13:03:53]]></name>
    <trkseg>
      <trkpt lat="39.52735" lon="-8.67795">
        <ele>303.91</ele>
        <time>2019-05-16T07:45:46Z</time>
      </trkpt>
      <trkpt lat="39.52735" lon="-8.67795">
        <ele>303.91</ele>
        <time>2019-05-16T07:45:47Z</time>
      </trkpt>
      <trkpt lat="39.52736" lon="-8.6779">
        <ele>303.91</ele>
        <time>2019-05-16T07:46:03Z</time>
      </trkpt>
      <trkpt lat="39.52735" lon="-8.67776">
        <ele>304.88</ele>
        <time>2019-05-16T07:46:15Z</time>
      </trkpt>
      <trkpt lat="39.52742" lon="-8.67759">
        <ele>307.28</ele>
        <time>2019-05-16T07:46:31Z</time>
      </trkpt>
      <trkpt lat="39.52746" lon="-8.67742">
        <ele>308.72</ele>
        <time>2019-05-16T07:46:48Z</time>
      </trkpt>
      <trkpt lat="39.52746" lon="-8.6774">
        <ele>309.68</ele>
        <time>2019-05-16T07:46:50Z</time>
      </trkpt>
      <trkpt lat="39.52751" lon="-8.67722">
        <ele>311.6</ele>
        <time>2019-05-16T07:47:06Z</time>
      </trkpt>
      <trkpt lat="39.52757" lon="-8.67707">
        <ele>313.05</ele>
        <time>2019-05-16T07:47:21Z</time>
      </trkpt>
      <trkpt lat="39.52759" lon="-8.67703">
        <ele>314.49</ele>
        <time>2019-05-16T07:47:25Z</time>
      </trkpt>
      <trkpt lat="39.52762" lon="-8.67692">
        <ele>314.01</ele>
        <time>2019-05-16T07:47:35Z</time>
      </trkpt>
      <trkpt lat="39.52773" lon="-8.6768">
        <ele>314.97</ele>
        <time>2019-05-16T07:47:49Z</time>
      </trkpt>
      <trkpt lat="39.52782" lon="-8.67667">
        <ele>315.45</ele>
        <time>2019-05-16T07:48:01Z</time>
      </trkpt>
      <trkpt lat="39.52791" lon="-8.67658">
        <ele>318.81</ele>
        <time>2019-05-16T07:48:11Z</time>
      </trkpt>
      <trkpt lat="39.52803" lon="-8.67644">
        <ele>320.26</ele>
        <time>2019-05-16T07:48:28Z</time>
      </trkpt>
      <trkpt lat="39.52811" lon="-8.67633">
        <ele>320.74</ele>
        <time>2019-05-16T07:48:40Z</time>
      </trkpt>
      <trkpt lat="39.52821" lon="-8.67621">
        <ele>322.18</ele>
        <time>2019-05-16T07:48:55Z</time>
      </trkpt>
      <trkpt lat="39.52828" lon="-8.67617">
        <ele>323.14</ele>
        <time>2019-05-16T07:49:02Z</time>
      </trkpt>
      <trkpt lat="39.52845" lon="-8.67613">
        <ele>324.1</ele>
        <time>2019-05-16T07:49:18Z</time>
      </trkpt>
      <trkpt lat="39.52858" lon="-8.67617">
        <ele>322.66</ele>
        <time>2019-05-16T07:49:31Z</time>
      </trkpt>
      <trkpt lat="39.52876" lon="-8.67621">
        <ele>322.66</ele>
        <time>2019-05-16T07:49:46Z</time>
      </trkpt>
      <trkpt lat="39.52895" lon="-8.67616">
        <ele>323.14</ele>
        <time>2019-05-16T07:50:02Z</time>
      </trkpt>
      <trkpt lat="39.52913" lon="-8.67607">
        <ele>324.1</ele>
        <time>2019-05-16T07:50:18Z</time>
      </trkpt>
      <trkpt lat="39.52915" lon="-8.67608">
        <ele>324.58</ele>
        <time>2019-05-16T07:50:34Z</time>
      </trkpt>
      <trkpt lat="39.52926" lon="-8.67603">
        <ele>324.58</ele>
        <time>2019-05-16T07:50:51Z</time>
      </trkpt>
      <trkpt lat="39.52935" lon="-8.67598">
        <ele>326.02</ele>
        <time>2019-05-16T07:51:02Z</time>
      </trkpt>
      <trkpt lat="39.52945" lon="-8.67591">
        <ele>325.54</ele>
        <time>2019-05-16T07:51:13Z</time>
      </trkpt>
      <trkpt lat="39.52954" lon="-8.6758">
        <ele>327.47</ele>
        <time>2019-05-16T07:51:29Z</time>
      </trkpt>
      <trkpt lat="39.52952" lon="-8.67578">
        <ele>327.47</ele>
        <time>2019-05-16T07:51:49Z</time>
      </trkpt>
      <trkpt lat="39.52954" lon="-8.67578">
        <ele>326.99</ele>
        <time>2019-05-16T07:52:11Z</time>
      </trkpt>
      <trkpt lat="39.52961" lon="-8.67575">
        <ele>327.47</ele>
        <time>2019-05-16T07:52:24Z</time>
      </trkpt>
      <trkpt lat="39.52966" lon="-8.6757">
        <ele>327.95</ele>
        <time>2019-05-16T07:52:46Z</time>
      </trkpt>
      <trkpt lat="39.52978" lon="-8.67557">
        <ele>329.39</ele>
        <time>2019-05-16T07:53:01Z</time>
      </trkpt>
      <trkpt lat="39.52984" lon="-8.67552">
        <ele>329.87</ele>
        <time>2019-05-16T07:53:07Z</time>
      </trkpt>
      <trkpt lat="39.52985" lon="-8.6755">
        <ele>328.91</ele>
        <time>2019-05-16T07:53:09Z</time>
      </trkpt>
      <trkpt lat="39.52988" lon="-8.67535">
        <ele>330.35</ele>
        <time>2019-05-16T07:53:21Z</time>
      </trkpt>
      <trkpt lat="39.52991" lon="-8.67515">
        <ele>332.27</ele>
        <time>2019-05-16T07:53:36Z</time>
      </trkpt>
      <trkpt lat="39.52992" lon="-8.67498">
        <ele>333.23</ele>
        <time>2019-05-16T07:53:49Z</time>
      </trkpt>
      <trkpt lat="39.52994" lon="-8.67483">
        <ele>333.71</ele>
        <time>2019-05-16T07:54:02Z</time>
      </trkpt>
      <trkpt lat="39.52998" lon="-8.67474">
        <ele>333.23</ele>
        <time>2019-05-16T07:54:09Z</time>
      </trkpt>
      <trkpt lat="39.53" lon="-8.6747">
        <ele>333.23</ele>
        <time>2019-05-16T07:54:13Z</time>
      </trkpt>
      <trkpt lat="39.53005" lon="-8.67465">
        <ele>333.71</ele>
        <time>2019-05-16T07:54:18Z</time>
      </trkpt>
      <trkpt lat="39.53014" lon="-8.67454">
        <ele>336.6</ele>
        <time>2019-05-16T07:54:29Z</time>
      </trkpt>
      <trkpt lat="39.53025" lon="-8.67445">
        <ele>336.12</ele>
        <time>2019-05-16T07:54:40Z</time>
      </trkpt>
      <trkpt lat="39.53035" lon="-8.67433">
        <ele>336.6</ele>
        <time>2019-05-16T07:54:54Z</time>
      </trkpt>
      <trkpt lat="39.53037" lon="-8.67431">
        <ele>335.64</ele>
        <time>2019-05-16T07:54:56Z</time>
      </trkpt>
      <trkpt lat="39.5304" lon="-8.67432">
        <ele>337.08</ele>
        <time>2019-05-16T07:54:59Z</time>
      </trkpt>
      <trkpt lat="39.53045" lon="-8.67427">
        <ele>336.6</ele>
        <time>2019-05-16T07:55:04Z</time>
      </trkpt>
      <trkpt lat="39.53063" lon="-8.67411">
        <ele>337.56</ele>
        <time>2019-05-16T07:55:20Z</time>
      </trkpt>
      <trkpt lat="39.53079" lon="-8.67401">
        <ele>337.56</ele>
        <time>2019-05-16T07:55:35Z</time>
      </trkpt>
      <trkpt lat="39.5308" lon="-8.67401">
        <ele>336.6</ele>
        <time>2019-05-16T07:55:37Z</time>
      </trkpt>
      <trkpt lat="39.53084" lon="-8.67397">
        <ele>337.56</ele>
        <time>2019-05-16T07:55:41Z</time>
      </trkpt>
      <trkpt lat="39.53092" lon="-8.67399">
        <ele>337.08</ele>
        <time>2019-05-16T07:55:52Z</time>
      </trkpt>
      <trkpt lat="39.5311" lon="-8.67392">
        <ele>339</ele>
        <time>2019-05-16T07:56:05Z</time>
      </trkpt>
      <trkpt lat="39.53113" lon="-8.67391">
        <ele>339</ele>
        <time>2019-05-16T07:56:07Z</time>
      </trkpt>
      <trkpt lat="39.53119" lon="-8.67391">
        <ele>339</ele>
        <time>2019-05-16T07:56:13Z</time>
      </trkpt>
      <trkpt lat="39.53132" lon="-8.674">
        <ele>338.52</ele>
        <time>2019-05-16T07:56:29Z</time>
      </trkpt>
      <trkpt lat="39.53147" lon="-8.67414">
        <ele>340.44</ele>
        <time>2019-05-16T07:56:44Z</time>
      </trkpt>
      <trkpt lat="39.53162" lon="-8.6742">
        <ele>340.44</ele>
        <time>2019-05-16T07:56:59Z</time>
      </trkpt>
      <trkpt lat="39.53179" lon="-8.67427">
        <ele>342.37</ele>
        <time>2019-05-16T07:57:14Z</time>
      </trkpt>
      <trkpt lat="39.53196" lon="-8.67435">
        <ele>343.81</ele>
        <time>2019-05-16T07:57:27Z</time>
      </trkpt>
      <trkpt lat="39.53212" lon="-8.67447">
        <ele>345.25</ele>
        <time>2019-05-16T07:57:44Z</time>
      </trkpt>
      <trkpt lat="39.53222" lon="-8.67461">
        <ele>347.17</ele>
        <time>2019-05-16T07:57:58Z</time>
      </trkpt>
      <trkpt lat="39.53232" lon="-8.67475">
        <ele>349.1</ele>
        <time>2019-05-16T07:58:13Z</time>
      </trkpt>
      <trkpt lat="39.53238" lon="-8.67483">
        <ele>349.1</ele>
        <time>2019-05-16T07:58:22Z</time>
      </trkpt>
      <trkpt lat="39.53245" lon="-8.67501">
        <ele>350.54</ele>
        <time>2019-05-16T07:58:38Z</time>
      </trkpt>
      <trkpt lat="39.5325" lon="-8.67517">
        <ele>351.5</ele>
        <time>2019-05-16T07:58:51Z</time>
      </trkpt>
      <trkpt lat="39.53254" lon="-8.67536">
        <ele>352.46</ele>
        <time>2019-05-16T07:59:07Z</time>
      </trkpt>
      <trkpt lat="39.53257" lon="-8.67548">
        <ele>353.42</ele>
        <time>2019-05-16T07:59:18Z</time>
      </trkpt>
      <trkpt lat="39.53264" lon="-8.67567">
        <ele>355.34</ele>
        <time>2019-05-16T07:59:35Z</time>
      </trkpt>
      <trkpt lat="39.53265" lon="-8.67571">
        <ele>356.31</ele>
        <time>2019-05-16T07:59:38Z</time>
      </trkpt>
      <trkpt lat="39.53266" lon="-8.67582">
        <ele>357.27</ele>
        <time>2019-05-16T07:59:49Z</time>
      </trkpt>
      <trkpt lat="39.53271" lon="-8.67592">
        <ele>357.75</ele>
        <time>2019-05-16T08:00:03Z</time>
      </trkpt>
      <trkpt lat="39.53274" lon="-8.67607">
        <ele>359.67</ele>
        <time>2019-05-16T08:00:19Z</time>
      </trkpt>
      <trkpt lat="39.53279" lon="-8.67623">
        <ele>360.63</ele>
        <time>2019-05-16T08:00:34Z</time>
      </trkpt>
      <trkpt lat="39.53283" lon="-8.67639">
        <ele>362.07</ele>
        <time>2019-05-16T08:00:49Z</time>
      </trkpt>
      <trkpt lat="39.53288" lon="-8.67657">
        <ele>363.52</ele>
        <time>2019-05-16T08:01:04Z</time>
      </trkpt>
      <trkpt lat="39.53294" lon="-8.67672">
        <ele>365.44</ele>
        <time>2019-05-16T08:01:19Z</time>
      </trkpt>
      <trkpt lat="39.53306" lon="-8.67676">
        <ele>368.8</ele>
        <time>2019-05-16T08:01:33Z</time>
      </trkpt>
      <trkpt lat="39.53313" lon="-8.67671">
        <ele>369.28</ele>
        <time>2019-05-16T08:01:42Z</time>
      </trkpt>
      <trkpt lat="39.53316" lon="-8.67667">
        <ele>367.84</ele>
        <time>2019-05-16T08:01:47Z</time>
      </trkpt>
      <trkpt lat="39.53327" lon="-8.67657">
        <ele>371.21</ele>
        <time>2019-05-16T08:02:01Z</time>
      </trkpt>
      <trkpt lat="39.53337" lon="-8.67648">
        <ele>371.69</ele>
        <time>2019-05-16T08:02:15Z</time>
      </trkpt>
      <trkpt lat="39.53346" lon="-8.67638">
        <ele>372.65</ele>
        <time>2019-05-16T08:02:28Z</time>
      </trkpt>
      <trkpt lat="39.5336" lon="-8.67628">
        <ele>374.09</ele>
        <time>2019-05-16T08:02:46Z</time>
      </trkpt>
      <trkpt lat="39.53372" lon="-8.67622">
        <ele>376.49</ele>
        <time>2019-05-16T08:03:00Z</time>
      </trkpt>
      <trkpt lat="39.53389" lon="-8.67615">
        <ele>377.45</ele>
        <time>2019-05-16T08:03:18Z</time>
      </trkpt>
      <trkpt lat="39.53403" lon="-8.67611">
        <ele>378.9</ele>
        <time>2019-05-16T08:03:34Z</time>
      </trkpt>
      <trkpt lat="39.53407" lon="-8.67609">
        <ele>380.34</ele>
        <time>2019-05-16T08:03:39Z</time>
      </trkpt>
      <trkpt lat="39.53421" lon="-8.67605">
        <ele>380.82</ele>
        <time>2019-05-16T08:03:54Z</time>
      </trkpt>
      <trkpt lat="39.53425" lon="-8.67604">
        <ele>380.82</ele>
        <time>2019-05-16T08:03:58Z</time>
      </trkpt>
      <trkpt lat="39.53444" lon="-8.67597">
        <ele>382.26</ele>
        <time>2019-05-16T08:04:16Z</time>
      </trkpt>
      <trkpt lat="39.53454" lon="-8.67595">
        <ele>383.22</ele>
        <time>2019-05-16T08:04:31Z</time>
      </trkpt>
      <trkpt lat="39.53464" lon="-8.67594">
        <ele>384.66</ele>
        <time>2019-05-16T08:04:51Z</time>
      </trkpt>
      <trkpt lat="39.53477" lon="-8.67589">
        <ele>385.15</ele>
        <time>2019-05-16T08:05:05Z</time>
      </trkpt>
      <trkpt lat="39.53492" lon="-8.67586">
        <ele>387.07</ele>
        <time>2019-05-16T08:05:19Z</time>
      </trkpt>
      <trkpt lat="39.53506" lon="-8.67581">
        <ele>388.03</ele>
        <time>2019-05-16T08:05:32Z</time>
      </trkpt>
      <trkpt lat="39.5352" lon="-8.67576">
        <ele>388.99</ele>
        <time>2019-05-16T08:05:45Z</time>
      </trkpt>
      <trkpt lat="39.53526" lon="-8.67575">
        <ele>388.99</ele>
        <time>2019-05-16T08:05:50Z</time>
      </trkpt>
      <trkpt lat="39.53534" lon="-8.67574">
        <ele>388.99</ele>
        <time>2019-05-16T08:05:57Z</time>
      </trkpt>
      <trkpt lat="39.53547" lon="-8.67572">
        <ele>389.95</ele>
        <time>2019-05-16T08:06:11Z</time>
      </trkpt>
      <trkpt lat="39.5355" lon="-8.67571">
        <ele>390.91</ele>
        <time>2019-05-16T08:06:14Z</time>
      </trkpt>
      <trkpt lat="39.53569" lon="-8.67566">
        <ele>391.87</ele>
        <time>2019-05-16T08:06:32Z</time>
      </trkpt>
      <trkpt lat="39.53584" lon="-8.67562">
        <ele>391.87</ele>
        <time>2019-05-16T08:06:46Z</time>
      </trkpt>
      <trkpt lat="39.53597" lon="-8.67561">
        <ele>393.8</ele>
        <time>2019-05-16T08:06:59Z</time>
      </trkpt>
      <trkpt lat="39.53611" lon="-8.67557">
        <ele>394.28</ele>
        <time>2019-05-16T08:07:14Z</time>
      </trkpt>
      <trkpt lat="39.53625" lon="-8.67555">
        <ele>394.28</ele>
        <time>2019-05-16T08:07:27Z</time>
      </trkpt>
      <trkpt lat="39.53639" lon="-8.67554">
        <ele>396.2</ele>
        <time>2019-05-16T08:07:42Z</time>
      </trkpt>
      <trkpt lat="39.53653" lon="-8.67555">
        <ele>396.68</ele>
        <time>2019-05-16T08:07:55Z</time>
      </trkpt>
      <trkpt lat="39.53671" lon="-8.67555">
        <ele>396.68</ele>
        <time>2019-05-16T08:08:11Z</time>
      </trkpt>
      <trkpt lat="39.53686" lon="-8.67554">
        <ele>397.64</ele>
        <time>2019-05-16T08:08:24Z</time>
      </trkpt>
      <trkpt lat="39.53706" lon="-8.67552">
        <ele>397.16</ele>
        <time>2019-05-16T08:08:40Z</time>
      </trkpt>
      <trkpt lat="39.53707" lon="-8.67552">
        <ele>398.6</ele>
        <time>2019-05-16T08:08:41Z</time>
      </trkpt>
      <trkpt lat="39.53724" lon="-8.6755">
        <ele>399.57</ele>
        <time>2019-05-16T08:08:55Z</time>
      </trkpt>
      <trkpt lat="39.53738" lon="-8.67547">
        <ele>399.08</ele>
        <time>2019-05-16T08:09:07Z</time>
      </trkpt>
      <trkpt lat="39.53754" lon="-8.67544">
        <ele>399.57</ele>
        <time>2019-05-16T08:09:22Z</time>
      </trkpt>
      <trkpt lat="39.53771" lon="-8.67545">
        <ele>400.05</ele>
        <time>2019-05-16T08:09:37Z</time>
      </trkpt>
      <trkpt lat="39.53787" lon="-8.67543">
        <ele>401.49</ele>
        <time>2019-05-16T08:09:53Z</time>
      </trkpt>
      <trkpt lat="39.53803" lon="-8.67542">
        <ele>401.01</ele>
        <time>2019-05-16T08:10:06Z</time>
      </trkpt>
      <trkpt lat="39.53822" lon="-8.67544">
        <ele>402.93</ele>
        <time>2019-05-16T08:10:22Z</time>
      </trkpt>
      <trkpt lat="39.53834" lon="-8.67545">
        <ele>402.93</ele>
        <time>2019-05-16T08:10:32Z</time>
      </trkpt>
      <trkpt lat="39.53836" lon="-8.67545">
        <ele>402.45</ele>
        <time>2019-05-16T08:10:34Z</time>
      </trkpt>
      <trkpt lat="39.53854" lon="-8.67546">
        <ele>403.89</ele>
        <time>2019-05-16T08:10:51Z</time>
      </trkpt>
      <trkpt lat="39.53871" lon="-8.67545">
        <ele>404.85</ele>
        <time>2019-05-16T08:11:07Z</time>
      </trkpt>
      <trkpt lat="39.53887" lon="-8.67547">
        <ele>404.85</ele>
        <time>2019-05-16T08:11:20Z</time>
      </trkpt>
      <trkpt lat="39.53905" lon="-8.6755">
        <ele>404.85</ele>
        <time>2019-05-16T08:11:37Z</time>
      </trkpt>
      <trkpt lat="39.5392" lon="-8.6755">
        <ele>405.33</ele>
        <time>2019-05-16T08:11:49Z</time>
      </trkpt>
      <trkpt lat="39.53934" lon="-8.67551">
        <ele>407.26</ele>
        <time>2019-05-16T08:12:03Z</time>
      </trkpt>
      <trkpt lat="39.53951" lon="-8.67555">
        <ele>407.74</ele>
        <time>2019-05-16T08:12:19Z</time>
      </trkpt>
      <trkpt lat="39.53969" lon="-8.67555">
        <ele>407.74</ele>
        <time>2019-05-16T08:12:34Z</time>
      </trkpt>
      <trkpt lat="39.53985" lon="-8.67556">
        <ele>409.66</ele>
        <time>2019-05-16T08:12:49Z</time>
      </trkpt>
      <trkpt lat="39.54004" lon="-8.67557">
        <ele>411.1</ele>
        <time>2019-05-16T08:13:06Z</time>
      </trkpt>
      <trkpt lat="39.5402" lon="-8.67557">
        <ele>410.62</ele>
        <time>2019-05-16T08:13:21Z</time>
      </trkpt>
      <trkpt lat="39.54027" lon="-8.67557">
        <ele>411.58</ele>
        <time>2019-05-16T08:13:27Z</time>
      </trkpt>
      <trkpt lat="39.54031" lon="-8.67556">
        <ele>411.58</ele>
        <time>2019-05-16T08:13:31Z</time>
      </trkpt>
      <trkpt lat="39.54038" lon="-8.67556">
        <ele>412.06</ele>
        <time>2019-05-16T08:13:37Z</time>
      </trkpt>
      <trkpt lat="39.54046" lon="-8.67553">
        <ele>411.58</ele>
        <time>2019-05-16T08:13:44Z</time>
      </trkpt>
      <trkpt lat="39.54055" lon="-8.67549">
        <ele>412.06</ele>
        <time>2019-05-16T08:13:52Z</time>
      </trkpt>
      <trkpt lat="39.54065" lon="-8.67546">
        <ele>410.62</ele>
        <time>2019-05-16T08:13:59Z</time>
      </trkpt>
      <trkpt lat="39.54076" lon="-8.67544">
        <ele>411.58</ele>
        <time>2019-05-16T08:14:12Z</time>
      </trkpt>
      <trkpt lat="39.54093" lon="-8.67541">
        <ele>412.06</ele>
        <time>2019-05-16T08:14:27Z</time>
      </trkpt>
      <trkpt lat="39.54097" lon="-8.67541">
        <ele>412.06</ele>
        <time>2019-05-16T08:14:31Z</time>
      </trkpt>
      <trkpt lat="39.54113" lon="-8.6754">
        <ele>413.02</ele>
        <time>2019-05-16T08:14:46Z</time>
      </trkpt>
      <trkpt lat="39.54129" lon="-8.6754">
        <ele>414.95</ele>
        <time>2019-05-16T08:15:01Z</time>
      </trkpt>
      <trkpt lat="39.54147" lon="-8.67539">
        <ele>415.43</ele>
        <time>2019-05-16T08:15:17Z</time>
      </trkpt>
      <trkpt lat="39.54164" lon="-8.67537">
        <ele>414.47</ele>
        <time>2019-05-16T08:15:31Z</time>
      </trkpt>
      <trkpt lat="39.54181" lon="-8.67535">
        <ele>415.91</ele>
        <time>2019-05-16T08:15:45Z</time>
      </trkpt>
      <trkpt lat="39.54188" lon="-8.67535">
        <ele>415.43</ele>
        <time>2019-05-16T08:15:50Z</time>
      </trkpt>
      <trkpt lat="39.54205" lon="-8.67534">
        <ele>415.43</ele>
        <time>2019-05-16T08:16:04Z</time>
      </trkpt>
      <trkpt lat="39.54221" lon="-8.67531">
        <ele>415.43</ele>
        <time>2019-05-16T08:16:18Z</time>
      </trkpt>
      <trkpt lat="39.54236" lon="-8.67528">
        <ele>416.87</ele>
        <time>2019-05-16T08:16:32Z</time>
      </trkpt>
      <trkpt lat="39.54248" lon="-8.67527">
        <ele>417.35</ele>
        <time>2019-05-16T08:16:45Z</time>
      </trkpt>
      <trkpt lat="39.54267" lon="-8.67527">
        <ele>418.79</ele>
        <time>2019-05-16T08:16:59Z</time>
      </trkpt>
      <trkpt lat="39.54283" lon="-8.67526">
        <ele>419.27</ele>
        <time>2019-05-16T08:17:12Z</time>
      </trkpt>
      <trkpt lat="39.543" lon="-8.67521">
        <ele>420.23</ele>
        <time>2019-05-16T08:17:28Z</time>
      </trkpt>
      <trkpt lat="39.54316" lon="-8.67516">
        <ele>420.23</ele>
        <time>2019-05-16T08:17:43Z</time>
      </trkpt>
      <trkpt lat="39.54332" lon="-8.67513">
        <ele>420.71</ele>
        <time>2019-05-16T08:17:57Z</time>
      </trkpt>
      <trkpt lat="39.54351" lon="-8.67511">
        <ele>420.23</ele>
        <time>2019-05-16T08:18:13Z</time>
      </trkpt>
      <trkpt lat="39.5437" lon="-8.67509">
        <ele>421.19</ele>
        <time>2019-05-16T08:18:29Z</time>
      </trkpt>
      <trkpt lat="39.54387" lon="-8.67509">
        <ele>420.71</ele>
        <time>2019-05-16T08:18:43Z</time>
      </trkpt>
      <trkpt lat="39.54406" lon="-8.67514">
        <ele>420.23</ele>
        <time>2019-05-16T08:18:59Z</time>
      </trkpt>
      <trkpt lat="39.54424" lon="-8.67521">
        <ele>419.75</ele>
        <time>2019-05-16T08:19:15Z</time>
      </trkpt>
      <trkpt lat="39.54443" lon="-8.67526">
        <ele>419.75</ele>
        <time>2019-05-16T08:19:30Z</time>
      </trkpt>
      <trkpt lat="39.54464" lon="-8.67532">
        <ele>419.75</ele>
        <time>2019-05-16T08:19:48Z</time>
      </trkpt>
      <trkpt lat="39.54474" lon="-8.67542">
        <ele>418.31</ele>
        <time>2019-05-16T08:19:58Z</time>
      </trkpt>
      <trkpt lat="39.54479" lon="-8.67547">
        <ele>418.79</ele>
        <time>2019-05-16T08:20:03Z</time>
      </trkpt>
      <trkpt lat="39.54485" lon="-8.6755">
        <ele>418.31</ele>
        <time>2019-05-16T08:20:08Z</time>
      </trkpt>
      <trkpt lat="39.54501" lon="-8.67553">
        <ele>420.23</ele>
        <time>2019-05-16T08:20:26Z</time>
      </trkpt>
      <trkpt lat="39.54515" lon="-8.67555">
        <ele>421.68</ele>
        <time>2019-05-16T08:20:42Z</time>
      </trkpt>
      <trkpt lat="39.54532" lon="-8.67565">
        <ele>421.19</ele>
        <time>2019-05-16T08:20:58Z</time>
      </trkpt>
      <trkpt lat="39.54535" lon="-8.67567">
        <ele>422.64</ele>
        <time>2019-05-16T08:21:01Z</time>
      </trkpt>
      <trkpt lat="39.54537" lon="-8.67569">
        <ele>424.08</ele>
        <time>2019-05-16T08:21:03Z</time>
      </trkpt>
      <trkpt lat="39.54539" lon="-8.67572">
        <ele>423.6</ele>
        <time>2019-05-16T08:21:06Z</time>
      </trkpt>
      <trkpt lat="39.5455" lon="-8.67583">
        <ele>424.08</ele>
        <time>2019-05-16T08:21:21Z</time>
      </trkpt>
      <trkpt lat="39.54561" lon="-8.67598">
        <ele>426.48</ele>
        <time>2019-05-16T08:21:36Z</time>
      </trkpt>
      <trkpt lat="39.5457" lon="-8.67612">
        <ele>426.48</ele>
        <time>2019-05-16T08:21:49Z</time>
      </trkpt>
      <trkpt lat="39.54579" lon="-8.67626">
        <ele>426.96</ele>
        <time>2019-05-16T08:22:03Z</time>
      </trkpt>
      <trkpt lat="39.54578" lon="-8.67629">
        <ele>427.92</ele>
        <time>2019-05-16T08:22:19Z</time>
      </trkpt>
      <trkpt lat="39.54591" lon="-8.67638">
        <ele>427.44</ele>
        <time>2019-05-16T08:22:33Z</time>
      </trkpt>
      <trkpt lat="39.54606" lon="-8.67656">
        <ele>428.89</ele>
        <time>2019-05-16T08:22:50Z</time>
      </trkpt>
      <trkpt lat="39.54611" lon="-8.67666">
        <ele>429.37</ele>
        <time>2019-05-16T08:23:04Z</time>
      </trkpt>
      <trkpt lat="39.54626" lon="-8.67679">
        <ele>429.37</ele>
        <time>2019-05-16T08:23:21Z</time>
      </trkpt>
      <trkpt lat="39.54637" lon="-8.67686">
        <ele>430.81</ele>
        <time>2019-05-16T08:23:36Z</time>
      </trkpt>
      <trkpt lat="39.54654" lon="-8.67696">
        <ele>432.25</ele>
        <time>2019-05-16T08:23:51Z</time>
      </trkpt>
      <trkpt lat="39.54667" lon="-8.67705">
        <ele>433.21</ele>
        <time>2019-05-16T08:24:07Z</time>
      </trkpt>
      <trkpt lat="39.54669" lon="-8.67707">
        <ele>433.21</ele>
        <time>2019-05-16T08:24:28Z</time>
      </trkpt>
      <trkpt lat="39.54678" lon="-8.67719">
        <ele>432.73</ele>
        <time>2019-05-16T08:24:43Z</time>
      </trkpt>
      <trkpt lat="39.54681" lon="-8.67726">
        <ele>434.17</ele>
        <time>2019-05-16T08:24:48Z</time>
      </trkpt>
      <trkpt lat="39.54683" lon="-8.67729">
        <ele>434.17</ele>
        <time>2019-05-16T08:24:51Z</time>
      </trkpt>
      <trkpt lat="39.54692" lon="-8.6775">
        <ele>435.13</ele>
        <time>2019-05-16T08:25:08Z</time>
      </trkpt>
      <trkpt lat="39.54702" lon="-8.6777">
        <ele>436.58</ele>
        <time>2019-05-16T08:25:24Z</time>
      </trkpt>
      <trkpt lat="39.54714" lon="-8.67782">
        <ele>436.58</ele>
        <time>2019-05-16T08:25:36Z</time>
      </trkpt>
      <trkpt lat="39.54729" lon="-8.6778">
        <ele>436.1</ele>
        <time>2019-05-16T08:25:49Z</time>
      </trkpt>
      <trkpt lat="39.54742" lon="-8.67768">
        <ele>437.06</ele>
        <time>2019-05-16T08:26:03Z</time>
      </trkpt>
      <trkpt lat="39.54757" lon="-8.67759">
        <ele>437.06</ele>
        <time>2019-05-16T08:26:17Z</time>
      </trkpt>
      <trkpt lat="39.54768" lon="-8.67758">
        <ele>437.54</ele>
        <time>2019-05-16T08:26:27Z</time>
      </trkpt>
      <trkpt lat="39.54782" lon="-8.67755">
        <ele>438.98</ele>
        <time>2019-05-16T08:26:40Z</time>
      </trkpt>
      <trkpt lat="39.54798" lon="-8.67745">
        <ele>439.46</ele>
        <time>2019-05-16T08:26:55Z</time>
      </trkpt>
      <trkpt lat="39.54808" lon="-8.67733">
        <ele>438.98</ele>
        <time>2019-05-16T08:27:08Z</time>
      </trkpt>
      <trkpt lat="39.5482" lon="-8.67722">
        <ele>438.5</ele>
        <time>2019-05-16T08:27:22Z</time>
      </trkpt>
      <trkpt lat="39.54821" lon="-8.67721">
        <ele>438.5</ele>
        <time>2019-05-16T08:27:44Z</time>
      </trkpt>
      <trkpt lat="39.5482" lon="-8.67722">
        <ele>438.02</ele>
        <time>2019-05-16T08:28:05Z</time>
      </trkpt>
      <trkpt lat="39.54823" lon="-8.6772">
        <ele>438.02</ele>
        <time>2019-05-16T08:28:28Z</time>
      </trkpt>
      <trkpt lat="39.54824" lon="-8.67717">
        <ele>438.98</ele>
        <time>2019-05-16T08:28:52Z</time>
      </trkpt>
      <trkpt lat="39.54826" lon="-8.67715">
        <ele>437.54</ele>
        <time>2019-05-16T08:29:12Z</time>
      </trkpt>
      <trkpt lat="39.54843" lon="-8.67703">
        <ele>437.54</ele>
        <time>2019-05-16T08:29:28Z</time>
      </trkpt>
      <trkpt lat="39.54856" lon="-8.67689">
        <ele>435.13</ele>
        <time>2019-05-16T08:29:43Z</time>
      </trkpt>
      <trkpt lat="39.54858" lon="-8.67688">
        <ele>435.61</ele>
        <time>2019-05-16T08:29:45Z</time>
      </trkpt>
      <trkpt lat="39.54863" lon="-8.67683">
        <ele>436.58</ele>
        <time>2019-05-16T08:29:51Z</time>
      </trkpt>
      <trkpt lat="39.54866" lon="-8.67682">
        <ele>436.1</ele>
        <time>2019-05-16T08:29:53Z</time>
      </trkpt>
      <trkpt lat="39.54877" lon="-8.67676">
        <ele>435.61</ele>
        <time>2019-05-16T08:30:03Z</time>
      </trkpt>
      <trkpt lat="39.54888" lon="-8.6767">
        <ele>435.13</ele>
        <time>2019-05-16T08:30:12Z</time>
      </trkpt>
      <trkpt lat="39.54892" lon="-8.67667">
        <ele>435.13</ele>
        <time>2019-05-16T08:30:16Z</time>
      </trkpt>
      <trkpt lat="39.54896" lon="-8.67663">
        <ele>434.65</ele>
        <time>2019-05-16T08:30:21Z</time>
      </trkpt>
      <trkpt lat="39.54899" lon="-8.67661">
        <ele>434.17</ele>
        <time>2019-05-16T08:30:24Z</time>
      </trkpt>
      <trkpt lat="39.54905" lon="-8.67659">
        <ele>434.65</ele>
        <time>2019-05-16T08:30:29Z</time>
      </trkpt>
      <trkpt lat="39.54921" lon="-8.67653">
        <ele>435.61</ele>
        <time>2019-05-16T08:30:42Z</time>
      </trkpt>
      <trkpt lat="39.54923" lon="-8.67652">
        <ele>435.61</ele>
        <time>2019-05-16T08:30:44Z</time>
      </trkpt>
      <trkpt lat="39.54936" lon="-8.67646">
        <ele>434.65</ele>
        <time>2019-05-16T08:30:56Z</time>
      </trkpt>
      <trkpt lat="39.54943" lon="-8.67642">
        <ele>434.65</ele>
        <time>2019-05-16T08:31:02Z</time>
      </trkpt>
      <trkpt lat="39.54949" lon="-8.67642">
        <ele>435.13</ele>
        <time>2019-05-16T08:31:06Z</time>
      </trkpt>
      <trkpt lat="39.54953" lon="-8.67639">
        <ele>435.13</ele>
        <time>2019-05-16T08:31:10Z</time>
      </trkpt>
      <trkpt lat="39.54964" lon="-8.67628">
        <ele>434.17</ele>
        <time>2019-05-16T08:31:23Z</time>
      </trkpt>
      <trkpt lat="39.54966" lon="-8.67628">
        <ele>433.69</ele>
        <time>2019-05-16T08:31:30Z</time>
      </trkpt>
      <trkpt lat="39.54968" lon="-8.67624">
        <ele>433.69</ele>
        <time>2019-05-16T08:31:34Z</time>
      </trkpt>
      <trkpt lat="39.54975" lon="-8.67618">
        <ele>434.17</ele>
        <time>2019-05-16T08:31:41Z</time>
      </trkpt>
      <trkpt lat="39.54989" lon="-8.67604">
        <ele>434.17</ele>
        <time>2019-05-16T08:31:56Z</time>
      </trkpt>
      <trkpt lat="39.55002" lon="-8.67593">
        <ele>433.69</ele>
        <time>2019-05-16T08:32:11Z</time>
      </trkpt>
      <trkpt lat="39.55013" lon="-8.67579">
        <ele>433.21</ele>
        <time>2019-05-16T08:32:26Z</time>
      </trkpt>
      <trkpt lat="39.55016" lon="-8.67576">
        <ele>433.21</ele>
        <time>2019-05-16T08:32:41Z</time>
      </trkpt>
      <trkpt lat="39.55019" lon="-8.67577">
        <ele>432.73</ele>
        <time>2019-05-16T08:33:02Z</time>
      </trkpt>
      <trkpt lat="39.55018" lon="-8.67582">
        <ele>432.73</ele>
        <time>2019-05-16T08:33:17Z</time>
      </trkpt>
      <trkpt lat="39.55018" lon="-8.6758">
        <ele>433.21</ele>
        <time>2019-05-16T08:33:40Z</time>
      </trkpt>
      <trkpt lat="39.55018" lon="-8.67576">
        <ele>433.21</ele>
        <time>2019-05-16T08:33:59Z</time>
      </trkpt>
      <trkpt lat="39.5502" lon="-8.67577">
        <ele>433.21</ele>
        <time>2019-05-16T08:34:26Z</time>
      </trkpt>
      <trkpt lat="39.55025" lon="-8.67575">
        <ele>432.73</ele>
        <time>2019-05-16T08:34:42Z</time>
      </trkpt>
      <trkpt lat="39.55032" lon="-8.67569">
        <ele>432.73</ele>
        <time>2019-05-16T08:34:58Z</time>
      </trkpt>
      <trkpt lat="39.55041" lon="-8.67558">
        <ele>432.25</ele>
        <time>2019-05-16T08:35:12Z</time>
      </trkpt>
      <trkpt lat="39.55051" lon="-8.67547">
        <ele>431.29</ele>
        <time>2019-05-16T08:35:25Z</time>
      </trkpt>
      <trkpt lat="39.55061" lon="-8.67535">
        <ele>431.77</ele>
        <time>2019-05-16T08:35:38Z</time>
      </trkpt>
      <trkpt lat="39.55079" lon="-8.67525">
        <ele>431.29</ele>
        <time>2019-05-16T08:35:54Z</time>
      </trkpt>
      <trkpt lat="39.55079" lon="-8.67525">
        <ele>432.25</ele>
        <time>2019-05-16T08:35:55Z</time>
      </trkpt>
      <trkpt lat="39.55095" lon="-8.67522">
        <ele>431.77</ele>
        <time>2019-05-16T08:36:07Z</time>
      </trkpt>
      <trkpt lat="39.55098" lon="-8.67523">
        <ele>430.81</ele>
        <time>2019-05-16T08:36:09Z</time>
      </trkpt>
      <trkpt lat="39.55105" lon="-8.67521">
        <ele>431.77</ele>
        <time>2019-05-16T08:36:14Z</time>
      </trkpt>
      <trkpt lat="39.55122" lon="-8.67516">
        <ele>431.29</ele>
        <time>2019-05-16T08:36:29Z</time>
      </trkpt>
      <trkpt lat="39.55138" lon="-8.67509">
        <ele>429.85</ele>
        <time>2019-05-16T08:36:44Z</time>
      </trkpt>
      <trkpt lat="39.55146" lon="-8.67505">
        <ele>428.89</ele>
        <time>2019-05-16T08:36:51Z</time>
      </trkpt>
      <trkpt lat="39.55155" lon="-8.67493">
        <ele>430.81</ele>
        <time>2019-05-16T08:37:01Z</time>
      </trkpt>
      <trkpt lat="39.55169" lon="-8.67476">
        <ele>429.37</ele>
        <time>2019-05-16T08:37:17Z</time>
      </trkpt>
      <trkpt lat="39.55185" lon="-8.67459">
        <ele>430.33</ele>
        <time>2019-05-16T08:37:33Z</time>
      </trkpt>
      <trkpt lat="39.55197" lon="-8.67443">
        <ele>430.81</ele>
        <time>2019-05-16T08:37:48Z</time>
      </trkpt>
      <trkpt lat="39.55198" lon="-8.67441">
        <ele>432.25</ele>
        <time>2019-05-16T08:37:52Z</time>
      </trkpt>
      <trkpt lat="39.55208" lon="-8.67429">
        <ele>430.33</ele>
        <time>2019-05-16T08:38:05Z</time>
      </trkpt>
      <trkpt lat="39.55216" lon="-8.67418">
        <ele>430.33</ele>
        <time>2019-05-16T08:38:16Z</time>
      </trkpt>
      <trkpt lat="39.55228" lon="-8.67398">
        <ele>429.85</ele>
        <time>2019-05-16T08:38:32Z</time>
      </trkpt>
      <trkpt lat="39.5524" lon="-8.67382">
        <ele>430.33</ele>
        <time>2019-05-16T08:38:46Z</time>
      </trkpt>
      <trkpt lat="39.55255" lon="-8.67373">
        <ele>429.37</ele>
        <time>2019-05-16T08:38:59Z</time>
      </trkpt>
      <trkpt lat="39.55276" lon="-8.67366">
        <ele>427.44</ele>
        <time>2019-05-16T08:39:17Z</time>
      </trkpt>
      <trkpt lat="39.55291" lon="-8.6737">
        <ele>426.96</ele>
        <time>2019-05-16T08:39:28Z</time>
      </trkpt>
      <trkpt lat="39.55295" lon="-8.6737">
        <ele>426.96</ele>
        <time>2019-05-16T08:39:31Z</time>
      </trkpt>
      <trkpt lat="39.55306" lon="-8.67365">
        <ele>426.96</ele>
        <time>2019-05-16T08:39:41Z</time>
      </trkpt>
      <trkpt lat="39.55318" lon="-8.67359">
        <ele>427.44</ele>
        <time>2019-05-16T08:39:56Z</time>
      </trkpt>
      <trkpt lat="39.55337" lon="-8.67354">
        <ele>427.44</ele>
        <time>2019-05-16T08:40:12Z</time>
      </trkpt>
      <trkpt lat="39.5534" lon="-8.67353">
        <ele>426.96</ele>
        <time>2019-05-16T08:40:27Z</time>
      </trkpt>
      <trkpt lat="39.55357" lon="-8.67342">
        <ele>427.92</ele>
        <time>2019-05-16T08:40:43Z</time>
      </trkpt>
      <trkpt lat="39.5536" lon="-8.67337">
        <ele>428.89</ele>
        <time>2019-05-16T08:40:48Z</time>
      </trkpt>
      <trkpt lat="39.55363" lon="-8.67324">
        <ele>426.96</ele>
        <time>2019-05-16T08:40:57Z</time>
      </trkpt>
      <trkpt lat="39.5536" lon="-8.67303">
        <ele>425.52</ele>
        <time>2019-05-16T08:41:12Z</time>
      </trkpt>
      <trkpt lat="39.55361" lon="-8.67283">
        <ele>424.56</ele>
        <time>2019-05-16T08:41:26Z</time>
      </trkpt>
      <trkpt lat="39.55367" lon="-8.67259">
        <ele>423.6</ele>
        <time>2019-05-16T08:41:40Z</time>
      </trkpt>
      <trkpt lat="39.55372" lon="-8.67248">
        <ele>422.64</ele>
        <time>2019-05-16T08:41:48Z</time>
      </trkpt>
      <trkpt lat="39.55386" lon="-8.67232">
        <ele>421.19</ele>
        <time>2019-05-16T08:42:05Z</time>
      </trkpt>
      <trkpt lat="39.55393" lon="-8.67222">
        <ele>421.19</ele>
        <time>2019-05-16T08:42:13Z</time>
      </trkpt>
      <trkpt lat="39.55399" lon="-8.67212">
        <ele>420.23</ele>
        <time>2019-05-16T08:42:21Z</time>
      </trkpt>
      <trkpt lat="39.55404" lon="-8.67197">
        <ele>419.27</ele>
        <time>2019-05-16T08:42:34Z</time>
      </trkpt>
      <trkpt lat="39.55408" lon="-8.67182">
        <ele>419.27</ele>
        <time>2019-05-16T08:42:45Z</time>
      </trkpt>
      <trkpt lat="39.5541" lon="-8.67168">
        <ele>418.79</ele>
        <time>2019-05-16T08:42:53Z</time>
      </trkpt>
      <trkpt lat="39.55412" lon="-8.67154">
        <ele>418.79</ele>
        <time>2019-05-16T08:43:00Z</time>
      </trkpt>
      <trkpt lat="39.5542" lon="-8.67144">
        <ele>416.87</ele>
        <time>2019-05-16T08:43:14Z</time>
      </trkpt>
      <trkpt lat="39.55425" lon="-8.6714">
        <ele>415.43</ele>
        <time>2019-05-16T08:43:19Z</time>
      </trkpt>
      <trkpt lat="39.55437" lon="-8.67127">
        <ele>414.95</ele>
        <time>2019-05-16T08:43:33Z</time>
      </trkpt>
      <trkpt lat="39.55437" lon="-8.67126">
        <ele>413.98</ele>
        <time>2019-05-16T08:43:34Z</time>
      </trkpt>
      <trkpt lat="39.55442" lon="-8.67108">
        <ele>413.98</ele>
        <time>2019-05-16T08:43:48Z</time>
      </trkpt>
      <trkpt lat="39.55444" lon="-8.67104">
        <ele>413.98</ele>
        <time>2019-05-16T08:43:51Z</time>
      </trkpt>
      <trkpt lat="39.55446" lon="-8.67098">
        <ele>414.95</ele>
        <time>2019-05-16T08:43:55Z</time>
      </trkpt>
      <trkpt lat="39.55452" lon="-8.67084">
        <ele>414.95</ele>
        <time>2019-05-16T08:44:08Z</time>
      </trkpt>
      <trkpt lat="39.55452" lon="-8.6708">
        <ele>414.95</ele>
        <time>2019-05-16T08:44:26Z</time>
      </trkpt>
      <trkpt lat="39.55458" lon="-8.67081">
        <ele>414.95</ele>
        <time>2019-05-16T08:44:36Z</time>
      </trkpt>
      <trkpt lat="39.55479" lon="-8.67085">
        <ele>415.91</ele>
        <time>2019-05-16T08:44:52Z</time>
      </trkpt>
      <trkpt lat="39.55493" lon="-8.67086">
        <ele>414.95</ele>
        <time>2019-05-16T08:45:04Z</time>
      </trkpt>
      <trkpt lat="39.55508" lon="-8.67092">
        <ele>416.39</ele>
        <time>2019-05-16T08:45:15Z</time>
      </trkpt>
      <trkpt lat="39.55526" lon="-8.67098">
        <ele>415.91</ele>
        <time>2019-05-16T08:45:30Z</time>
      </trkpt>
      <trkpt lat="39.55538" lon="-8.67102">
        <ele>416.87</ele>
        <time>2019-05-16T08:45:39Z</time>
      </trkpt>
      <trkpt lat="39.55556" lon="-8.67115">
        <ele>416.87</ele>
        <time>2019-05-16T08:45:55Z</time>
      </trkpt>
      <trkpt lat="39.55576" lon="-8.67128">
        <ele>417.35</ele>
        <time>2019-05-16T08:46:12Z</time>
      </trkpt>
      <trkpt lat="39.55587" lon="-8.67134">
        <ele>418.31</ele>
        <time>2019-05-16T08:46:21Z</time>
      </trkpt>
      <trkpt lat="39.55591" lon="-8.67136">
        <ele>416.87</ele>
        <time>2019-05-16T08:46:24Z</time>
      </trkpt>
      <trkpt lat="39.55595" lon="-8.67136">
        <ele>418.31</ele>
        <time>2019-05-16T08:46:27Z</time>
      </trkpt>
      <trkpt lat="39.556" lon="-8.67134">
        <ele>419.27</ele>
        <time>2019-05-16T08:46:32Z</time>
      </trkpt>
      <trkpt lat="39.55617" lon="-8.67129">
        <ele>418.79</ele>
        <time>2019-05-16T08:46:46Z</time>
      </trkpt>
      <trkpt lat="39.55626" lon="-8.67126">
        <ele>420.71</ele>
        <time>2019-05-16T08:46:53Z</time>
      </trkpt>
      <trkpt lat="39.5563" lon="-8.67125">
        <ele>419.27</ele>
        <time>2019-05-16T08:46:56Z</time>
      </trkpt>
      <trkpt lat="39.5565" lon="-8.67125">
        <ele>419.75</ele>
        <time>2019-05-16T08:47:10Z</time>
      </trkpt>
      <trkpt lat="39.55651" lon="-8.67125">
        <ele>419.75</ele>
        <time>2019-05-16T08:47:11Z</time>
      </trkpt>
      <trkpt lat="39.55659" lon="-8.67126">
        <ele>419.27</ele>
        <time>2019-05-16T08:47:17Z</time>
      </trkpt>
      <trkpt lat="39.55677" lon="-8.67128">
        <ele>419.75</ele>
        <time>2019-05-16T08:47:32Z</time>
      </trkpt>
      <trkpt lat="39.557" lon="-8.6713">
        <ele>418.79</ele>
        <time>2019-05-16T08:47:49Z</time>
      </trkpt>
      <trkpt lat="39.55718" lon="-8.67132">
        <ele>420.23</ele>
        <time>2019-05-16T08:48:03Z</time>
      </trkpt>
      <trkpt lat="39.55732" lon="-8.67134">
        <ele>419.27</ele>
        <time>2019-05-16T08:48:14Z</time>
      </trkpt>
      <trkpt lat="39.55734" lon="-8.67133">
        <ele>420.71</ele>
        <time>2019-05-16T08:48:16Z</time>
      </trkpt>
      <trkpt lat="39.55753" lon="-8.67134">
        <ele>419.75</ele>
        <time>2019-05-16T08:48:32Z</time>
      </trkpt>
      <trkpt lat="39.55772" lon="-8.67131">
        <ele>421.68</ele>
        <time>2019-05-16T08:48:48Z</time>
      </trkpt>
      <trkpt lat="39.55783" lon="-8.67129">
        <ele>419.75</ele>
        <time>2019-05-16T08:48:57Z</time>
      </trkpt>
      <trkpt lat="39.55788" lon="-8.67128">
        <ele>421.68</ele>
        <time>2019-05-16T08:49:02Z</time>
      </trkpt>
      <trkpt lat="39.55805" lon="-8.67124">
        <ele>419.75</ele>
        <time>2019-05-16T08:49:17Z</time>
      </trkpt>
      <trkpt lat="39.55816" lon="-8.67122">
        <ele>420.71</ele>
        <time>2019-05-16T08:49:25Z</time>
      </trkpt>
      <trkpt lat="39.55835" lon="-8.67121">
        <ele>419.75</ele>
        <time>2019-05-16T08:49:40Z</time>
      </trkpt>
      <trkpt lat="39.55836" lon="-8.67121">
        <ele>420.71</ele>
        <time>2019-05-16T08:49:41Z</time>
      </trkpt>
      <trkpt lat="39.55841" lon="-8.67122">
        <ele>421.68</ele>
        <time>2019-05-16T08:49:45Z</time>
      </trkpt>
      <trkpt lat="39.55844" lon="-8.67122">
        <ele>423.12</ele>
        <time>2019-05-16T08:49:47Z</time>
      </trkpt>
      <trkpt lat="39.55865" lon="-8.67119">
        <ele>421.68</ele>
        <time>2019-05-16T08:50:04Z</time>
      </trkpt>
      <trkpt lat="39.55874" lon="-8.67114">
        <ele>423.12</ele>
        <time>2019-05-16T08:50:16Z</time>
      </trkpt>
      <trkpt lat="39.55885" lon="-8.67101">
        <ele>424.56</ele>
        <time>2019-05-16T08:50:31Z</time>
      </trkpt>
      <trkpt lat="39.55897" lon="-8.67091">
        <ele>425.04</ele>
        <time>2019-05-16T08:50:45Z</time>
      </trkpt>
      <trkpt lat="39.55901" lon="-8.6709">
        <ele>425.04</ele>
        <time>2019-05-16T08:50:48Z</time>
      </trkpt>
      <trkpt lat="39.55921" lon="-8.6709">
        <ele>425.52</ele>
        <time>2019-05-16T08:51:06Z</time>
      </trkpt>
      <trkpt lat="39.55928" lon="-8.67087">
        <ele>425.52</ele>
        <time>2019-05-16T08:51:14Z</time>
      </trkpt>
      <trkpt lat="39.55941" lon="-8.67084">
        <ele>426</ele>
        <time>2019-05-16T08:51:27Z</time>
      </trkpt>
      <trkpt lat="39.55951" lon="-8.6708">
        <ele>425.04</ele>
        <time>2019-05-16T08:51:40Z</time>
      </trkpt>
      <trkpt lat="39.55967" lon="-8.67067">
        <ele>426.96</ele>
        <time>2019-05-16T08:51:56Z</time>
      </trkpt>
      <trkpt lat="39.55978" lon="-8.67052">
        <ele>427.92</ele>
        <time>2019-05-16T08:52:09Z</time>
      </trkpt>
      <trkpt lat="39.55979" lon="-8.67033">
        <ele>428.4</ele>
        <time>2019-05-16T08:52:24Z</time>
      </trkpt>
      <trkpt lat="39.55978" lon="-8.67014">
        <ele>428.89</ele>
        <time>2019-05-16T08:52:38Z</time>
      </trkpt>
      <trkpt lat="39.55979" lon="-8.67009">
        <ele>428.89</ele>
        <time>2019-05-16T08:52:42Z</time>
      </trkpt>
      <trkpt lat="39.5599" lon="-8.66989">
        <ele>429.37</ele>
        <time>2019-05-16T08:52:56Z</time>
      </trkpt>
      <trkpt lat="39.55996" lon="-8.66982">
        <ele>428.89</ele>
        <time>2019-05-16T08:53:06Z</time>
      </trkpt>
      <trkpt lat="39.55999" lon="-8.66978">
        <ele>428.89</ele>
        <time>2019-05-16T08:53:12Z</time>
      </trkpt>
      <trkpt lat="39.56012" lon="-8.66961">
        <ele>427.92</ele>
        <time>2019-05-16T08:53:26Z</time>
      </trkpt>
      <trkpt lat="39.5602" lon="-8.66945">
        <ele>427.44</ele>
        <time>2019-05-16T08:53:37Z</time>
      </trkpt>
      <trkpt lat="39.56024" lon="-8.66937">
        <ele>427.44</ele>
        <time>2019-05-16T08:53:42Z</time>
      </trkpt>
      <trkpt lat="39.56034" lon="-8.66925">
        <ele>426.48</ele>
        <time>2019-05-16T08:53:52Z</time>
      </trkpt>
      <trkpt lat="39.56044" lon="-8.66926">
        <ele>426.48</ele>
        <time>2019-05-16T08:54:07Z</time>
      </trkpt>
      <trkpt lat="39.56052" lon="-8.66926">
        <ele>426.96</ele>
        <time>2019-05-16T08:54:24Z</time>
      </trkpt>
      <trkpt lat="39.56055" lon="-8.66926">
        <ele>427.44</ele>
        <time>2019-05-16T08:54:31Z</time>
      </trkpt>
      <trkpt lat="39.56057" lon="-8.66927">
        <ele>427.44</ele>
        <time>2019-05-16T08:54:33Z</time>
      </trkpt>
      <trkpt lat="39.56064" lon="-8.66925">
        <ele>427.92</ele>
        <time>2019-05-16T08:54:49Z</time>
      </trkpt>
      <trkpt lat="39.56066" lon="-8.66926">
        <ele>427.92</ele>
        <time>2019-05-16T08:54:51Z</time>
      </trkpt>
      <trkpt lat="39.56069" lon="-8.66922">
        <ele>426.96</ele>
        <time>2019-05-16T08:54:55Z</time>
      </trkpt>
      <trkpt lat="39.56079" lon="-8.66914">
        <ele>426.96</ele>
        <time>2019-05-16T08:55:08Z</time>
      </trkpt>
      <trkpt lat="39.5609" lon="-8.66906">
        <ele>427.44</ele>
        <time>2019-05-16T08:55:18Z</time>
      </trkpt>
      <trkpt lat="39.56102" lon="-8.66901">
        <ele>427.92</ele>
        <time>2019-05-16T08:55:28Z</time>
      </trkpt>
      <trkpt lat="39.56114" lon="-8.66897">
        <ele>426.96</ele>
        <time>2019-05-16T08:55:42Z</time>
      </trkpt>
      <trkpt lat="39.5612" lon="-8.66895">
        <ele>427.44</ele>
        <time>2019-05-16T08:56:01Z</time>
      </trkpt>
      <trkpt lat="39.5613" lon="-8.66887">
        <ele>427.92</ele>
        <time>2019-05-16T08:56:14Z</time>
      </trkpt>
      <trkpt lat="39.56151" lon="-8.66879">
        <ele>428.4</ele>
        <time>2019-05-16T08:56:30Z</time>
      </trkpt>
      <trkpt lat="39.56163" lon="-8.66873">
        <ele>427.44</ele>
        <time>2019-05-16T08:56:44Z</time>
      </trkpt>
      <trkpt lat="39.56178" lon="-8.66869">
        <ele>428.4</ele>
        <time>2019-05-16T08:56:58Z</time>
      </trkpt>
      <trkpt lat="39.56189" lon="-8.66864">
        <ele>428.89</ele>
        <time>2019-05-16T08:57:07Z</time>
      </trkpt>
      <trkpt lat="39.56206" lon="-8.66862">
        <ele>430.81</ele>
        <time>2019-05-16T08:57:21Z</time>
      </trkpt>
      <trkpt lat="39.56219" lon="-8.6686">
        <ele>431.29</ele>
        <time>2019-05-16T08:57:30Z</time>
      </trkpt>
      <trkpt lat="39.56242" lon="-8.66851">
        <ele>431.29</ele>
        <time>2019-05-16T08:57:46Z</time>
      </trkpt>
      <trkpt lat="39.56259" lon="-8.66843">
        <ele>430.81</ele>
        <time>2019-05-16T08:58:02Z</time>
      </trkpt>
      <trkpt lat="39.56267" lon="-8.6684">
        <ele>431.29</ele>
        <time>2019-05-16T08:58:09Z</time>
      </trkpt>
      <trkpt lat="39.56282" lon="-8.66833">
        <ele>431.77</ele>
        <time>2019-05-16T08:58:23Z</time>
      </trkpt>
      <trkpt lat="39.56298" lon="-8.66828">
        <ele>431.77</ele>
        <time>2019-05-16T08:58:36Z</time>
      </trkpt>
      <trkpt lat="39.56304" lon="-8.66825">
        <ele>432.73</ele>
        <time>2019-05-16T08:58:41Z</time>
      </trkpt>
      <trkpt lat="39.56321" lon="-8.66819">
        <ele>431.77</ele>
        <time>2019-05-16T08:58:56Z</time>
      </trkpt>
      <trkpt lat="39.56342" lon="-8.66814">
        <ele>430.33</ele>
        <time>2019-05-16T08:59:11Z</time>
      </trkpt>
      <trkpt lat="39.56361" lon="-8.66808">
        <ele>429.85</ele>
        <time>2019-05-16T08:59:26Z</time>
      </trkpt>
      <trkpt lat="39.56379" lon="-8.66804">
        <ele>429.85</ele>
        <time>2019-05-16T08:59:39Z</time>
      </trkpt>
      <trkpt lat="39.564" lon="-8.66804">
        <ele>429.85</ele>
        <time>2019-05-16T08:59:57Z</time>
      </trkpt>
      <trkpt lat="39.5641" lon="-8.66804">
        <ele>430.81</ele>
        <time>2019-05-16T09:00:05Z</time>
      </trkpt>
      <trkpt lat="39.56432" lon="-8.66809">
        <ele>431.77</ele>
        <time>2019-05-16T09:00:22Z</time>
      </trkpt>
      <trkpt lat="39.56454" lon="-8.66815">
        <ele>433.21</ele>
        <time>2019-05-16T09:00:39Z</time>
      </trkpt>
      <trkpt lat="39.56474" lon="-8.66828">
        <ele>434.17</ele>
        <time>2019-05-16T09:00:58Z</time>
      </trkpt>
      <trkpt lat="39.56488" lon="-8.66841">
        <ele>435.61</ele>
        <time>2019-05-16T09:01:14Z</time>
      </trkpt>
      <trkpt lat="39.56504" lon="-8.66853">
        <ele>436.58</ele>
        <time>2019-05-16T09:01:31Z</time>
      </trkpt>
      <trkpt lat="39.5652" lon="-8.66866">
        <ele>437.06</ele>
        <time>2019-05-16T09:01:48Z</time>
      </trkpt>
      <trkpt lat="39.56537" lon="-8.66879">
        <ele>438.02</ele>
        <time>2019-05-16T09:02:04Z</time>
      </trkpt>
      <trkpt lat="39.56553" lon="-8.66894">
        <ele>438.5</ele>
        <time>2019-05-16T09:02:20Z</time>
      </trkpt>
      <trkpt lat="39.56571" lon="-8.66909">
        <ele>437.54</ele>
        <time>2019-05-16T09:02:37Z</time>
      </trkpt>
      <trkpt lat="39.56585" lon="-8.66924">
        <ele>436.58</ele>
        <time>2019-05-16T09:02:52Z</time>
      </trkpt>
      <trkpt lat="39.56588" lon="-8.66927">
        <ele>435.61</ele>
        <time>2019-05-16T09:02:55Z</time>
      </trkpt>
      <trkpt lat="39.56602" lon="-8.66939">
        <ele>437.06</ele>
        <time>2019-05-16T09:03:09Z</time>
      </trkpt>
      <trkpt lat="39.56614" lon="-8.66951">
        <ele>436.58</ele>
        <time>2019-05-16T09:03:21Z</time>
      </trkpt>
      <trkpt lat="39.56632" lon="-8.66963">
        <ele>436.1</ele>
        <time>2019-05-16T09:03:37Z</time>
      </trkpt>
      <trkpt lat="39.56649" lon="-8.66975">
        <ele>437.54</ele>
        <time>2019-05-16T09:03:52Z</time>
      </trkpt>
      <trkpt lat="39.56665" lon="-8.66987">
        <ele>438.02</ele>
        <time>2019-05-16T09:04:07Z</time>
      </trkpt>
      <trkpt lat="39.56682" lon="-8.66999">
        <ele>439.46</ele>
        <time>2019-05-16T09:04:24Z</time>
      </trkpt>
      <trkpt lat="39.567" lon="-8.67011">
        <ele>438.98</ele>
        <time>2019-05-16T09:04:41Z</time>
      </trkpt>
      <trkpt lat="39.56712" lon="-8.67019">
        <ele>439.46</ele>
        <time>2019-05-16T09:04:53Z</time>
      </trkpt>
      <trkpt lat="39.56716" lon="-8.67022">
        <ele>438.5</ele>
        <time>2019-05-16T09:04:57Z</time>
      </trkpt>
      <trkpt lat="39.56718" lon="-8.67023">
        <ele>438.98</ele>
        <time>2019-05-16T09:04:59Z</time>
      </trkpt>
      <trkpt lat="39.56736" lon="-8.67031">
        <ele>439.46</ele>
        <time>2019-05-16T09:05:14Z</time>
      </trkpt>
      <trkpt lat="39.56742" lon="-8.67032">
        <ele>438.5</ele>
        <time>2019-05-16T09:05:20Z</time>
      </trkpt>
      <trkpt lat="39.56744" lon="-8.6703">
        <ele>438.02</ele>
        <time>2019-05-16T09:05:22Z</time>
      </trkpt>
      <trkpt lat="39.56761" lon="-8.67028">
        <ele>438.5</ele>
        <time>2019-05-16T09:05:39Z</time>
      </trkpt>
      <trkpt lat="39.56776" lon="-8.6702">
        <ele>437.06</ele>
        <time>2019-05-16T09:05:53Z</time>
      </trkpt>
      <trkpt lat="39.56789" lon="-8.6701">
        <ele>436.1</ele>
        <time>2019-05-16T09:06:06Z</time>
      </trkpt>
      <trkpt lat="39.56814" lon="-8.6701">
        <ele>435.13</ele>
        <time>2019-05-16T09:06:21Z</time>
      </trkpt>
      <trkpt lat="39.56836" lon="-8.67019">
        <ele>434.17</ele>
        <time>2019-05-16T09:06:36Z</time>
      </trkpt>
      <trkpt lat="39.56846" lon="-8.67025">
        <ele>434.17</ele>
        <time>2019-05-16T09:06:49Z</time>
      </trkpt>
      <trkpt lat="39.56859" lon="-8.67037">
        <ele>433.69</ele>
        <time>2019-05-16T09:07:02Z</time>
      </trkpt>
      <trkpt lat="39.56864" lon="-8.67042">
        <ele>432.73</ele>
        <time>2019-05-16T09:07:07Z</time>
      </trkpt>
      <trkpt lat="39.5687" lon="-8.67048">
        <ele>433.21</ele>
        <time>2019-05-16T09:07:13Z</time>
      </trkpt>
      <trkpt lat="39.56872" lon="-8.67054">
        <ele>432.25</ele>
        <time>2019-05-16T09:07:17Z</time>
      </trkpt>
      <trkpt lat="39.56886" lon="-8.67075">
        <ele>432.73</ele>
        <time>2019-05-16T09:07:33Z</time>
      </trkpt>
      <trkpt lat="39.56892" lon="-8.67081">
        <ele>431.29</ele>
        <time>2019-05-16T09:07:42Z</time>
      </trkpt>
      <trkpt lat="39.569" lon="-8.67089">
        <ele>430.33</ele>
        <time>2019-05-16T09:07:50Z</time>
      </trkpt>
      <trkpt lat="39.56922" lon="-8.67098">
        <ele>429.85</ele>
        <time>2019-05-16T09:08:08Z</time>
      </trkpt>
      <trkpt lat="39.56939" lon="-8.67106">
        <ele>428.89</ele>
        <time>2019-05-16T09:08:23Z</time>
      </trkpt>
      <trkpt lat="39.56952" lon="-8.67117">
        <ele>427.44</ele>
        <time>2019-05-16T09:08:36Z</time>
      </trkpt>
      <trkpt lat="39.56955" lon="-8.6712">
        <ele>426.96</ele>
        <time>2019-05-16T09:08:39Z</time>
      </trkpt>
      <trkpt lat="39.56968" lon="-8.67135">
        <ele>427.92</ele>
        <time>2019-05-16T09:08:53Z</time>
      </trkpt>
      <trkpt lat="39.56972" lon="-8.67139">
        <ele>427.92</ele>
        <time>2019-05-16T09:08:57Z</time>
      </trkpt>
      <trkpt lat="39.56985" lon="-8.67157">
        <ele>426.48</ele>
        <time>2019-05-16T09:09:12Z</time>
      </trkpt>
      <trkpt lat="39.56988" lon="-8.67162">
        <ele>426.48</ele>
        <time>2019-05-16T09:09:16Z</time>
      </trkpt>
      <trkpt lat="39.56999" lon="-8.67179">
        <ele>425.04</ele>
        <time>2019-05-16T09:09:30Z</time>
      </trkpt>
      <trkpt lat="39.57009" lon="-8.67199">
        <ele>425.52</ele>
        <time>2019-05-16T09:09:45Z</time>
      </trkpt>
      <trkpt lat="39.57012" lon="-8.67207">
        <ele>424.56</ele>
        <time>2019-05-16T09:09:51Z</time>
      </trkpt>
      <trkpt lat="39.57018" lon="-8.67224">
        <ele>425.04</ele>
        <time>2019-05-16T09:10:04Z</time>
      </trkpt>
      <trkpt lat="39.57018" lon="-8.67236">
        <ele>424.56</ele>
        <time>2019-05-16T09:10:18Z</time>
      </trkpt>
      <trkpt lat="39.57017" lon="-8.67235">
        <ele>425.04</ele>
        <time>2019-05-16T09:10:38Z</time>
      </trkpt>
      <trkpt lat="39.57019" lon="-8.67237">
        <ele>423.12</ele>
        <time>2019-05-16T09:10:53Z</time>
      </trkpt>
      <trkpt lat="39.57021" lon="-8.67236">
        <ele>424.08</ele>
        <time>2019-05-16T09:11:18Z</time>
      </trkpt>
      <trkpt lat="39.5702" lon="-8.67235">
        <ele>424.08</ele>
        <time>2019-05-16T09:11:58Z</time>
      </trkpt>
      <trkpt lat="39.57019" lon="-8.67235">
        <ele>423.12</ele>
        <time>2019-05-16T09:12:34Z</time>
      </trkpt>
      <trkpt lat="39.57019" lon="-8.67236">
        <ele>424.08</ele>
        <time>2019-05-16T09:13:19Z</time>
      </trkpt>
      <trkpt lat="39.57019" lon="-8.67236">
        <ele>424.56</ele>
        <time>2019-05-16T09:13:59Z</time>
      </trkpt>
      <trkpt lat="39.57018" lon="-8.67237">
        <ele>424.56</ele>
        <time>2019-05-16T09:14:33Z</time>
      </trkpt>
      <trkpt lat="39.5702" lon="-8.67237">
        <ele>425.04</ele>
        <time>2019-05-16T09:15:13Z</time>
      </trkpt>
      <trkpt lat="39.57024" lon="-8.67235">
        <ele>425.04</ele>
        <time>2019-05-16T09:15:48Z</time>
      </trkpt>
      <trkpt lat="39.57022" lon="-8.67236">
        <ele>425.04</ele>
        <time>2019-05-16T09:16:26Z</time>
      </trkpt>
      <trkpt lat="39.57021" lon="-8.67237">
        <ele>425.04</ele>
        <time>2019-05-16T09:16:58Z</time>
      </trkpt>
      <trkpt lat="39.57021" lon="-8.67236">
        <ele>425.52</ele>
        <time>2019-05-16T09:17:35Z</time>
      </trkpt>
      <trkpt lat="39.57022" lon="-8.67236">
        <ele>424.08</ele>
        <time>2019-05-16T09:18:11Z</time>
      </trkpt>
      <trkpt lat="39.57021" lon="-8.67237">
        <ele>425.04</ele>
        <time>2019-05-16T09:18:41Z</time>
      </trkpt>
      <trkpt lat="39.5702" lon="-8.67236">
        <ele>425.52</ele>
        <time>2019-05-16T09:19:13Z</time>
      </trkpt>
      <trkpt lat="39.57019" lon="-8.67238">
        <ele>426.48</ele>
        <time>2019-05-16T09:19:48Z</time>
      </trkpt>
      <trkpt lat="39.5702" lon="-8.67236">
        <ele>425.04</ele>
        <time>2019-05-16T09:20:24Z</time>
      </trkpt>
      <trkpt lat="39.57019" lon="-8.67237">
        <ele>426.96</ele>
        <time>2019-05-16T09:20:49Z</time>
      </trkpt>
      <trkpt lat="39.57019" lon="-8.67236">
        <ele>426.96</ele>
        <time>2019-05-16T09:21:18Z</time>
      </trkpt>
      <trkpt lat="39.5702" lon="-8.67238">
        <ele>427.44</ele>
        <time>2019-05-16T09:21:44Z</time>
      </trkpt>
      <trkpt lat="39.57021" lon="-8.67237">
        <ele>428.4</ele>
        <time>2019-05-16T09:22:03Z</time>
      </trkpt>
      <trkpt lat="39.57021" lon="-8.67236">
        <ele>428.89</ele>
        <time>2019-05-16T09:22:17Z</time>
      </trkpt>
      <trkpt lat="39.57018" lon="-8.67233">
        <ele>427.92</ele>
        <time>2019-05-16T09:22:39Z</time>
      </trkpt>
      <trkpt lat="39.57017" lon="-8.67232">
        <ele>428.4</ele>
        <time>2019-05-16T09:23:09Z</time>
      </trkpt>
      <trkpt lat="39.57022" lon="-8.67236">
        <ele>427.92</ele>
        <time>2019-05-16T09:23:14Z</time>
      </trkpt>
      <trkpt lat="39.57033" lon="-8.67256">
        <ele>426</ele>
        <time>2019-05-16T09:23:28Z</time>
      </trkpt>
      <trkpt lat="39.57044" lon="-8.67269">
        <ele>428.4</ele>
        <time>2019-05-16T09:23:39Z</time>
      </trkpt>
      <trkpt lat="39.57055" lon="-8.6728">
        <ele>428.4</ele>
        <time>2019-05-16T09:23:51Z</time>
      </trkpt>
      <trkpt lat="39.57071" lon="-8.6729">
        <ele>428.4</ele>
        <time>2019-05-16T09:24:05Z</time>
      </trkpt>
      <trkpt lat="39.57086" lon="-8.67305">
        <ele>429.37</ele>
        <time>2019-05-16T09:24:20Z</time>
      </trkpt>
      <trkpt lat="39.57095" lon="-8.67313">
        <ele>429.37</ele>
        <time>2019-05-16T09:24:29Z</time>
      </trkpt>
      <trkpt lat="39.57109" lon="-8.6733">
        <ele>428.89</ele>
        <time>2019-05-16T09:24:44Z</time>
      </trkpt>
      <trkpt lat="39.57115" lon="-8.67337">
        <ele>428.89</ele>
        <time>2019-05-16T09:24:50Z</time>
      </trkpt>
      <trkpt lat="39.57124" lon="-8.67354">
        <ele>429.37</ele>
        <time>2019-05-16T09:25:01Z</time>
      </trkpt>
      <trkpt lat="39.57132" lon="-8.6738">
        <ele>428.89</ele>
        <time>2019-05-16T09:25:17Z</time>
      </trkpt>
      <trkpt lat="39.57132" lon="-8.67382">
        <ele>428.89</ele>
        <time>2019-05-16T09:25:18Z</time>
      </trkpt>
      <trkpt lat="39.57139" lon="-8.67397">
        <ele>427.44</ele>
        <time>2019-05-16T09:25:30Z</time>
      </trkpt>
      <trkpt lat="39.57145" lon="-8.67416">
        <ele>427.92</ele>
        <time>2019-05-16T09:25:43Z</time>
      </trkpt>
      <trkpt lat="39.57149" lon="-8.67434">
        <ele>426.96</ele>
        <time>2019-05-16T09:25:55Z</time>
      </trkpt>
      <trkpt lat="39.57154" lon="-8.67452">
        <ele>426.96</ele>
        <time>2019-05-16T09:26:06Z</time>
      </trkpt>
      <trkpt lat="39.5716" lon="-8.67458">
        <ele>428.4</ele>
        <time>2019-05-16T09:26:12Z</time>
      </trkpt>
      <trkpt lat="39.57162" lon="-8.6746">
        <ele>426</ele>
        <time>2019-05-16T09:26:14Z</time>
      </trkpt>
      <trkpt lat="39.57167" lon="-8.67463">
        <ele>426</ele>
        <time>2019-05-16T09:26:18Z</time>
      </trkpt>
      <trkpt lat="39.57173" lon="-8.67469">
        <ele>426.48</ele>
        <time>2019-05-16T09:26:25Z</time>
      </trkpt>
      <trkpt lat="39.57183" lon="-8.67478">
        <ele>427.92</ele>
        <time>2019-05-16T09:26:34Z</time>
      </trkpt>
      <trkpt lat="39.57186" lon="-8.67482">
        <ele>426.96</ele>
        <time>2019-05-16T09:26:37Z</time>
      </trkpt>
      <trkpt lat="39.5719" lon="-8.67486">
        <ele>426.96</ele>
        <time>2019-05-16T09:26:41Z</time>
      </trkpt>
      <trkpt lat="39.57195" lon="-8.67493">
        <ele>427.44</ele>
        <time>2019-05-16T09:26:46Z</time>
      </trkpt>
      <trkpt lat="39.57199" lon="-8.67497">
        <ele>428.4</ele>
        <time>2019-05-16T09:26:50Z</time>
      </trkpt>
      <trkpt lat="39.57205" lon="-8.67508">
        <ele>425.52</ele>
        <time>2019-05-16T09:26:58Z</time>
      </trkpt>
      <trkpt lat="39.57207" lon="-8.67512">
        <ele>427.44</ele>
        <time>2019-05-16T09:27:01Z</time>
      </trkpt>
      <trkpt lat="39.57208" lon="-8.67513">
        <ele>427.92</ele>
        <time>2019-05-16T09:27:02Z</time>
      </trkpt>
      <trkpt lat="39.57214" lon="-8.67518">
        <ele>427.44</ele>
        <time>2019-05-16T09:27:08Z</time>
      </trkpt>
      <trkpt lat="39.57218" lon="-8.67524">
        <ele>426.96</ele>
        <time>2019-05-16T09:27:13Z</time>
      </trkpt>
      <trkpt lat="39.5722" lon="-8.67525">
        <ele>426.96</ele>
        <time>2019-05-16T09:27:15Z</time>
      </trkpt>
      <trkpt lat="39.57225" lon="-8.67529">
        <ele>427.44</ele>
        <time>2019-05-16T09:27:20Z</time>
      </trkpt>
      <trkpt lat="39.57232" lon="-8.67536">
        <ele>428.4</ele>
        <time>2019-05-16T09:27:27Z</time>
      </trkpt>
      <trkpt lat="39.57247" lon="-8.67546">
        <ele>428.4</ele>
        <time>2019-05-16T09:27:40Z</time>
      </trkpt>
      <trkpt lat="39.57254" lon="-8.6755">
        <ele>426.96</ele>
        <time>2019-05-16T09:27:47Z</time>
      </trkpt>
      <trkpt lat="39.57258" lon="-8.67554">
        <ele>426.96</ele>
        <time>2019-05-16T09:27:51Z</time>
      </trkpt>
      <trkpt lat="39.5726" lon="-8.67556">
        <ele>428.4</ele>
        <time>2019-05-16T09:27:53Z</time>
      </trkpt>
      <trkpt lat="39.57265" lon="-8.67562">
        <ele>428.4</ele>
        <time>2019-05-16T09:27:59Z</time>
      </trkpt>
      <trkpt lat="39.57278" lon="-8.67577">
        <ele>429.37</ele>
        <time>2019-05-16T09:28:12Z</time>
      </trkpt>
      <trkpt lat="39.57281" lon="-8.67578">
        <ele>428.4</ele>
        <time>2019-05-16T09:28:15Z</time>
      </trkpt>
      <trkpt lat="39.57287" lon="-8.67586">
        <ele>428.4</ele>
        <time>2019-05-16T09:28:22Z</time>
      </trkpt>
      <trkpt lat="39.57305" lon="-8.676">
        <ele>429.37</ele>
        <time>2019-05-16T09:28:38Z</time>
      </trkpt>
      <trkpt lat="39.57325" lon="-8.6761">
        <ele>428.4</ele>
        <time>2019-05-16T09:28:55Z</time>
      </trkpt>
      <trkpt lat="39.57335" lon="-8.67614">
        <ele>429.85</ele>
        <time>2019-05-16T09:29:03Z</time>
      </trkpt>
      <trkpt lat="39.57338" lon="-8.67615">
        <ele>429.85</ele>
        <time>2019-05-16T09:29:06Z</time>
      </trkpt>
      <trkpt lat="39.57347" lon="-8.67618">
        <ele>431.29</ele>
        <time>2019-05-16T09:29:19Z</time>
      </trkpt>
      <trkpt lat="39.57349" lon="-8.67619">
        <ele>431.29</ele>
        <time>2019-05-16T09:29:21Z</time>
      </trkpt>
      <trkpt lat="39.57356" lon="-8.67622">
        <ele>430.33</ele>
        <time>2019-05-16T09:29:27Z</time>
      </trkpt>
      <trkpt lat="39.57363" lon="-8.67626">
        <ele>430.33</ele>
        <time>2019-05-16T09:29:33Z</time>
      </trkpt>
      <trkpt lat="39.5737" lon="-8.6763">
        <ele>430.33</ele>
        <time>2019-05-16T09:29:39Z</time>
      </trkpt>
      <trkpt lat="39.57385" lon="-8.67641">
        <ele>430.81</ele>
        <time>2019-05-16T09:29:53Z</time>
      </trkpt>
      <trkpt lat="39.57401" lon="-8.6766">
        <ele>432.25</ele>
        <time>2019-05-16T09:30:10Z</time>
      </trkpt>
      <trkpt lat="39.57404" lon="-8.67664">
        <ele>432.25</ele>
        <time>2019-05-16T09:30:14Z</time>
      </trkpt>
      <trkpt lat="39.57408" lon="-8.67668">
        <ele>432.25</ele>
        <time>2019-05-16T09:30:18Z</time>
      </trkpt>
      <trkpt lat="39.57421" lon="-8.67684">
        <ele>433.69</ele>
        <time>2019-05-16T09:30:34Z</time>
      </trkpt>
      <trkpt lat="39.57424" lon="-8.67685">
        <ele>433.21</ele>
        <time>2019-05-16T09:30:36Z</time>
      </trkpt>
      <trkpt lat="39.57437" lon="-8.67695">
        <ele>432.73</ele>
        <time>2019-05-16T09:30:51Z</time>
      </trkpt>
      <trkpt lat="39.5744" lon="-8.67696">
        <ele>433.21</ele>
        <time>2019-05-16T09:30:54Z</time>
      </trkpt>
      <trkpt lat="39.57442" lon="-8.67697">
        <ele>433.69</ele>
        <time>2019-05-16T09:30:56Z</time>
      </trkpt>
      <trkpt lat="39.57456" lon="-8.67704">
        <ele>433.21</ele>
        <time>2019-05-16T09:31:09Z</time>
      </trkpt>
      <trkpt lat="39.5746" lon="-8.67709">
        <ele>433.21</ele>
        <time>2019-05-16T09:31:14Z</time>
      </trkpt>
      <trkpt lat="39.57477" lon="-8.6772">
        <ele>434.65</ele>
        <time>2019-05-16T09:31:29Z</time>
      </trkpt>
      <trkpt lat="39.57483" lon="-8.67723">
        <ele>434.65</ele>
        <time>2019-05-16T09:31:34Z</time>
      </trkpt>
      <trkpt lat="39.57485" lon="-8.67724">
        <ele>434.65</ele>
        <time>2019-05-16T09:31:36Z</time>
      </trkpt>
      <trkpt lat="39.57489" lon="-8.67728">
        <ele>435.13</ele>
        <time>2019-05-16T09:31:40Z</time>
      </trkpt>
      <trkpt lat="39.57495" lon="-8.67732">
        <ele>435.61</ele>
        <time>2019-05-16T09:31:45Z</time>
      </trkpt>
      <trkpt lat="39.57505" lon="-8.67741">
        <ele>435.61</ele>
        <time>2019-05-16T09:31:56Z</time>
      </trkpt>
      <trkpt lat="39.57518" lon="-8.67753">
        <ele>438.02</ele>
        <time>2019-05-16T09:32:11Z</time>
      </trkpt>
      <trkpt lat="39.57519" lon="-8.67754">
        <ele>437.54</ele>
        <time>2019-05-16T09:32:13Z</time>
      </trkpt>
      <trkpt lat="39.57524" lon="-8.6776">
        <ele>437.54</ele>
        <time>2019-05-16T09:32:19Z</time>
      </trkpt>
      <trkpt lat="39.57533" lon="-8.67764">
        <ele>438.02</ele>
        <time>2019-05-16T09:32:27Z</time>
      </trkpt>
      <trkpt lat="39.57536" lon="-8.67766">
        <ele>438.5</ele>
        <time>2019-05-16T09:32:30Z</time>
      </trkpt>
      <trkpt lat="39.57541" lon="-8.6777">
        <ele>437.54</ele>
        <time>2019-05-16T09:32:35Z</time>
      </trkpt>
      <trkpt lat="39.57543" lon="-8.67771">
        <ele>437.54</ele>
        <time>2019-05-16T09:32:37Z</time>
      </trkpt>
      <trkpt lat="39.57557" lon="-8.67781">
        <ele>438.98</ele>
        <time>2019-05-16T09:32:50Z</time>
      </trkpt>
      <trkpt lat="39.5757" lon="-8.67794">
        <ele>437.54</ele>
        <time>2019-05-16T09:33:04Z</time>
      </trkpt>
      <trkpt lat="39.57584" lon="-8.6781">
        <ele>436.58</ele>
        <time>2019-05-16T09:33:19Z</time>
      </trkpt>
      <trkpt lat="39.57591" lon="-8.67816">
        <ele>436.1</ele>
        <time>2019-05-16T09:33:26Z</time>
      </trkpt>
      <trkpt lat="39.57594" lon="-8.67821">
        <ele>435.61</ele>
        <time>2019-05-16T09:33:30Z</time>
      </trkpt>
      <trkpt lat="39.57596" lon="-8.67823">
        <ele>435.61</ele>
        <time>2019-05-16T09:33:32Z</time>
      </trkpt>
      <trkpt lat="39.57608" lon="-8.67838">
        <ele>435.13</ele>
        <time>2019-05-16T09:33:46Z</time>
      </trkpt>
      <trkpt lat="39.57613" lon="-8.67843">
        <ele>434.65</ele>
        <time>2019-05-16T09:33:51Z</time>
      </trkpt>
      <trkpt lat="39.57616" lon="-8.67848">
        <ele>433.69</ele>
        <time>2019-05-16T09:33:55Z</time>
      </trkpt>
      <trkpt lat="39.57619" lon="-8.67852">
        <ele>431.29</ele>
        <time>2019-05-16T09:33:59Z</time>
      </trkpt>
      <trkpt lat="39.57623" lon="-8.67857">
        <ele>432.73</ele>
        <time>2019-05-16T09:34:03Z</time>
      </trkpt>
      <trkpt lat="39.5763" lon="-8.67864">
        <ele>430.81</ele>
        <time>2019-05-16T09:34:10Z</time>
      </trkpt>
      <trkpt lat="39.57635" lon="-8.6787">
        <ele>430.33</ele>
        <time>2019-05-16T09:34:15Z</time>
      </trkpt>
      <trkpt lat="39.57637" lon="-8.67874">
        <ele>433.21</ele>
        <time>2019-05-16T09:34:18Z</time>
      </trkpt>
      <trkpt lat="39.57642" lon="-8.67884">
        <ele>429.85</ele>
        <time>2019-05-16T09:34:25Z</time>
      </trkpt>
      <trkpt lat="39.57646" lon="-8.67892">
        <ele>431.77</ele>
        <time>2019-05-16T09:34:31Z</time>
      </trkpt>
      <trkpt lat="39.57646" lon="-8.67894">
        <ele>433.69</ele>
        <time>2019-05-16T09:34:33Z</time>
      </trkpt>
      <trkpt lat="39.57649" lon="-8.67896">
        <ele>429.37</ele>
        <time>2019-05-16T09:34:36Z</time>
      </trkpt>
      <trkpt lat="39.5765" lon="-8.67897">
        <ele>425.04</ele>
        <time>2019-05-16T09:34:38Z</time>
      </trkpt>
      <trkpt lat="39.5765" lon="-8.67898">
        <ele>428.89</ele>
        <time>2019-05-16T09:34:39Z</time>
      </trkpt>
      <trkpt lat="39.57651" lon="-8.67899">
        <ele>428.89</ele>
        <time>2019-05-16T09:34:40Z</time>
      </trkpt>
      <trkpt lat="39.57654" lon="-8.67903">
        <ele>426</ele>
        <time>2019-05-16T09:34:44Z</time>
      </trkpt>
      <trkpt lat="39.57656" lon="-8.67906">
        <ele>429.85</ele>
        <time>2019-05-16T09:34:46Z</time>
      </trkpt>
      <trkpt lat="39.57657" lon="-8.67908">
        <ele>429.37</ele>
        <time>2019-05-16T09:34:48Z</time>
      </trkpt>
      <trkpt lat="39.57662" lon="-8.67914">
        <ele>431.77</ele>
        <time>2019-05-16T09:34:54Z</time>
      </trkpt>
      <trkpt lat="39.57666" lon="-8.6792">
        <ele>430.33</ele>
        <time>2019-05-16T09:34:59Z</time>
      </trkpt>
      <trkpt lat="39.57667" lon="-8.67922">
        <ele>430.81</ele>
        <time>2019-05-16T09:35:01Z</time>
      </trkpt>
      <trkpt lat="39.57669" lon="-8.67927">
        <ele>430.81</ele>
        <time>2019-05-16T09:35:04Z</time>
      </trkpt>
      <trkpt lat="39.57681" lon="-8.67937">
        <ele>431.29</ele>
        <time>2019-05-16T09:35:16Z</time>
      </trkpt>
      <trkpt lat="39.5769" lon="-8.6794">
        <ele>427.44</ele>
        <time>2019-05-16T09:35:26Z</time>
      </trkpt>
      <trkpt lat="39.57703" lon="-8.67946">
        <ele>430.81</ele>
        <time>2019-05-16T09:35:37Z</time>
      </trkpt>
      <trkpt lat="39.57704" lon="-8.67947">
        <ele>430.81</ele>
        <time>2019-05-16T09:35:38Z</time>
      </trkpt>
      <trkpt lat="39.57706" lon="-8.67947">
        <ele>432.25</ele>
        <time>2019-05-16T09:35:39Z</time>
      </trkpt>
      <trkpt lat="39.57709" lon="-8.67949">
        <ele>430.33</ele>
        <time>2019-05-16T09:35:41Z</time>
      </trkpt>
      <trkpt lat="39.57716" lon="-8.6795">
        <ele>432.73</ele>
        <time>2019-05-16T09:35:46Z</time>
      </trkpt>
      <trkpt lat="39.5772" lon="-8.67952">
        <ele>429.37</ele>
        <time>2019-05-16T09:35:49Z</time>
      </trkpt>
      <trkpt lat="39.57731" lon="-8.67957">
        <ele>426</ele>
        <time>2019-05-16T09:35:58Z</time>
      </trkpt>
      <trkpt lat="39.57733" lon="-8.67958">
        <ele>426</ele>
        <time>2019-05-16T09:35:59Z</time>
      </trkpt>
      <trkpt lat="39.57738" lon="-8.67959">
        <ele>427.92</ele>
        <time>2019-05-16T09:36:03Z</time>
      </trkpt>
      <trkpt lat="39.57756" lon="-8.67971">
        <ele>427.92</ele>
        <time>2019-05-16T09:36:19Z</time>
      </trkpt>
      <trkpt lat="39.57775" lon="-8.67977">
        <ele>426.96</ele>
        <time>2019-05-16T09:36:36Z</time>
      </trkpt>
      <trkpt lat="39.57791" lon="-8.67977">
        <ele>428.4</ele>
        <time>2019-05-16T09:36:51Z</time>
      </trkpt>
      <trkpt lat="39.57798" lon="-8.6798">
        <ele>426</ele>
        <time>2019-05-16T09:36:58Z</time>
      </trkpt>
      <trkpt lat="39.57812" lon="-8.67984">
        <ele>424.08</ele>
        <time>2019-05-16T09:37:09Z</time>
      </trkpt>
      <trkpt lat="39.57818" lon="-8.67988">
        <ele>425.52</ele>
        <time>2019-05-16T09:37:15Z</time>
      </trkpt>
      <trkpt lat="39.57833" lon="-8.67998">
        <ele>425.52</ele>
        <time>2019-05-16T09:37:28Z</time>
      </trkpt>
      <trkpt lat="39.57846" lon="-8.68004">
        <ele>426.48</ele>
        <time>2019-05-16T09:37:40Z</time>
      </trkpt>
      <trkpt lat="39.57849" lon="-8.68005">
        <ele>423.6</ele>
        <time>2019-05-16T09:37:43Z</time>
      </trkpt>
      <trkpt lat="39.57856" lon="-8.68007">
        <ele>426.96</ele>
        <time>2019-05-16T09:37:49Z</time>
      </trkpt>
      <trkpt lat="39.57879" lon="-8.68008">
        <ele>426.48</ele>
        <time>2019-05-16T09:38:07Z</time>
      </trkpt>
      <trkpt lat="39.57884" lon="-8.68008">
        <ele>426.48</ele>
        <time>2019-05-16T09:38:13Z</time>
      </trkpt>
      <trkpt lat="39.57894" lon="-8.6801">
        <ele>425.52</ele>
        <time>2019-05-16T09:38:25Z</time>
      </trkpt>
      <trkpt lat="39.57908" lon="-8.68007">
        <ele>425.04</ele>
        <time>2019-05-16T09:38:39Z</time>
      </trkpt>
      <trkpt lat="39.57912" lon="-8.68007">
        <ele>427.44</ele>
        <time>2019-05-16T09:38:51Z</time>
      </trkpt>
      <trkpt lat="39.57917" lon="-8.68005">
        <ele>427.92</ele>
        <time>2019-05-16T09:39:08Z</time>
      </trkpt>
      <trkpt lat="39.57925" lon="-8.68008">
        <ele>428.4</ele>
        <time>2019-05-16T09:39:20Z</time>
      </trkpt>
      <trkpt lat="39.57927" lon="-8.68009">
        <ele>427.44</ele>
        <time>2019-05-16T09:39:32Z</time>
      </trkpt>
      <trkpt lat="39.57927" lon="-8.68009">
        <ele>426.48</ele>
        <time>2019-05-16T09:39:37Z</time>
      </trkpt>
      <trkpt lat="39.57922" lon="-8.68007">
        <ele>426.96</ele>
        <time>2019-05-16T09:39:51Z</time>
      </trkpt>
      <trkpt lat="39.57924" lon="-8.68006">
        <ele>426.96</ele>
        <time>2019-05-16T09:40:01Z</time>
      </trkpt>
      <trkpt lat="39.57932" lon="-8.68011">
        <ele>425.04</ele>
        <time>2019-05-16T09:40:08Z</time>
      </trkpt>
      <trkpt lat="39.5794" lon="-8.68009">
        <ele>426.48</ele>
        <time>2019-05-16T09:40:15Z</time>
      </trkpt>
      <trkpt lat="39.57954" lon="-8.68006">
        <ele>426</ele>
        <time>2019-05-16T09:40:29Z</time>
      </trkpt>
      <trkpt lat="39.57959" lon="-8.68006">
        <ele>426.48</ele>
        <time>2019-05-16T09:40:34Z</time>
      </trkpt>
      <trkpt lat="39.57976" lon="-8.68003">
        <ele>424.56</ele>
        <time>2019-05-16T09:40:46Z</time>
      </trkpt>
      <trkpt lat="39.57993" lon="-8.68003">
        <ele>425.52</ele>
        <time>2019-05-16T09:41:00Z</time>
      </trkpt>
      <trkpt lat="39.57995" lon="-8.68002">
        <ele>424.56</ele>
        <time>2019-05-16T09:41:02Z</time>
      </trkpt>
      <trkpt lat="39.57998" lon="-8.68">
        <ele>426.96</ele>
        <time>2019-05-16T09:41:05Z</time>
      </trkpt>
      <trkpt lat="39.58" lon="-8.67999">
        <ele>425.04</ele>
        <time>2019-05-16T09:41:07Z</time>
      </trkpt>
      <trkpt lat="39.58013" lon="-8.67989">
        <ele>424.56</ele>
        <time>2019-05-16T09:41:20Z</time>
      </trkpt>
      <trkpt lat="39.58028" lon="-8.67978">
        <ele>424.56</ele>
        <time>2019-05-16T09:41:33Z</time>
      </trkpt>
      <trkpt lat="39.58042" lon="-8.67968">
        <ele>423.12</ele>
        <time>2019-05-16T09:41:48Z</time>
      </trkpt>
      <trkpt lat="39.58051" lon="-8.6797">
        <ele>423.12</ele>
        <time>2019-05-16T09:41:55Z</time>
      </trkpt>
      <trkpt lat="39.58056" lon="-8.6798">
        <ele>424.08</ele>
        <time>2019-05-16T09:42:03Z</time>
      </trkpt>
      <trkpt lat="39.58057" lon="-8.67984">
        <ele>425.52</ele>
        <time>2019-05-16T09:42:06Z</time>
      </trkpt>
      <trkpt lat="39.58066" lon="-8.67996">
        <ele>424.56</ele>
        <time>2019-05-16T09:42:18Z</time>
      </trkpt>
      <trkpt lat="39.58067" lon="-8.67998">
        <ele>424.08</ele>
        <time>2019-05-16T09:42:20Z</time>
      </trkpt>
      <trkpt lat="39.58069" lon="-8.68009">
        <ele>423.12</ele>
        <time>2019-05-16T09:42:27Z</time>
      </trkpt>
      <trkpt lat="39.58075" lon="-8.68019">
        <ele>423.6</ele>
        <time>2019-05-16T09:42:35Z</time>
      </trkpt>
      <trkpt lat="39.58077" lon="-8.68022">
        <ele>424.56</ele>
        <time>2019-05-16T09:42:37Z</time>
      </trkpt>
      <trkpt lat="39.58083" lon="-8.68027">
        <ele>424.08</ele>
        <time>2019-05-16T09:42:43Z</time>
      </trkpt>
      <trkpt lat="39.58098" lon="-8.68028">
        <ele>424.56</ele>
        <time>2019-05-16T09:42:57Z</time>
      </trkpt>
      <trkpt lat="39.58119" lon="-8.68027">
        <ele>424.08</ele>
        <time>2019-05-16T09:43:13Z</time>
      </trkpt>
      <trkpt lat="39.5813" lon="-8.68024">
        <ele>423.12</ele>
        <time>2019-05-16T09:43:24Z</time>
      </trkpt>
      <trkpt lat="39.58135" lon="-8.68017">
        <ele>424.08</ele>
        <time>2019-05-16T09:43:32Z</time>
      </trkpt>
      <trkpt lat="39.58141" lon="-8.68005">
        <ele>424.08</ele>
        <time>2019-05-16T09:43:41Z</time>
      </trkpt>
      <trkpt lat="39.58148" lon="-8.68001">
        <ele>423.12</ele>
        <time>2019-05-16T09:43:49Z</time>
      </trkpt>
      <trkpt lat="39.58162" lon="-8.68">
        <ele>421.19</ele>
        <time>2019-05-16T09:44:01Z</time>
      </trkpt>
      <trkpt lat="39.58175" lon="-8.68004">
        <ele>423.12</ele>
        <time>2019-05-16T09:44:12Z</time>
      </trkpt>
      <trkpt lat="39.58186" lon="-8.6801">
        <ele>419.75</ele>
        <time>2019-05-16T09:44:22Z</time>
      </trkpt>
      <trkpt lat="39.58193" lon="-8.68012">
        <ele>422.16</ele>
        <time>2019-05-16T09:44:27Z</time>
      </trkpt>
      <trkpt lat="39.58209" lon="-8.68024">
        <ele>422.16</ele>
        <time>2019-05-16T09:44:40Z</time>
      </trkpt>
      <trkpt lat="39.58217" lon="-8.68031">
        <ele>422.16</ele>
        <time>2019-05-16T09:44:48Z</time>
      </trkpt>
      <trkpt lat="39.58227" lon="-8.68039">
        <ele>422.64</ele>
        <time>2019-05-16T09:44:58Z</time>
      </trkpt>
      <trkpt lat="39.58237" lon="-8.68051">
        <ele>422.16</ele>
        <time>2019-05-16T09:45:10Z</time>
      </trkpt>
      <trkpt lat="39.58248" lon="-8.68064">
        <ele>421.19</ele>
        <time>2019-05-16T09:45:22Z</time>
      </trkpt>
      <trkpt lat="39.58257" lon="-8.68074">
        <ele>422.16</ele>
        <time>2019-05-16T09:45:33Z</time>
      </trkpt>
      <trkpt lat="39.58271" lon="-8.68087">
        <ele>421.19</ele>
        <time>2019-05-16T09:45:47Z</time>
      </trkpt>
      <trkpt lat="39.58282" lon="-8.68094">
        <ele>421.19</ele>
        <time>2019-05-16T09:46:02Z</time>
      </trkpt>
      <trkpt lat="39.58294" lon="-8.681">
        <ele>422.16</ele>
        <time>2019-05-16T09:46:13Z</time>
      </trkpt>
      <trkpt lat="39.58314" lon="-8.68104">
        <ele>421.19</ele>
        <time>2019-05-16T09:46:30Z</time>
      </trkpt>
      <trkpt lat="39.5832" lon="-8.68106">
        <ele>419.75</ele>
        <time>2019-05-16T09:46:34Z</time>
      </trkpt>
      <trkpt lat="39.58325" lon="-8.68106">
        <ele>419.75</ele>
        <time>2019-05-16T09:46:37Z</time>
      </trkpt>
      <trkpt lat="39.58329" lon="-8.68108">
        <ele>419.27</ele>
        <time>2019-05-16T09:46:40Z</time>
      </trkpt>
      <trkpt lat="39.58333" lon="-8.68109">
        <ele>420.71</ele>
        <time>2019-05-16T09:46:43Z</time>
      </trkpt>
      <trkpt lat="39.58347" lon="-8.68116">
        <ele>418.79</ele>
        <time>2019-05-16T09:46:56Z</time>
      </trkpt>
      <trkpt lat="39.5836" lon="-8.68118">
        <ele>419.27</ele>
        <time>2019-05-16T09:47:03Z</time>
      </trkpt>
      <trkpt lat="39.5838" lon="-8.68118">
        <ele>417.35</ele>
        <time>2019-05-16T09:47:18Z</time>
      </trkpt>
      <trkpt lat="39.58396" lon="-8.68119">
        <ele>417.35</ele>
        <time>2019-05-16T09:47:31Z</time>
      </trkpt>
      <trkpt lat="39.58403" lon="-8.68118">
        <ele>419.27</ele>
        <time>2019-05-16T09:47:36Z</time>
      </trkpt>
      <trkpt lat="39.58425" lon="-8.68122">
        <ele>418.79</ele>
        <time>2019-05-16T09:47:52Z</time>
      </trkpt>
      <trkpt lat="39.58427" lon="-8.68123">
        <ele>419.75</ele>
        <time>2019-05-16T09:47:54Z</time>
      </trkpt>
      <trkpt lat="39.58439" lon="-8.68135">
        <ele>419.27</ele>
        <time>2019-05-16T09:48:08Z</time>
      </trkpt>
      <trkpt lat="39.5844" lon="-8.68137">
        <ele>418.79</ele>
        <time>2019-05-16T09:48:10Z</time>
      </trkpt>
      <trkpt lat="39.58443" lon="-8.68159">
        <ele>419.27</ele>
        <time>2019-05-16T09:48:25Z</time>
      </trkpt>
      <trkpt lat="39.58445" lon="-8.68172">
        <ele>420.71</ele>
        <time>2019-05-16T09:48:34Z</time>
      </trkpt>
      <trkpt lat="39.58447" lon="-8.68174">
        <ele>420.23</ele>
        <time>2019-05-16T09:48:36Z</time>
      </trkpt>
      <trkpt lat="39.5845" lon="-8.68179">
        <ele>420.23</ele>
        <time>2019-05-16T09:48:40Z</time>
      </trkpt>
      <trkpt lat="39.58452" lon="-8.68188">
        <ele>421.19</ele>
        <time>2019-05-16T09:48:46Z</time>
      </trkpt>
      <trkpt lat="39.58455" lon="-8.68194">
        <ele>421.19</ele>
        <time>2019-05-16T09:48:50Z</time>
      </trkpt>
      <trkpt lat="39.58462" lon="-8.68205">
        <ele>421.68</ele>
        <time>2019-05-16T09:49:02Z</time>
      </trkpt>
      <trkpt lat="39.58463" lon="-8.68209">
        <ele>421.19</ele>
        <time>2019-05-16T09:49:06Z</time>
      </trkpt>
      <trkpt lat="39.58468" lon="-8.68214">
        <ele>422.16</ele>
        <time>2019-05-16T09:49:11Z</time>
      </trkpt>
      <trkpt lat="39.58474" lon="-8.68224">
        <ele>421.68</ele>
        <time>2019-05-16T09:49:19Z</time>
      </trkpt>
      <trkpt lat="39.58486" lon="-8.68238">
        <ele>422.64</ele>
        <time>2019-05-16T09:49:31Z</time>
      </trkpt>
      <trkpt lat="39.58499" lon="-8.68246">
        <ele>422.64</ele>
        <time>2019-05-16T09:49:45Z</time>
      </trkpt>
      <trkpt lat="39.58502" lon="-8.68248">
        <ele>421.68</ele>
        <time>2019-05-16T09:49:48Z</time>
      </trkpt>
      <trkpt lat="39.58504" lon="-8.68248">
        <ele>421.68</ele>
        <time>2019-05-16T09:49:49Z</time>
      </trkpt>
      <trkpt lat="39.5851" lon="-8.68254">
        <ele>423.6</ele>
        <time>2019-05-16T09:49:56Z</time>
      </trkpt>
      <trkpt lat="39.58523" lon="-8.68261">
        <ele>424.08</ele>
        <time>2019-05-16T09:50:07Z</time>
      </trkpt>
      <trkpt lat="39.5853" lon="-8.68264">
        <ele>424.08</ele>
        <time>2019-05-16T09:50:12Z</time>
      </trkpt>
      <trkpt lat="39.58534" lon="-8.68266">
        <ele>424.56</ele>
        <time>2019-05-16T09:50:15Z</time>
      </trkpt>
      <trkpt lat="39.58538" lon="-8.6827">
        <ele>424.08</ele>
        <time>2019-05-16T09:50:19Z</time>
      </trkpt>
      <trkpt lat="39.58546" lon="-8.68278">
        <ele>425.04</ele>
        <time>2019-05-16T09:50:28Z</time>
      </trkpt>
      <trkpt lat="39.58551" lon="-8.68282">
        <ele>420.71</ele>
        <time>2019-05-16T09:50:33Z</time>
      </trkpt>
      <trkpt lat="39.58552" lon="-8.68283">
        <ele>420.71</ele>
        <time>2019-05-16T09:50:34Z</time>
      </trkpt>
      <trkpt lat="39.58553" lon="-8.68284">
        <ele>421.19</ele>
        <time>2019-05-16T09:50:35Z</time>
      </trkpt>
      <trkpt lat="39.58555" lon="-8.68286">
        <ele>423.12</ele>
        <time>2019-05-16T09:50:37Z</time>
      </trkpt>
      <trkpt lat="39.58556" lon="-8.68286">
        <ele>423.12</ele>
        <time>2019-05-16T09:50:38Z</time>
      </trkpt>
      <trkpt lat="39.58564" lon="-8.6829">
        <ele>423.6</ele>
        <time>2019-05-16T09:50:45Z</time>
      </trkpt>
      <trkpt lat="39.58567" lon="-8.68291">
        <ele>424.08</ele>
        <time>2019-05-16T09:50:48Z</time>
      </trkpt>
      <trkpt lat="39.58571" lon="-8.68292">
        <ele>421.19</ele>
        <time>2019-05-16T09:50:52Z</time>
      </trkpt>
      <trkpt lat="39.58576" lon="-8.68294">
        <ele>425.04</ele>
        <time>2019-05-16T09:50:59Z</time>
      </trkpt>
      <trkpt lat="39.58588" lon="-8.68295">
        <ele>423.12</ele>
        <time>2019-05-16T09:51:09Z</time>
      </trkpt>
      <trkpt lat="39.58596" lon="-8.68295">
        <ele>426.48</ele>
        <time>2019-05-16T09:51:15Z</time>
      </trkpt>
      <trkpt lat="39.58597" lon="-8.68295">
        <ele>426.48</ele>
        <time>2019-05-16T09:51:16Z</time>
      </trkpt>
      <trkpt lat="39.58609" lon="-8.68299">
        <ele>425.04</ele>
        <time>2019-05-16T09:51:26Z</time>
      </trkpt>
      <trkpt lat="39.58624" lon="-8.68301">
        <ele>426.48</ele>
        <time>2019-05-16T09:51:38Z</time>
      </trkpt>
      <trkpt lat="39.58637" lon="-8.6831">
        <ele>427.92</ele>
        <time>2019-05-16T09:51:49Z</time>
      </trkpt>
      <trkpt lat="39.5864" lon="-8.68312">
        <ele>427.92</ele>
        <time>2019-05-16T09:51:57Z</time>
      </trkpt>
      <trkpt lat="39.58641" lon="-8.68314">
        <ele>427.44</ele>
        <time>2019-05-16T09:51:59Z</time>
      </trkpt>
      <trkpt lat="39.58654" lon="-8.68318">
        <ele>428.89</ele>
        <time>2019-05-16T09:52:12Z</time>
      </trkpt>
      <trkpt lat="39.58663" lon="-8.68318">
        <ele>429.85</ele>
        <time>2019-05-16T09:52:21Z</time>
      </trkpt>
      <trkpt lat="39.58673" lon="-8.68316">
        <ele>431.77</ele>
        <time>2019-05-16T09:52:33Z</time>
      </trkpt>
      <trkpt lat="39.58679" lon="-8.68316">
        <ele>431.77</ele>
        <time>2019-05-16T09:52:38Z</time>
      </trkpt>
      <trkpt lat="39.58687" lon="-8.68316">
        <ele>433.21</ele>
        <time>2019-05-16T09:52:45Z</time>
      </trkpt>
      <trkpt lat="39.58704" lon="-8.68318">
        <ele>433.69</ele>
        <time>2019-05-16T09:53:00Z</time>
      </trkpt>
      <trkpt lat="39.58719" lon="-8.68324">
        <ele>434.65</ele>
        <time>2019-05-16T09:53:13Z</time>
      </trkpt>
      <trkpt lat="39.58732" lon="-8.68327">
        <ele>436.1</ele>
        <time>2019-05-16T09:53:24Z</time>
      </trkpt>
      <trkpt lat="39.58742" lon="-8.68332">
        <ele>436.1</ele>
        <time>2019-05-16T09:53:33Z</time>
      </trkpt>
      <trkpt lat="39.58748" lon="-8.68335">
        <ele>436.58</ele>
        <time>2019-05-16T09:53:38Z</time>
      </trkpt>
      <trkpt lat="39.5875" lon="-8.68336">
        <ele>435.61</ele>
        <time>2019-05-16T09:53:40Z</time>
      </trkpt>
      <trkpt lat="39.58759" lon="-8.68337">
        <ele>436.58</ele>
        <time>2019-05-16T09:53:48Z</time>
      </trkpt>
      <trkpt lat="39.58773" lon="-8.68346">
        <ele>437.54</ele>
        <time>2019-05-16T09:54:02Z</time>
      </trkpt>
      <trkpt lat="39.58786" lon="-8.68354">
        <ele>438.02</ele>
        <time>2019-05-16T09:54:15Z</time>
      </trkpt>
      <trkpt lat="39.58793" lon="-8.68358">
        <ele>438.02</ele>
        <time>2019-05-16T09:54:21Z</time>
      </trkpt>
      <trkpt lat="39.58808" lon="-8.6836">
        <ele>438.98</ele>
        <time>2019-05-16T09:54:33Z</time>
      </trkpt>
      <trkpt lat="39.58816" lon="-8.6836">
        <ele>440.42</ele>
        <time>2019-05-16T09:54:41Z</time>
      </trkpt>
      <trkpt lat="39.58832" lon="-8.68358">
        <ele>440.9</ele>
        <time>2019-05-16T09:54:55Z</time>
      </trkpt>
      <trkpt lat="39.58835" lon="-8.68358">
        <ele>438.98</ele>
        <time>2019-05-16T09:54:58Z</time>
      </trkpt>
      <trkpt lat="39.58843" lon="-8.68358">
        <ele>441.86</ele>
        <time>2019-05-16T09:55:06Z</time>
      </trkpt>
      <trkpt lat="39.58855" lon="-8.68358">
        <ele>441.86</ele>
        <time>2019-05-16T09:55:17Z</time>
      </trkpt>
      <trkpt lat="39.58861" lon="-8.68357">
        <ele>441.38</ele>
        <time>2019-05-16T09:55:24Z</time>
      </trkpt>
      <trkpt lat="39.58878" lon="-8.68363">
        <ele>443.79</ele>
        <time>2019-05-16T09:55:43Z</time>
      </trkpt>
      <trkpt lat="39.58883" lon="-8.68365">
        <ele>443.79</ele>
        <time>2019-05-16T09:55:59Z</time>
      </trkpt>
      <trkpt lat="39.5889" lon="-8.68371">
        <ele>440.9</ele>
        <time>2019-05-16T09:56:19Z</time>
      </trkpt>
      <trkpt lat="39.58896" lon="-8.68375">
        <ele>441.38</ele>
        <time>2019-05-16T09:56:26Z</time>
      </trkpt>
      <trkpt lat="39.58898" lon="-8.68378">
        <ele>445.71</ele>
        <time>2019-05-16T09:56:30Z</time>
      </trkpt>
      <trkpt lat="39.58898" lon="-8.68378">
        <ele>443.31</ele>
        <time>2019-05-16T09:56:38Z</time>
      </trkpt>
      <trkpt lat="39.58901" lon="-8.68382">
        <ele>441.86</ele>
        <time>2019-05-16T09:56:44Z</time>
      </trkpt>
      <trkpt lat="39.58904" lon="-8.68389">
        <ele>441.86</ele>
        <time>2019-05-16T09:56:49Z</time>
      </trkpt>
      <trkpt lat="39.58907" lon="-8.68397">
        <ele>442.34</ele>
        <time>2019-05-16T09:56:55Z</time>
      </trkpt>
      <trkpt lat="39.58909" lon="-8.68405">
        <ele>442.34</ele>
        <time>2019-05-16T09:57:00Z</time>
      </trkpt>
      <trkpt lat="39.58911" lon="-8.6841">
        <ele>442.34</ele>
        <time>2019-05-16T09:57:04Z</time>
      </trkpt>
      <trkpt lat="39.58911" lon="-8.6842">
        <ele>442.34</ele>
        <time>2019-05-16T09:57:11Z</time>
      </trkpt>
      <trkpt lat="39.58909" lon="-8.68427">
        <ele>441.86</ele>
        <time>2019-05-16T09:57:15Z</time>
      </trkpt>
      <trkpt lat="39.58908" lon="-8.6844">
        <ele>440.9</ele>
        <time>2019-05-16T09:57:23Z</time>
      </trkpt>
      <trkpt lat="39.58903" lon="-8.6846">
        <ele>440.9</ele>
        <time>2019-05-16T09:57:34Z</time>
      </trkpt>
      <trkpt lat="39.58902" lon="-8.68472">
        <ele>441.38</ele>
        <time>2019-05-16T09:57:41Z</time>
      </trkpt>
      <trkpt lat="39.58902" lon="-8.68481">
        <ele>440.9</ele>
        <time>2019-05-16T09:57:47Z</time>
      </trkpt>
      <trkpt lat="39.58901" lon="-8.68488">
        <ele>441.38</ele>
        <time>2019-05-16T09:57:51Z</time>
      </trkpt>
      <trkpt lat="39.58901" lon="-8.68497">
        <ele>439.94</ele>
        <time>2019-05-16T09:57:56Z</time>
      </trkpt>
      <trkpt lat="39.58901" lon="-8.68498">
        <ele>439.94</ele>
        <time>2019-05-16T09:57:57Z</time>
      </trkpt>
      <trkpt lat="39.58907" lon="-8.68513">
        <ele>436.58</ele>
        <time>2019-05-16T09:58:06Z</time>
      </trkpt>
      <trkpt lat="39.58919" lon="-8.68533">
        <ele>434.65</ele>
        <time>2019-05-16T09:58:20Z</time>
      </trkpt>
      <trkpt lat="39.58929" lon="-8.68545">
        <ele>433.21</ele>
        <time>2019-05-16T09:58:31Z</time>
      </trkpt>
      <trkpt lat="39.58931" lon="-8.68548">
        <ele>434.17</ele>
        <time>2019-05-16T09:58:33Z</time>
      </trkpt>
      <trkpt lat="39.58932" lon="-8.68551">
        <ele>432.73</ele>
        <time>2019-05-16T09:58:35Z</time>
      </trkpt>
      <trkpt lat="39.58944" lon="-8.68563">
        <ele>433.21</ele>
        <time>2019-05-16T09:58:47Z</time>
      </trkpt>
      <trkpt lat="39.58945" lon="-8.68565">
        <ele>431.29</ele>
        <time>2019-05-16T09:58:48Z</time>
      </trkpt>
      <trkpt lat="39.58949" lon="-8.68575">
        <ele>432.25</ele>
        <time>2019-05-16T09:58:55Z</time>
      </trkpt>
      <trkpt lat="39.58956" lon="-8.68591">
        <ele>429.37</ele>
        <time>2019-05-16T09:59:06Z</time>
      </trkpt>
      <trkpt lat="39.58957" lon="-8.68594">
        <ele>429.37</ele>
        <time>2019-05-16T09:59:08Z</time>
      </trkpt>
      <trkpt lat="39.58961" lon="-8.68607">
        <ele>428.89</ele>
        <time>2019-05-16T09:59:17Z</time>
      </trkpt>
      <trkpt lat="39.58965" lon="-8.68623">
        <ele>427.44</ele>
        <time>2019-05-16T09:59:26Z</time>
      </trkpt>
      <trkpt lat="39.58969" lon="-8.68632">
        <ele>426.96</ele>
        <time>2019-05-16T09:59:32Z</time>
      </trkpt>
      <trkpt lat="39.5897" lon="-8.68637">
        <ele>425.04</ele>
        <time>2019-05-16T09:59:35Z</time>
      </trkpt>
      <trkpt lat="39.58971" lon="-8.68643">
        <ele>423.12</ele>
        <time>2019-05-16T09:59:38Z</time>
      </trkpt>
      <trkpt lat="39.58972" lon="-8.68645">
        <ele>426</ele>
        <time>2019-05-16T09:59:39Z</time>
      </trkpt>
      <trkpt lat="39.58972" lon="-8.68645">
        <ele>426</ele>
        <time>2019-05-16T09:59:40Z</time>
      </trkpt>
      <trkpt lat="39.58977" lon="-8.68661">
        <ele>423.6</ele>
        <time>2019-05-16T09:59:50Z</time>
      </trkpt>
      <trkpt lat="39.5898" lon="-8.68669">
        <ele>423.6</ele>
        <time>2019-05-16T09:59:55Z</time>
      </trkpt>
      <trkpt lat="39.58981" lon="-8.68673">
        <ele>423.6</ele>
        <time>2019-05-16T09:59:57Z</time>
      </trkpt>
      <trkpt lat="39.58982" lon="-8.68674">
        <ele>423.12</ele>
        <time>2019-05-16T09:59:58Z</time>
      </trkpt>
      <trkpt lat="39.58987" lon="-8.68676">
        <ele>422.16</ele>
        <time>2019-05-16T10:00:02Z</time>
      </trkpt>
      <trkpt lat="39.58989" lon="-8.68679">
        <ele>421.68</ele>
        <time>2019-05-16T10:00:05Z</time>
      </trkpt>
      <trkpt lat="39.58998" lon="-8.68688">
        <ele>421.68</ele>
        <time>2019-05-16T10:00:14Z</time>
      </trkpt>
      <trkpt lat="39.59002" lon="-8.68695">
        <ele>419.27</ele>
        <time>2019-05-16T10:00:20Z</time>
      </trkpt>
      <trkpt lat="39.59008" lon="-8.68701">
        <ele>420.23</ele>
        <time>2019-05-16T10:00:26Z</time>
      </trkpt>
      <trkpt lat="39.59012" lon="-8.6871">
        <ele>420.23</ele>
        <time>2019-05-16T10:00:31Z</time>
      </trkpt>
      <trkpt lat="39.59017" lon="-8.68717">
        <ele>418.79</ele>
        <time>2019-05-16T10:00:37Z</time>
      </trkpt>
      <trkpt lat="39.59021" lon="-8.68723">
        <ele>419.75</ele>
        <time>2019-05-16T10:00:42Z</time>
      </trkpt>
      <trkpt lat="39.59036" lon="-8.68735">
        <ele>418.79</ele>
        <time>2019-05-16T10:00:56Z</time>
      </trkpt>
      <trkpt lat="39.5904" lon="-8.68737">
        <ele>418.31</ele>
        <time>2019-05-16T10:01:00Z</time>
      </trkpt>
      <trkpt lat="39.59049" lon="-8.68743">
        <ele>416.39</ele>
        <time>2019-05-16T10:01:09Z</time>
      </trkpt>
      <trkpt lat="39.59062" lon="-8.68751">
        <ele>415.91</ele>
        <time>2019-05-16T10:01:19Z</time>
      </trkpt>
      <trkpt lat="39.59066" lon="-8.68754">
        <ele>415.91</ele>
        <time>2019-05-16T10:01:22Z</time>
      </trkpt>
      <trkpt lat="39.59067" lon="-8.68756">
        <ele>416.87</ele>
        <time>2019-05-16T10:01:24Z</time>
      </trkpt>
      <trkpt lat="39.59071" lon="-8.68759">
        <ele>413.5</ele>
        <time>2019-05-16T10:01:28Z</time>
      </trkpt>
      <trkpt lat="39.59077" lon="-8.68762">
        <ele>415.91</ele>
        <time>2019-05-16T10:01:33Z</time>
      </trkpt>
      <trkpt lat="39.59094" lon="-8.68772">
        <ele>414.95</ele>
        <time>2019-05-16T10:01:48Z</time>
      </trkpt>
      <trkpt lat="39.5911" lon="-8.68779">
        <ele>413.02</ele>
        <time>2019-05-16T10:02:01Z</time>
      </trkpt>
      <trkpt lat="39.5912" lon="-8.68784">
        <ele>413.02</ele>
        <time>2019-05-16T10:02:09Z</time>
      </trkpt>
      <trkpt lat="39.59135" lon="-8.68789">
        <ele>411.1</ele>
        <time>2019-05-16T10:02:21Z</time>
      </trkpt>
      <trkpt lat="39.59149" lon="-8.68793">
        <ele>408.7</ele>
        <time>2019-05-16T10:02:31Z</time>
      </trkpt>
      <trkpt lat="39.59158" lon="-8.68792">
        <ele>408.7</ele>
        <time>2019-05-16T10:02:37Z</time>
      </trkpt>
      <trkpt lat="39.59173" lon="-8.68791">
        <ele>407.74</ele>
        <time>2019-05-16T10:02:48Z</time>
      </trkpt>
      <trkpt lat="39.59185" lon="-8.6879">
        <ele>407.74</ele>
        <time>2019-05-16T10:02:57Z</time>
      </trkpt>
      <trkpt lat="39.59201" lon="-8.68789">
        <ele>406.77</ele>
        <time>2019-05-16T10:03:10Z</time>
      </trkpt>
      <trkpt lat="39.59218" lon="-8.68789">
        <ele>406.77</ele>
        <time>2019-05-16T10:03:23Z</time>
      </trkpt>
      <trkpt lat="39.59237" lon="-8.68788">
        <ele>406.29</ele>
        <time>2019-05-16T10:03:37Z</time>
      </trkpt>
      <trkpt lat="39.59254" lon="-8.68788">
        <ele>406.77</ele>
        <time>2019-05-16T10:03:51Z</time>
      </trkpt>
      <trkpt lat="39.5927" lon="-8.68787">
        <ele>405.81</ele>
        <time>2019-05-16T10:04:04Z</time>
      </trkpt>
      <trkpt lat="39.59284" lon="-8.68788">
        <ele>406.29</ele>
        <time>2019-05-16T10:04:16Z</time>
      </trkpt>
      <trkpt lat="39.59297" lon="-8.68787">
        <ele>404.37</ele>
        <time>2019-05-16T10:04:26Z</time>
      </trkpt>
      <trkpt lat="39.59311" lon="-8.68792">
        <ele>404.85</ele>
        <time>2019-05-16T10:04:38Z</time>
      </trkpt>
      <trkpt lat="39.59314" lon="-8.68796">
        <ele>403.41</ele>
        <time>2019-05-16T10:04:42Z</time>
      </trkpt>
      <trkpt lat="39.59326" lon="-8.688">
        <ele>404.85</ele>
        <time>2019-05-16T10:04:47Z</time>
      </trkpt>
      <trkpt lat="39.59331" lon="-8.68805">
        <ele>402.45</ele>
        <time>2019-05-16T10:04:54Z</time>
      </trkpt>
      <trkpt lat="39.59333" lon="-8.68808">
        <ele>403.41</ele>
        <time>2019-05-16T10:04:58Z</time>
      </trkpt>
      <trkpt lat="39.59341" lon="-8.68814">
        <ele>401.97</ele>
        <time>2019-05-16T10:05:08Z</time>
      </trkpt>
      <trkpt lat="39.5936" lon="-8.68818">
        <ele>401.97</ele>
        <time>2019-05-16T10:05:22Z</time>
      </trkpt>
      <trkpt lat="39.59376" lon="-8.68823">
        <ele>402.93</ele>
        <time>2019-05-16T10:05:35Z</time>
      </trkpt>
      <trkpt lat="39.59377" lon="-8.68824">
        <ele>400.53</ele>
        <time>2019-05-16T10:05:36Z</time>
      </trkpt>
      <trkpt lat="39.59378" lon="-8.68824">
        <ele>398.12</ele>
        <time>2019-05-16T10:05:37Z</time>
      </trkpt>
      <trkpt lat="39.59381" lon="-8.68825">
        <ele>400.53</ele>
        <time>2019-05-16T10:05:39Z</time>
      </trkpt>
      <trkpt lat="39.59384" lon="-8.68826">
        <ele>400.53</ele>
        <time>2019-05-16T10:05:42Z</time>
      </trkpt>
      <trkpt lat="39.59392" lon="-8.68827">
        <ele>401.49</ele>
        <time>2019-05-16T10:05:47Z</time>
      </trkpt>
      <trkpt lat="39.59405" lon="-8.68828">
        <ele>402.45</ele>
        <time>2019-05-16T10:05:53Z</time>
      </trkpt>
      <trkpt lat="39.59403" lon="-8.68832">
        <ele>401.97</ele>
        <time>2019-05-16T10:06:06Z</time>
      </trkpt>
      <trkpt lat="39.59399" lon="-8.6883">
        <ele>402.45</ele>
        <time>2019-05-16T10:06:33Z</time>
      </trkpt>
      <trkpt lat="39.59401" lon="-8.68828">
        <ele>401.97</ele>
        <time>2019-05-16T10:06:55Z</time>
      </trkpt>
      <trkpt lat="39.59403" lon="-8.68828">
        <ele>402.45</ele>
        <time>2019-05-16T10:06:57Z</time>
      </trkpt>
      <trkpt lat="39.59415" lon="-8.68826">
        <ele>401.01</ele>
        <time>2019-05-16T10:07:07Z</time>
      </trkpt>
      <trkpt lat="39.5942" lon="-8.68826">
        <ele>401.01</ele>
        <time>2019-05-16T10:07:11Z</time>
      </trkpt>
      <trkpt lat="39.59438" lon="-8.68822">
        <ele>400.05</ele>
        <time>2019-05-16T10:07:24Z</time>
      </trkpt>
      <trkpt lat="39.5944" lon="-8.68821">
        <ele>400.53</ele>
        <time>2019-05-16T10:07:26Z</time>
      </trkpt>
      <trkpt lat="39.59458" lon="-8.68812">
        <ele>398.6</ele>
        <time>2019-05-16T10:07:40Z</time>
      </trkpt>
      <trkpt lat="39.59461" lon="-8.6881">
        <ele>401.97</ele>
        <time>2019-05-16T10:07:43Z</time>
      </trkpt>
      <trkpt lat="39.59462" lon="-8.68809">
        <ele>401.97</ele>
        <time>2019-05-16T10:07:44Z</time>
      </trkpt>
      <trkpt lat="39.59474" lon="-8.68802">
        <ele>401.01</ele>
        <time>2019-05-16T10:07:54Z</time>
      </trkpt>
      <trkpt lat="39.59486" lon="-8.68795">
        <ele>401.49</ele>
        <time>2019-05-16T10:08:04Z</time>
      </trkpt>
      <trkpt lat="39.59496" lon="-8.6879">
        <ele>401.01</ele>
        <time>2019-05-16T10:08:14Z</time>
      </trkpt>
      <trkpt lat="39.595" lon="-8.68789">
        <ele>398.6</ele>
        <time>2019-05-16T10:08:17Z</time>
      </trkpt>
      <trkpt lat="39.59504" lon="-8.68788">
        <ele>402.45</ele>
        <time>2019-05-16T10:08:21Z</time>
      </trkpt>
      <trkpt lat="39.59506" lon="-8.68788">
        <ele>400.05</ele>
        <time>2019-05-16T10:08:23Z</time>
      </trkpt>
      <trkpt lat="39.59527" lon="-8.68785">
        <ele>400.53</ele>
        <time>2019-05-16T10:08:36Z</time>
      </trkpt>
      <trkpt lat="39.59543" lon="-8.68783">
        <ele>400.05</ele>
        <time>2019-05-16T10:08:50Z</time>
      </trkpt>
      <trkpt lat="39.59557" lon="-8.68783">
        <ele>398.12</ele>
        <time>2019-05-16T10:09:00Z</time>
      </trkpt>
      <trkpt lat="39.59563" lon="-8.68785">
        <ele>399.08</ele>
        <time>2019-05-16T10:09:05Z</time>
      </trkpt>
      <trkpt lat="39.59572" lon="-8.68784">
        <ele>401.01</ele>
        <time>2019-05-16T10:09:11Z</time>
      </trkpt>
      <trkpt lat="39.59589" lon="-8.68788">
        <ele>400.05</ele>
        <time>2019-05-16T10:09:24Z</time>
      </trkpt>
      <trkpt lat="39.59594" lon="-8.68791">
        <ele>399.08</ele>
        <time>2019-05-16T10:09:39Z</time>
      </trkpt>
      <trkpt lat="39.59599" lon="-8.68789">
        <ele>399.57</ele>
        <time>2019-05-16T10:09:55Z</time>
      </trkpt>
      <trkpt lat="39.59605" lon="-8.6879">
        <ele>399.57</ele>
        <time>2019-05-16T10:10:10Z</time>
      </trkpt>
      <trkpt lat="39.59616" lon="-8.68793">
        <ele>399.08</ele>
        <time>2019-05-16T10:10:22Z</time>
      </trkpt>
      <trkpt lat="39.59623" lon="-8.68794">
        <ele>399.08</ele>
        <time>2019-05-16T10:10:31Z</time>
      </trkpt>
      <trkpt lat="39.59633" lon="-8.68795">
        <ele>398.12</ele>
        <time>2019-05-16T10:10:39Z</time>
      </trkpt>
      <trkpt lat="39.59643" lon="-8.68801">
        <ele>397.64</ele>
        <time>2019-05-16T10:10:46Z</time>
      </trkpt>
      <trkpt lat="39.59658" lon="-8.68804">
        <ele>398.12</ele>
        <time>2019-05-16T10:10:57Z</time>
      </trkpt>
      <trkpt lat="39.59672" lon="-8.6881">
        <ele>396.68</ele>
        <time>2019-05-16T10:11:07Z</time>
      </trkpt>
      <trkpt lat="39.59684" lon="-8.68812">
        <ele>397.64</ele>
        <time>2019-05-16T10:11:17Z</time>
      </trkpt>
      <trkpt lat="39.59691" lon="-8.68814">
        <ele>396.2</ele>
        <time>2019-05-16T10:11:22Z</time>
      </trkpt>
      <trkpt lat="39.59692" lon="-8.68815">
        <ele>396.68</ele>
        <time>2019-05-16T10:11:23Z</time>
      </trkpt>
      <trkpt lat="39.59696" lon="-8.68817">
        <ele>396.2</ele>
        <time>2019-05-16T10:11:25Z</time>
      </trkpt>
      <trkpt lat="39.59709" lon="-8.68823">
        <ele>397.64</ele>
        <time>2019-05-16T10:11:36Z</time>
      </trkpt>
      <trkpt lat="39.59719" lon="-8.68831">
        <ele>397.16</ele>
        <time>2019-05-16T10:11:46Z</time>
      </trkpt>
      <trkpt lat="39.59725" lon="-8.68835">
        <ele>396.68</ele>
        <time>2019-05-16T10:11:52Z</time>
      </trkpt>
      <trkpt lat="39.59727" lon="-8.68839">
        <ele>396.68</ele>
        <time>2019-05-16T10:11:55Z</time>
      </trkpt>
      <trkpt lat="39.59737" lon="-8.68848">
        <ele>396.68</ele>
        <time>2019-05-16T10:12:07Z</time>
      </trkpt>
      <trkpt lat="39.59745" lon="-8.68863">
        <ele>396.2</ele>
        <time>2019-05-16T10:12:17Z</time>
      </trkpt>
      <trkpt lat="39.59755" lon="-8.68871">
        <ele>396.68</ele>
        <time>2019-05-16T10:12:26Z</time>
      </trkpt>
      <trkpt lat="39.59769" lon="-8.68882">
        <ele>397.64</ele>
        <time>2019-05-16T10:12:37Z</time>
      </trkpt>
      <trkpt lat="39.59773" lon="-8.68889">
        <ele>396.2</ele>
        <time>2019-05-16T10:12:44Z</time>
      </trkpt>
      <trkpt lat="39.59777" lon="-8.68898">
        <ele>395.72</ele>
        <time>2019-05-16T10:12:49Z</time>
      </trkpt>
      <trkpt lat="39.59777" lon="-8.689">
        <ele>395.72</ele>
        <time>2019-05-16T10:12:50Z</time>
      </trkpt>
      <trkpt lat="39.59786" lon="-8.68912">
        <ele>396.2</ele>
        <time>2019-05-16T10:13:02Z</time>
      </trkpt>
      <trkpt lat="39.59796" lon="-8.68919">
        <ele>396.2</ele>
        <time>2019-05-16T10:13:11Z</time>
      </trkpt>
      <trkpt lat="39.59809" lon="-8.68923">
        <ele>395.24</ele>
        <time>2019-05-16T10:13:22Z</time>
      </trkpt>
      <trkpt lat="39.5981" lon="-8.68923">
        <ele>394.76</ele>
        <time>2019-05-16T10:13:23Z</time>
      </trkpt>
      <trkpt lat="39.59815" lon="-8.68923">
        <ele>396.2</ele>
        <time>2019-05-16T10:13:26Z</time>
      </trkpt>
      <trkpt lat="39.59825" lon="-8.68925">
        <ele>396.68</ele>
        <time>2019-05-16T10:13:37Z</time>
      </trkpt>
      <trkpt lat="39.59838" lon="-8.68927">
        <ele>395.24</ele>
        <time>2019-05-16T10:13:45Z</time>
      </trkpt>
      <trkpt lat="39.59859" lon="-8.68935">
        <ele>395.72</ele>
        <time>2019-05-16T10:13:58Z</time>
      </trkpt>
      <trkpt lat="39.59864" lon="-8.6894">
        <ele>395.72</ele>
        <time>2019-05-16T10:14:02Z</time>
      </trkpt>
      <trkpt lat="39.59868" lon="-8.68945">
        <ele>395.24</ele>
        <time>2019-05-16T10:14:06Z</time>
      </trkpt>
      <trkpt lat="39.59875" lon="-8.68957">
        <ele>394.76</ele>
        <time>2019-05-16T10:14:14Z</time>
      </trkpt>
      <trkpt lat="39.59878" lon="-8.68962">
        <ele>394.76</ele>
        <time>2019-05-16T10:14:18Z</time>
      </trkpt>
      <trkpt lat="39.5988" lon="-8.68966">
        <ele>395.24</ele>
        <time>2019-05-16T10:14:20Z</time>
      </trkpt>
      <trkpt lat="39.59881" lon="-8.68971">
        <ele>395.72</ele>
        <time>2019-05-16T10:14:23Z</time>
      </trkpt>
      <trkpt lat="39.59883" lon="-8.68978">
        <ele>395.24</ele>
        <time>2019-05-16T10:14:27Z</time>
      </trkpt>
      <trkpt lat="39.59887" lon="-8.68993">
        <ele>395.24</ele>
        <time>2019-05-16T10:14:36Z</time>
      </trkpt>
      <trkpt lat="39.59888" lon="-8.68998">
        <ele>395.24</ele>
        <time>2019-05-16T10:14:39Z</time>
      </trkpt>
      <trkpt lat="39.59892" lon="-8.69007">
        <ele>395.24</ele>
        <time>2019-05-16T10:14:45Z</time>
      </trkpt>
      <trkpt lat="39.59893" lon="-8.69012">
        <ele>395.24</ele>
        <time>2019-05-16T10:14:48Z</time>
      </trkpt>
      <trkpt lat="39.59898" lon="-8.69021">
        <ele>395.24</ele>
        <time>2019-05-16T10:14:54Z</time>
      </trkpt>
      <trkpt lat="39.59902" lon="-8.69027">
        <ele>395.24</ele>
        <time>2019-05-16T10:14:59Z</time>
      </trkpt>
      <trkpt lat="39.5991" lon="-8.69037">
        <ele>394.76</ele>
        <time>2019-05-16T10:15:08Z</time>
      </trkpt>
      <trkpt lat="39.59914" lon="-8.69041">
        <ele>394.76</ele>
        <time>2019-05-16T10:15:12Z</time>
      </trkpt>
      <trkpt lat="39.59916" lon="-8.69042">
        <ele>395.72</ele>
        <time>2019-05-16T10:15:14Z</time>
      </trkpt>
      <trkpt lat="39.59919" lon="-8.69047">
        <ele>396.68</ele>
        <time>2019-05-16T10:15:17Z</time>
      </trkpt>
      <trkpt lat="39.59927" lon="-8.6906">
        <ele>395.24</ele>
        <time>2019-05-16T10:15:31Z</time>
      </trkpt>
      <trkpt lat="39.59937" lon="-8.69074">
        <ele>395.72</ele>
        <time>2019-05-16T10:15:43Z</time>
      </trkpt>
      <trkpt lat="39.59948" lon="-8.69085">
        <ele>395.24</ele>
        <time>2019-05-16T10:15:56Z</time>
      </trkpt>
      <trkpt lat="39.59961" lon="-8.69098">
        <ele>395.24</ele>
        <time>2019-05-16T10:16:10Z</time>
      </trkpt>
      <trkpt lat="39.59966" lon="-8.69103">
        <ele>395.72</ele>
        <time>2019-05-16T10:16:27Z</time>
      </trkpt>
      <trkpt lat="39.59968" lon="-8.69103">
        <ele>395.72</ele>
        <time>2019-05-16T10:16:31Z</time>
      </trkpt>
      <trkpt lat="39.59969" lon="-8.69104">
        <ele>395.72</ele>
        <time>2019-05-16T10:16:33Z</time>
      </trkpt>
      <trkpt lat="39.59972" lon="-8.69109">
        <ele>396.2</ele>
        <time>2019-05-16T10:16:38Z</time>
      </trkpt>
      <trkpt lat="39.5998" lon="-8.69119">
        <ele>396.2</ele>
        <time>2019-05-16T10:16:51Z</time>
      </trkpt>
      <trkpt lat="39.59984" lon="-8.69123">
        <ele>395.72</ele>
        <time>2019-05-16T10:17:00Z</time>
      </trkpt>
      <trkpt lat="39.59985" lon="-8.69126">
        <ele>395.72</ele>
        <time>2019-05-16T10:17:02Z</time>
      </trkpt>
      <trkpt lat="39.59991" lon="-8.69136">
        <ele>396.2</ele>
        <time>2019-05-16T10:17:10Z</time>
      </trkpt>
      <trkpt lat="39.59995" lon="-8.69141">
        <ele>395.72</ele>
        <time>2019-05-16T10:17:15Z</time>
      </trkpt>
      <trkpt lat="39.59999" lon="-8.6915">
        <ele>395.72</ele>
        <time>2019-05-16T10:17:23Z</time>
      </trkpt>
      <trkpt lat="39.60003" lon="-8.69158">
        <ele>395.24</ele>
        <time>2019-05-16T10:17:28Z</time>
      </trkpt>
      <trkpt lat="39.60004" lon="-8.6916">
        <ele>395.72</ele>
        <time>2019-05-16T10:17:30Z</time>
      </trkpt>
      <trkpt lat="39.60006" lon="-8.69163">
        <ele>395.24</ele>
        <time>2019-05-16T10:17:32Z</time>
      </trkpt>
      <trkpt lat="39.60013" lon="-8.69174">
        <ele>394.28</ele>
        <time>2019-05-16T10:17:40Z</time>
      </trkpt>
      <trkpt lat="39.60014" lon="-8.69177">
        <ele>394.76</ele>
        <time>2019-05-16T10:17:42Z</time>
      </trkpt>
      <trkpt lat="39.60015" lon="-8.69181">
        <ele>394.28</ele>
        <time>2019-05-16T10:17:44Z</time>
      </trkpt>
      <trkpt lat="39.60018" lon="-8.69191">
        <ele>393.32</ele>
        <time>2019-05-16T10:17:50Z</time>
      </trkpt>
      <trkpt lat="39.60022" lon="-8.69204">
        <ele>395.72</ele>
        <time>2019-05-16T10:17:58Z</time>
      </trkpt>
      <trkpt lat="39.60022" lon="-8.69206">
        <ele>396.68</ele>
        <time>2019-05-16T10:17:59Z</time>
      </trkpt>
      <trkpt lat="39.60025" lon="-8.69209">
        <ele>395.24</ele>
        <time>2019-05-16T10:18:01Z</time>
      </trkpt>
      <trkpt lat="39.60028" lon="-8.69216">
        <ele>394.28</ele>
        <time>2019-05-16T10:18:05Z</time>
      </trkpt>
      <trkpt lat="39.60028" lon="-8.69218">
        <ele>394.76</ele>
        <time>2019-05-16T10:18:06Z</time>
      </trkpt>
      <trkpt lat="39.60033" lon="-8.69229">
        <ele>393.32</ele>
        <time>2019-05-16T10:18:14Z</time>
      </trkpt>
      <trkpt lat="39.60044" lon="-8.69243">
        <ele>395.24</ele>
        <time>2019-05-16T10:18:27Z</time>
      </trkpt>
      <trkpt lat="39.60051" lon="-8.69251">
        <ele>395.24</ele>
        <time>2019-05-16T10:18:35Z</time>
      </trkpt>
      <trkpt lat="39.60068" lon="-8.69261">
        <ele>394.76</ele>
        <time>2019-05-16T10:18:48Z</time>
      </trkpt>
      <trkpt lat="39.60073" lon="-8.69265">
        <ele>394.76</ele>
        <time>2019-05-16T10:18:54Z</time>
      </trkpt>
      <trkpt lat="39.60087" lon="-8.69276">
        <ele>394.28</ele>
        <time>2019-05-16T10:19:07Z</time>
      </trkpt>
      <trkpt lat="39.60101" lon="-8.69283">
        <ele>394.28</ele>
        <time>2019-05-16T10:19:20Z</time>
      </trkpt>
      <trkpt lat="39.60108" lon="-8.6929">
        <ele>394.28</ele>
        <time>2019-05-16T10:19:31Z</time>
      </trkpt>
      <trkpt lat="39.60123" lon="-8.69301">
        <ele>393.8</ele>
        <time>2019-05-16T10:19:43Z</time>
      </trkpt>
      <trkpt lat="39.60138" lon="-8.69311">
        <ele>393.8</ele>
        <time>2019-05-16T10:19:56Z</time>
      </trkpt>
      <trkpt lat="39.60151" lon="-8.69322">
        <ele>394.76</ele>
        <time>2019-05-16T10:20:07Z</time>
      </trkpt>
      <trkpt lat="39.60153" lon="-8.69324">
        <ele>394.28</ele>
        <time>2019-05-16T10:20:10Z</time>
      </trkpt>
      <trkpt lat="39.60162" lon="-8.69331">
        <ele>394.76</ele>
        <time>2019-05-16T10:20:16Z</time>
      </trkpt>
      <trkpt lat="39.60165" lon="-8.69333">
        <ele>395.72</ele>
        <time>2019-05-16T10:20:18Z</time>
      </trkpt>
      <trkpt lat="39.60173" lon="-8.69339">
        <ele>395.24</ele>
        <time>2019-05-16T10:20:25Z</time>
      </trkpt>
      <trkpt lat="39.60177" lon="-8.69344">
        <ele>395.24</ele>
        <time>2019-05-16T10:20:30Z</time>
      </trkpt>
      <trkpt lat="39.6018" lon="-8.69349">
        <ele>395.24</ele>
        <time>2019-05-16T10:20:35Z</time>
      </trkpt>
      <trkpt lat="39.60182" lon="-8.69352">
        <ele>395.72</ele>
        <time>2019-05-16T10:20:38Z</time>
      </trkpt>
      <trkpt lat="39.60186" lon="-8.69359">
        <ele>396.2</ele>
        <time>2019-05-16T10:20:44Z</time>
      </trkpt>
      <trkpt lat="39.60191" lon="-8.69374">
        <ele>396.2</ele>
        <time>2019-05-16T10:20:54Z</time>
      </trkpt>
      <trkpt lat="39.60192" lon="-8.69378">
        <ele>396.68</ele>
        <time>2019-05-16T10:20:56Z</time>
      </trkpt>
      <trkpt lat="39.60203" lon="-8.69386">
        <ele>397.64</ele>
        <time>2019-05-16T10:21:07Z</time>
      </trkpt>
      <trkpt lat="39.60214" lon="-8.69385">
        <ele>397.64</ele>
        <time>2019-05-16T10:21:20Z</time>
      </trkpt>
      <trkpt lat="39.60216" lon="-8.69383">
        <ele>397.64</ele>
        <time>2019-05-16T10:21:22Z</time>
      </trkpt>
      <trkpt lat="39.60236" lon="-8.6937">
        <ele>396.68</ele>
        <time>2019-05-16T10:21:37Z</time>
      </trkpt>
      <trkpt lat="39.60245" lon="-8.6936">
        <ele>396.2</ele>
        <time>2019-05-16T10:21:50Z</time>
      </trkpt>
      <trkpt lat="39.60258" lon="-8.69348">
        <ele>396.2</ele>
        <time>2019-05-16T10:22:02Z</time>
      </trkpt>
      <trkpt lat="39.60259" lon="-8.69347">
        <ele>397.16</ele>
        <time>2019-05-16T10:22:03Z</time>
      </trkpt>
      <trkpt lat="39.60269" lon="-8.69338">
        <ele>396.2</ele>
        <time>2019-05-16T10:22:14Z</time>
      </trkpt>
      <trkpt lat="39.6027" lon="-8.69337">
        <ele>395.72</ele>
        <time>2019-05-16T10:22:15Z</time>
      </trkpt>
      <trkpt lat="39.60288" lon="-8.69335">
        <ele>395.24</ele>
        <time>2019-05-16T10:22:30Z</time>
      </trkpt>
      <trkpt lat="39.60287" lon="-8.69337">
        <ele>395.24</ele>
        <time>2019-05-16T10:22:33Z</time>
      </trkpt>
      <trkpt lat="39.60299" lon="-8.69338">
        <ele>394.76</ele>
        <time>2019-05-16T10:22:43Z</time>
      </trkpt>
      <trkpt lat="39.60318" lon="-8.69342">
        <ele>393.32</ele>
        <time>2019-05-16T10:22:57Z</time>
      </trkpt>
      <trkpt lat="39.6034" lon="-8.69346">
        <ele>391.87</ele>
        <time>2019-05-16T10:23:14Z</time>
      </trkpt>
      <trkpt lat="39.60349" lon="-8.69349">
        <ele>395.72</ele>
        <time>2019-05-16T10:23:20Z</time>
      </trkpt>
      <trkpt lat="39.6035" lon="-8.69349">
        <ele>395.72</ele>
        <time>2019-05-16T10:23:21Z</time>
      </trkpt>
      <trkpt lat="39.60354" lon="-8.6935">
        <ele>393.32</ele>
        <time>2019-05-16T10:23:24Z</time>
      </trkpt>
      <trkpt lat="39.60373" lon="-8.69354">
        <ele>392.84</ele>
        <time>2019-05-16T10:23:39Z</time>
      </trkpt>
      <trkpt lat="39.60389" lon="-8.69358">
        <ele>393.8</ele>
        <time>2019-05-16T10:23:52Z</time>
      </trkpt>
      <trkpt lat="39.60392" lon="-8.69359">
        <ele>393.8</ele>
        <time>2019-05-16T10:23:56Z</time>
      </trkpt>
      <trkpt lat="39.60405" lon="-8.69361">
        <ele>393.32</ele>
        <time>2019-05-16T10:24:10Z</time>
      </trkpt>
      <trkpt lat="39.60415" lon="-8.69366">
        <ele>393.32</ele>
        <time>2019-05-16T10:24:21Z</time>
      </trkpt>
      <trkpt lat="39.6043" lon="-8.6937">
        <ele>392.36</ele>
        <time>2019-05-16T10:24:33Z</time>
      </trkpt>
      <trkpt lat="39.60447" lon="-8.69375">
        <ele>392.36</ele>
        <time>2019-05-16T10:24:46Z</time>
      </trkpt>
      <trkpt lat="39.60467" lon="-8.69379">
        <ele>392.84</ele>
        <time>2019-05-16T10:25:01Z</time>
      </trkpt>
      <trkpt lat="39.60482" lon="-8.69383">
        <ele>390.91</ele>
        <time>2019-05-16T10:25:15Z</time>
      </trkpt>
      <trkpt lat="39.60496" lon="-8.69385">
        <ele>391.87</ele>
        <time>2019-05-16T10:25:26Z</time>
      </trkpt>
      <trkpt lat="39.60506" lon="-8.69387">
        <ele>392.84</ele>
        <time>2019-05-16T10:25:36Z</time>
      </trkpt>
      <trkpt lat="39.60515" lon="-8.69388">
        <ele>393.32</ele>
        <time>2019-05-16T10:25:47Z</time>
      </trkpt>
      <trkpt lat="39.60532" lon="-8.69393">
        <ele>392.36</ele>
        <time>2019-05-16T10:25:57Z</time>
      </trkpt>
      <trkpt lat="39.60551" lon="-8.69396">
        <ele>392.84</ele>
        <time>2019-05-16T10:26:11Z</time>
      </trkpt>
      <trkpt lat="39.60565" lon="-8.69398">
        <ele>393.32</ele>
        <time>2019-05-16T10:26:22Z</time>
      </trkpt>
      <trkpt lat="39.60566" lon="-8.69398">
        <ele>393.32</ele>
        <time>2019-05-16T10:26:23Z</time>
      </trkpt>
      <trkpt lat="39.60578" lon="-8.694">
        <ele>393.32</ele>
        <time>2019-05-16T10:26:35Z</time>
      </trkpt>
      <trkpt lat="39.60592" lon="-8.69404">
        <ele>394.28</ele>
        <time>2019-05-16T10:26:48Z</time>
      </trkpt>
      <trkpt lat="39.60604" lon="-8.69403">
        <ele>394.76</ele>
        <time>2019-05-16T10:26:59Z</time>
      </trkpt>
      <trkpt lat="39.60619" lon="-8.69406">
        <ele>394.76</ele>
        <time>2019-05-16T10:27:10Z</time>
      </trkpt>
      <trkpt lat="39.6063" lon="-8.69404">
        <ele>395.24</ele>
        <time>2019-05-16T10:27:22Z</time>
      </trkpt>
      <trkpt lat="39.60645" lon="-8.69405">
        <ele>396.2</ele>
        <time>2019-05-16T10:27:35Z</time>
      </trkpt>
      <trkpt lat="39.60661" lon="-8.69409">
        <ele>395.72</ele>
        <time>2019-05-16T10:27:44Z</time>
      </trkpt>
      <trkpt lat="39.60664" lon="-8.6941">
        <ele>396.2</ele>
        <time>2019-05-16T10:27:47Z</time>
      </trkpt>
      <trkpt lat="39.60682" lon="-8.69411">
        <ele>396.2</ele>
        <time>2019-05-16T10:28:00Z</time>
      </trkpt>
      <trkpt lat="39.60698" lon="-8.69412">
        <ele>396.68</ele>
        <time>2019-05-16T10:28:11Z</time>
      </trkpt>
      <trkpt lat="39.60711" lon="-8.69412">
        <ele>397.16</ele>
        <time>2019-05-16T10:28:23Z</time>
      </trkpt>
      <trkpt lat="39.60724" lon="-8.69412">
        <ele>396.2</ele>
        <time>2019-05-16T10:28:33Z</time>
      </trkpt>
      <trkpt lat="39.60738" lon="-8.69412">
        <ele>396.68</ele>
        <time>2019-05-16T10:28:42Z</time>
      </trkpt>
      <trkpt lat="39.60757" lon="-8.69407">
        <ele>397.16</ele>
        <time>2019-05-16T10:28:57Z</time>
      </trkpt>
      <trkpt lat="39.60773" lon="-8.69404">
        <ele>397.16</ele>
        <time>2019-05-16T10:29:10Z</time>
      </trkpt>
      <trkpt lat="39.60785" lon="-8.69401">
        <ele>398.12</ele>
        <time>2019-05-16T10:29:18Z</time>
      </trkpt>
      <trkpt lat="39.60791" lon="-8.694">
        <ele>398.6</ele>
        <time>2019-05-16T10:29:23Z</time>
      </trkpt>
      <trkpt lat="39.6081" lon="-8.69397">
        <ele>399.08</ele>
        <time>2019-05-16T10:29:38Z</time>
      </trkpt>
      <trkpt lat="39.60825" lon="-8.69394">
        <ele>398.12</ele>
        <time>2019-05-16T10:29:51Z</time>
      </trkpt>
      <trkpt lat="39.60846" lon="-8.69391">
        <ele>397.16</ele>
        <time>2019-05-16T10:30:07Z</time>
      </trkpt>
      <trkpt lat="39.60863" lon="-8.69388">
        <ele>398.6</ele>
        <time>2019-05-16T10:30:21Z</time>
      </trkpt>
      <trkpt lat="39.60867" lon="-8.69387">
        <ele>400.05</ele>
        <time>2019-05-16T10:30:24Z</time>
      </trkpt>
      <trkpt lat="39.60882" lon="-8.69384">
        <ele>399.57</ele>
        <time>2019-05-16T10:30:37Z</time>
      </trkpt>
      <trkpt lat="39.60897" lon="-8.69382">
        <ele>402.45</ele>
        <time>2019-05-16T10:30:49Z</time>
      </trkpt>
      <trkpt lat="39.60914" lon="-8.69381">
        <ele>402.93</ele>
        <time>2019-05-16T10:31:03Z</time>
      </trkpt>
      <trkpt lat="39.60929" lon="-8.69382">
        <ele>404.37</ele>
        <time>2019-05-16T10:31:17Z</time>
      </trkpt>
      <trkpt lat="39.6093" lon="-8.69383">
        <ele>404.85</ele>
        <time>2019-05-16T10:31:18Z</time>
      </trkpt>
      <trkpt lat="39.60932" lon="-8.69384">
        <ele>402.93</ele>
        <time>2019-05-16T10:31:20Z</time>
      </trkpt>
      <trkpt lat="39.60939" lon="-8.69386">
        <ele>406.77</ele>
        <time>2019-05-16T10:31:26Z</time>
      </trkpt>
      <trkpt lat="39.60947" lon="-8.69389">
        <ele>404.37</ele>
        <time>2019-05-16T10:31:33Z</time>
      </trkpt>
      <trkpt lat="39.60966" lon="-8.69391">
        <ele>403.89</ele>
        <time>2019-05-16T10:31:49Z</time>
      </trkpt>
      <trkpt lat="39.60976" lon="-8.69393">
        <ele>402.45</ele>
        <time>2019-05-16T10:31:56Z</time>
      </trkpt>
      <trkpt lat="39.60991" lon="-8.69393">
        <ele>400.53</ele>
        <time>2019-05-16T10:32:08Z</time>
      </trkpt>
      <trkpt lat="39.61004" lon="-8.69392">
        <ele>399.57</ele>
        <time>2019-05-16T10:32:19Z</time>
      </trkpt>
      <trkpt lat="39.61007" lon="-8.69391">
        <ele>401.49</ele>
        <time>2019-05-16T10:32:21Z</time>
      </trkpt>
      <trkpt lat="39.61028" lon="-8.69387">
        <ele>400.05</ele>
        <time>2019-05-16T10:32:37Z</time>
      </trkpt>
      <trkpt lat="39.61049" lon="-8.69385">
        <ele>398.6</ele>
        <time>2019-05-16T10:32:51Z</time>
      </trkpt>
      <trkpt lat="39.61056" lon="-8.69384">
        <ele>398.12</ele>
        <time>2019-05-16T10:32:56Z</time>
      </trkpt>
      <trkpt lat="39.61065" lon="-8.69384">
        <ele>395.72</ele>
        <time>2019-05-16T10:33:02Z</time>
      </trkpt>
      <trkpt lat="39.61075" lon="-8.69383">
        <ele>394.28</ele>
        <time>2019-05-16T10:33:09Z</time>
      </trkpt>
      <trkpt lat="39.61081" lon="-8.69383">
        <ele>395.72</ele>
        <time>2019-05-16T10:33:13Z</time>
      </trkpt>
      <trkpt lat="39.61097" lon="-8.69384">
        <ele>392.84</ele>
        <time>2019-05-16T10:33:24Z</time>
      </trkpt>
      <trkpt lat="39.61099" lon="-8.69384">
        <ele>392.84</ele>
        <time>2019-05-16T10:33:25Z</time>
      </trkpt>
      <trkpt lat="39.61121" lon="-8.69385">
        <ele>392.36</ele>
        <time>2019-05-16T10:33:40Z</time>
      </trkpt>
      <trkpt lat="39.6114" lon="-8.69391">
        <ele>389.95</ele>
        <time>2019-05-16T10:33:54Z</time>
      </trkpt>
      <trkpt lat="39.61155" lon="-8.69403">
        <ele>388.99</ele>
        <time>2019-05-16T10:34:08Z</time>
      </trkpt>
      <trkpt lat="39.61171" lon="-8.69414">
        <ele>388.03</ele>
        <time>2019-05-16T10:34:22Z</time>
      </trkpt>
      <trkpt lat="39.6118" lon="-8.69419">
        <ele>389.47</ele>
        <time>2019-05-16T10:34:29Z</time>
      </trkpt>
      <trkpt lat="39.61199" lon="-8.69429">
        <ele>387.07</ele>
        <time>2019-05-16T10:34:43Z</time>
      </trkpt>
      <trkpt lat="39.61215" lon="-8.69437">
        <ele>385.15</ele>
        <time>2019-05-16T10:34:56Z</time>
      </trkpt>
      <trkpt lat="39.61232" lon="-8.69445">
        <ele>382.74</ele>
        <time>2019-05-16T10:35:09Z</time>
      </trkpt>
      <trkpt lat="39.61245" lon="-8.69458">
        <ele>379.38</ele>
        <time>2019-05-16T10:35:21Z</time>
      </trkpt>
      <trkpt lat="39.61253" lon="-8.69468">
        <ele>378.42</ele>
        <time>2019-05-16T10:35:29Z</time>
      </trkpt>
      <trkpt lat="39.61255" lon="-8.69471">
        <ele>377.94</ele>
        <time>2019-05-16T10:35:31Z</time>
      </trkpt>
      <trkpt lat="39.61257" lon="-8.69471">
        <ele>378.9</ele>
        <time>2019-05-16T10:35:37Z</time>
      </trkpt>
      <trkpt lat="39.61268" lon="-8.69495">
        <ele>376.49</ele>
        <time>2019-05-16T10:35:53Z</time>
      </trkpt>
      <trkpt lat="39.61279" lon="-8.69501">
        <ele>375.53</ele>
        <time>2019-05-16T10:36:02Z</time>
      </trkpt>
      <trkpt lat="39.61285" lon="-8.69497">
        <ele>375.05</ele>
        <time>2019-05-16T10:36:07Z</time>
      </trkpt>
      <trkpt lat="39.6129" lon="-8.69493">
        <ele>374.09</ele>
        <time>2019-05-16T10:36:11Z</time>
      </trkpt>
      <trkpt lat="39.61291" lon="-8.6949">
        <ele>374.09</ele>
        <time>2019-05-16T10:36:13Z</time>
      </trkpt>
      <trkpt lat="39.61294" lon="-8.69487">
        <ele>372.65</ele>
        <time>2019-05-16T10:36:16Z</time>
      </trkpt>
      <trkpt lat="39.61295" lon="-8.69485">
        <ele>372.17</ele>
        <time>2019-05-16T10:36:18Z</time>
      </trkpt>
      <trkpt lat="39.61309" lon="-8.69468">
        <ele>369.28</ele>
        <time>2019-05-16T10:36:33Z</time>
      </trkpt>
      <trkpt lat="39.61312" lon="-8.69466">
        <ele>368.8</ele>
        <time>2019-05-16T10:36:35Z</time>
      </trkpt>
      <trkpt lat="39.6132" lon="-8.69457">
        <ele>367.36</ele>
        <time>2019-05-16T10:36:43Z</time>
      </trkpt>
      <trkpt lat="39.61337" lon="-8.69433">
        <ele>366.88</ele>
        <time>2019-05-16T10:36:59Z</time>
      </trkpt>
      <trkpt lat="39.61351" lon="-8.6942">
        <ele>364.96</ele>
        <time>2019-05-16T10:37:11Z</time>
      </trkpt>
      <trkpt lat="39.61364" lon="-8.69407">
        <ele>363.52</ele>
        <time>2019-05-16T10:37:24Z</time>
      </trkpt>
      <trkpt lat="39.61372" lon="-8.69399">
        <ele>362.55</ele>
        <time>2019-05-16T10:37:32Z</time>
      </trkpt>
      <trkpt lat="39.61386" lon="-8.69379">
        <ele>362.07</ele>
        <time>2019-05-16T10:37:47Z</time>
      </trkpt>
      <trkpt lat="39.61393" lon="-8.69369">
        <ele>362.55</ele>
        <time>2019-05-16T10:37:55Z</time>
      </trkpt>
      <trkpt lat="39.61408" lon="-8.69356">
        <ele>363.52</ele>
        <time>2019-05-16T10:38:09Z</time>
      </trkpt>
      <trkpt lat="39.61411" lon="-8.69354">
        <ele>363.04</ele>
        <time>2019-05-16T10:38:12Z</time>
      </trkpt>
      <trkpt lat="39.61431" lon="-8.69348">
        <ele>362.55</ele>
        <time>2019-05-16T10:38:25Z</time>
      </trkpt>
      <trkpt lat="39.61443" lon="-8.69342">
        <ele>363.04</ele>
        <time>2019-05-16T10:38:36Z</time>
      </trkpt>
      <trkpt lat="39.61465" lon="-8.69344">
        <ele>361.59</ele>
        <time>2019-05-16T10:38:51Z</time>
      </trkpt>
      <trkpt lat="39.61482" lon="-8.69347">
        <ele>361.11</ele>
        <time>2019-05-16T10:39:04Z</time>
      </trkpt>
      <trkpt lat="39.61497" lon="-8.69351">
        <ele>359.19</ele>
        <time>2019-05-16T10:39:17Z</time>
      </trkpt>
      <trkpt lat="39.61501" lon="-8.69355">
        <ele>361.11</ele>
        <time>2019-05-16T10:39:21Z</time>
      </trkpt>
      <trkpt lat="39.61503" lon="-8.69359">
        <ele>360.63</ele>
        <time>2019-05-16T10:39:24Z</time>
      </trkpt>
      <trkpt lat="39.61506" lon="-8.69364">
        <ele>360.15</ele>
        <time>2019-05-16T10:39:27Z</time>
      </trkpt>
      <trkpt lat="39.61509" lon="-8.69375">
        <ele>360.63</ele>
        <time>2019-05-16T10:39:33Z</time>
      </trkpt>
      <trkpt lat="39.61512" lon="-8.69382">
        <ele>360.63</ele>
        <time>2019-05-16T10:39:38Z</time>
      </trkpt>
      <trkpt lat="39.61514" lon="-8.69387">
        <ele>361.59</ele>
        <time>2019-05-16T10:39:42Z</time>
      </trkpt>
      <trkpt lat="39.61521" lon="-8.69393">
        <ele>361.59</ele>
        <time>2019-05-16T10:39:51Z</time>
      </trkpt>
      <trkpt lat="39.61524" lon="-8.69395">
        <ele>361.11</ele>
        <time>2019-05-16T10:39:54Z</time>
      </trkpt>
      <trkpt lat="39.61544" lon="-8.69395">
        <ele>359.67</ele>
        <time>2019-05-16T10:40:07Z</time>
      </trkpt>
      <trkpt lat="39.61545" lon="-8.69394">
        <ele>359.67</ele>
        <time>2019-05-16T10:40:08Z</time>
      </trkpt>
      <trkpt lat="39.61559" lon="-8.69372">
        <ele>359.19</ele>
        <time>2019-05-16T10:40:23Z</time>
      </trkpt>
      <trkpt lat="39.61572" lon="-8.69362">
        <ele>358.71</ele>
        <time>2019-05-16T10:40:35Z</time>
      </trkpt>
      <trkpt lat="39.61589" lon="-8.69354">
        <ele>357.75</ele>
        <time>2019-05-16T10:40:48Z</time>
      </trkpt>
      <trkpt lat="39.61604" lon="-8.69349">
        <ele>357.27</ele>
        <time>2019-05-16T10:41:01Z</time>
      </trkpt>
      <trkpt lat="39.61619" lon="-8.69346">
        <ele>356.79</ele>
        <time>2019-05-16T10:41:12Z</time>
      </trkpt>
      <trkpt lat="39.61631" lon="-8.69341">
        <ele>357.75</ele>
        <time>2019-05-16T10:41:23Z</time>
      </trkpt>
      <trkpt lat="39.61647" lon="-8.69333">
        <ele>357.75</ele>
        <time>2019-05-16T10:41:35Z</time>
      </trkpt>
      <trkpt lat="39.61661" lon="-8.69328">
        <ele>359.19</ele>
        <time>2019-05-16T10:41:47Z</time>
      </trkpt>
      <trkpt lat="39.61669" lon="-8.69325">
        <ele>360.63</ele>
        <time>2019-05-16T10:41:55Z</time>
      </trkpt>
      <trkpt lat="39.61675" lon="-8.69327">
        <ele>360.63</ele>
        <time>2019-05-16T10:41:59Z</time>
      </trkpt>
      <trkpt lat="39.61694" lon="-8.69334">
        <ele>359.19</ele>
        <time>2019-05-16T10:42:13Z</time>
      </trkpt>
      <trkpt lat="39.61708" lon="-8.69338">
        <ele>358.71</ele>
        <time>2019-05-16T10:42:26Z</time>
      </trkpt>
      <trkpt lat="39.61721" lon="-8.6934">
        <ele>357.27</ele>
        <time>2019-05-16T10:42:39Z</time>
      </trkpt>
      <trkpt lat="39.61742" lon="-8.69344">
        <ele>357.75</ele>
        <time>2019-05-16T10:42:53Z</time>
      </trkpt>
      <trkpt lat="39.61765" lon="-8.69353">
        <ele>356.79</ele>
        <time>2019-05-16T10:43:05Z</time>
      </trkpt>
      <trkpt lat="39.61783" lon="-8.69355">
        <ele>357.27</ele>
        <time>2019-05-16T10:43:18Z</time>
      </trkpt>
      <trkpt lat="39.61803" lon="-8.69356">
        <ele>356.79</ele>
        <time>2019-05-16T10:43:33Z</time>
      </trkpt>
      <trkpt lat="39.61823" lon="-8.69353">
        <ele>356.79</ele>
        <time>2019-05-16T10:43:47Z</time>
      </trkpt>
      <trkpt lat="39.6184" lon="-8.69351">
        <ele>356.79</ele>
        <time>2019-05-16T10:43:59Z</time>
      </trkpt>
      <trkpt lat="39.61854" lon="-8.69346">
        <ele>357.27</ele>
        <time>2019-05-16T10:44:11Z</time>
      </trkpt>
      <trkpt lat="39.61871" lon="-8.69341">
        <ele>357.75</ele>
        <time>2019-05-16T10:44:24Z</time>
      </trkpt>
      <trkpt lat="39.61879" lon="-8.69337">
        <ele>357.75</ele>
        <time>2019-05-16T10:44:30Z</time>
      </trkpt>
      <trkpt lat="39.61893" lon="-8.69325">
        <ele>357.27</ele>
        <time>2019-05-16T10:44:44Z</time>
      </trkpt>
      <trkpt lat="39.619" lon="-8.6932">
        <ele>357.27</ele>
        <time>2019-05-16T10:44:51Z</time>
      </trkpt>
      <trkpt lat="39.61913" lon="-8.69308">
        <ele>356.79</ele>
        <time>2019-05-16T10:45:03Z</time>
      </trkpt>
      <trkpt lat="39.61916" lon="-8.69307">
        <ele>356.31</ele>
        <time>2019-05-16T10:45:05Z</time>
      </trkpt>
      <trkpt lat="39.61931" lon="-8.69294">
        <ele>356.79</ele>
        <time>2019-05-16T10:45:17Z</time>
      </trkpt>
      <trkpt lat="39.61935" lon="-8.6929">
        <ele>356.31</ele>
        <time>2019-05-16T10:45:21Z</time>
      </trkpt>
      <trkpt lat="39.61952" lon="-8.69284">
        <ele>356.31</ele>
        <time>2019-05-16T10:45:35Z</time>
      </trkpt>
      <trkpt lat="39.61971" lon="-8.6929">
        <ele>356.31</ele>
        <time>2019-05-16T10:45:50Z</time>
      </trkpt>
      <trkpt lat="39.61981" lon="-8.69292">
        <ele>356.31</ele>
        <time>2019-05-16T10:46:04Z</time>
      </trkpt>
      <trkpt lat="39.6198" lon="-8.69295">
        <ele>356.31</ele>
        <time>2019-05-16T10:46:23Z</time>
      </trkpt>
      <trkpt lat="39.61981" lon="-8.69296">
        <ele>355.83</ele>
        <time>2019-05-16T10:46:40Z</time>
      </trkpt>
      <trkpt lat="39.61983" lon="-8.69295">
        <ele>356.79</ele>
        <time>2019-05-16T10:47:03Z</time>
      </trkpt>
      <trkpt lat="39.61985" lon="-8.69293">
        <ele>356.31</ele>
        <time>2019-05-16T10:47:05Z</time>
      </trkpt>
      <trkpt lat="39.61999" lon="-8.69273">
        <ele>354.86</ele>
        <time>2019-05-16T10:47:20Z</time>
      </trkpt>
      <trkpt lat="39.62011" lon="-8.69251">
        <ele>354.38</ele>
        <time>2019-05-16T10:47:36Z</time>
      </trkpt>
      <trkpt lat="39.62016" lon="-8.69245">
        <ele>354.38</ele>
        <time>2019-05-16T10:47:44Z</time>
      </trkpt>
      <trkpt lat="39.62026" lon="-8.69229">
        <ele>357.27</ele>
        <time>2019-05-16T10:47:57Z</time>
      </trkpt>
      <trkpt lat="39.62027" lon="-8.69228">
        <ele>357.27</ele>
        <time>2019-05-16T10:47:58Z</time>
      </trkpt>
      <trkpt lat="39.62032" lon="-8.69222">
        <ele>354.38</ele>
        <time>2019-05-16T10:48:03Z</time>
      </trkpt>
      <trkpt lat="39.62032" lon="-8.6922">
        <ele>354.38</ele>
        <time>2019-05-16T10:48:04Z</time>
      </trkpt>
      <trkpt lat="39.62047" lon="-8.69201">
        <ele>353.42</ele>
        <time>2019-05-16T10:48:20Z</time>
      </trkpt>
      <trkpt lat="39.62052" lon="-8.69194">
        <ele>352.94</ele>
        <time>2019-05-16T10:48:26Z</time>
      </trkpt>
      <trkpt lat="39.62065" lon="-8.69178">
        <ele>352.94</ele>
        <time>2019-05-16T10:48:40Z</time>
      </trkpt>
      <trkpt lat="39.62078" lon="-8.69165">
        <ele>354.38</ele>
        <time>2019-05-16T10:48:53Z</time>
      </trkpt>
      <trkpt lat="39.62086" lon="-8.69154">
        <ele>354.38</ele>
        <time>2019-05-16T10:49:03Z</time>
      </trkpt>
      <trkpt lat="39.621" lon="-8.69125">
        <ele>354.38</ele>
        <time>2019-05-16T10:49:22Z</time>
      </trkpt>
      <trkpt lat="39.62111" lon="-8.69118">
        <ele>354.38</ele>
        <time>2019-05-16T10:49:28Z</time>
      </trkpt>
      <trkpt lat="39.62117" lon="-8.69113">
        <ele>354.86</ele>
        <time>2019-05-16T10:49:37Z</time>
      </trkpt>
      <trkpt lat="39.62128" lon="-8.69099">
        <ele>355.34</ele>
        <time>2019-05-16T10:49:50Z</time>
      </trkpt>
      <trkpt lat="39.62129" lon="-8.69098">
        <ele>354.38</ele>
        <time>2019-05-16T10:49:51Z</time>
      </trkpt>
      <trkpt lat="39.62133" lon="-8.6909">
        <ele>355.34</ele>
        <time>2019-05-16T10:49:57Z</time>
      </trkpt>
      <trkpt lat="39.62135" lon="-8.69087">
        <ele>354.86</ele>
        <time>2019-05-16T10:49:59Z</time>
      </trkpt>
      <trkpt lat="39.62139" lon="-8.69062">
        <ele>354.86</ele>
        <time>2019-05-16T10:50:14Z</time>
      </trkpt>
      <trkpt lat="39.6214" lon="-8.69053">
        <ele>354.38</ele>
        <time>2019-05-16T10:50:19Z</time>
      </trkpt>
      <trkpt lat="39.62139" lon="-8.69035">
        <ele>354.86</ele>
        <time>2019-05-16T10:50:32Z</time>
      </trkpt>
      <trkpt lat="39.62139" lon="-8.69017">
        <ele>355.34</ele>
        <time>2019-05-16T10:50:46Z</time>
      </trkpt>
      <trkpt lat="39.62138" lon="-8.68996">
        <ele>355.34</ele>
        <time>2019-05-16T10:51:00Z</time>
      </trkpt>
      <trkpt lat="39.62137" lon="-8.68974">
        <ele>354.86</ele>
        <time>2019-05-16T10:51:16Z</time>
      </trkpt>
      <trkpt lat="39.62139" lon="-8.68956">
        <ele>355.34</ele>
        <time>2019-05-16T10:51:30Z</time>
      </trkpt>
      <trkpt lat="39.62147" lon="-8.68935">
        <ele>355.83</ele>
        <time>2019-05-16T10:51:46Z</time>
      </trkpt>
      <trkpt lat="39.62148" lon="-8.68918">
        <ele>355.34</ele>
        <time>2019-05-16T10:51:59Z</time>
      </trkpt>
      <trkpt lat="39.62152" lon="-8.68908">
        <ele>355.34</ele>
        <time>2019-05-16T10:52:06Z</time>
      </trkpt>
      <trkpt lat="39.62158" lon="-8.68882">
        <ele>355.83</ele>
        <time>2019-05-16T10:52:21Z</time>
      </trkpt>
      <trkpt lat="39.62164" lon="-8.68855">
        <ele>356.31</ele>
        <time>2019-05-16T10:52:35Z</time>
      </trkpt>
      <trkpt lat="39.62172" lon="-8.6883">
        <ele>356.79</ele>
        <time>2019-05-16T10:52:50Z</time>
      </trkpt>
      <trkpt lat="39.6218" lon="-8.68812">
        <ele>356.31</ele>
        <time>2019-05-16T10:53:03Z</time>
      </trkpt>
      <trkpt lat="39.62192" lon="-8.68789">
        <ele>355.83</ele>
        <time>2019-05-16T10:53:18Z</time>
      </trkpt>
      <trkpt lat="39.62193" lon="-8.68785">
        <ele>356.31</ele>
        <time>2019-05-16T10:53:20Z</time>
      </trkpt>
      <trkpt lat="39.62202" lon="-8.68771">
        <ele>355.83</ele>
        <time>2019-05-16T10:53:30Z</time>
      </trkpt>
      <trkpt lat="39.62205" lon="-8.6877">
        <ele>355.34</ele>
        <time>2019-05-16T10:53:33Z</time>
      </trkpt>
      <trkpt lat="39.62217" lon="-8.68752">
        <ele>354.38</ele>
        <time>2019-05-16T10:53:48Z</time>
      </trkpt>
      <trkpt lat="39.62223" lon="-8.68747">
        <ele>353.42</ele>
        <time>2019-05-16T10:53:54Z</time>
      </trkpt>
      <trkpt lat="39.62241" lon="-8.68742">
        <ele>353.42</ele>
        <time>2019-05-16T10:54:08Z</time>
      </trkpt>
      <trkpt lat="39.62256" lon="-8.68741">
        <ele>353.42</ele>
        <time>2019-05-16T10:54:20Z</time>
      </trkpt>
      <trkpt lat="39.62268" lon="-8.68741">
        <ele>351.98</ele>
        <time>2019-05-16T10:54:32Z</time>
      </trkpt>
      <trkpt lat="39.62276" lon="-8.68741">
        <ele>351.98</ele>
        <time>2019-05-16T10:54:40Z</time>
      </trkpt>
      <trkpt lat="39.62288" lon="-8.6874">
        <ele>352.46</ele>
        <time>2019-05-16T10:54:50Z</time>
      </trkpt>
      <trkpt lat="39.62314" lon="-8.6873">
        <ele>351.02</ele>
        <time>2019-05-16T10:55:05Z</time>
      </trkpt>
      <trkpt lat="39.62321" lon="-8.68727">
        <ele>351.02</ele>
        <time>2019-05-16T10:55:10Z</time>
      </trkpt>
      <trkpt lat="39.62343" lon="-8.68713">
        <ele>351.5</ele>
        <time>2019-05-16T10:55:25Z</time>
      </trkpt>
      <trkpt lat="39.62349" lon="-8.68708">
        <ele>351.5</ele>
        <time>2019-05-16T10:55:30Z</time>
      </trkpt>
      <trkpt lat="39.62356" lon="-8.68702">
        <ele>351.02</ele>
        <time>2019-05-16T10:55:36Z</time>
      </trkpt>
      <trkpt lat="39.62371" lon="-8.68689">
        <ele>350.06</ele>
        <time>2019-05-16T10:55:51Z</time>
      </trkpt>
      <trkpt lat="39.62385" lon="-8.68673">
        <ele>351.02</ele>
        <time>2019-05-16T10:56:05Z</time>
      </trkpt>
      <trkpt lat="39.62394" lon="-8.68663">
        <ele>351.98</ele>
        <time>2019-05-16T10:56:13Z</time>
      </trkpt>
      <trkpt lat="39.62405" lon="-8.68651">
        <ele>352.46</ele>
        <time>2019-05-16T10:56:25Z</time>
      </trkpt>
      <trkpt lat="39.6241" lon="-8.68646">
        <ele>352.46</ele>
        <time>2019-05-16T10:56:30Z</time>
      </trkpt>
      <trkpt lat="39.62424" lon="-8.68626">
        <ele>351.98</ele>
        <time>2019-05-16T10:56:46Z</time>
      </trkpt>
      <trkpt lat="39.62438" lon="-8.68608">
        <ele>351.98</ele>
        <time>2019-05-16T10:57:00Z</time>
      </trkpt>
      <trkpt lat="39.6245" lon="-8.68594">
        <ele>351.98</ele>
        <time>2019-05-16T10:57:13Z</time>
      </trkpt>
      <trkpt lat="39.62454" lon="-8.68591">
        <ele>352.46</ele>
        <time>2019-05-16T10:57:24Z</time>
      </trkpt>
      <trkpt lat="39.62459" lon="-8.68585">
        <ele>352.46</ele>
        <time>2019-05-16T10:57:39Z</time>
      </trkpt>
      <trkpt lat="39.62468" lon="-8.68577">
        <ele>351.98</ele>
        <time>2019-05-16T10:57:50Z</time>
      </trkpt>
      <trkpt lat="39.62469" lon="-8.68576">
        <ele>352.46</ele>
        <time>2019-05-16T10:57:51Z</time>
      </trkpt>
      <trkpt lat="39.62483" lon="-8.68567">
        <ele>350.54</ele>
        <time>2019-05-16T10:58:04Z</time>
      </trkpt>
      <trkpt lat="39.6249" lon="-8.68564">
        <ele>350.54</ele>
        <time>2019-05-16T10:58:10Z</time>
      </trkpt>
      <trkpt lat="39.62509" lon="-8.68558">
        <ele>350.06</ele>
        <time>2019-05-16T10:58:24Z</time>
      </trkpt>
      <trkpt lat="39.62528" lon="-8.68551">
        <ele>351.02</ele>
        <time>2019-05-16T10:58:38Z</time>
      </trkpt>
      <trkpt lat="39.62532" lon="-8.68549">
        <ele>350.06</ele>
        <time>2019-05-16T10:58:41Z</time>
      </trkpt>
      <trkpt lat="39.62547" lon="-8.68536">
        <ele>350.06</ele>
        <time>2019-05-16T10:58:56Z</time>
      </trkpt>
      <trkpt lat="39.62559" lon="-8.68523">
        <ele>350.06</ele>
        <time>2019-05-16T10:59:08Z</time>
      </trkpt>
      <trkpt lat="39.62565" lon="-8.68518">
        <ele>350.54</ele>
        <time>2019-05-16T10:59:14Z</time>
      </trkpt>
      <trkpt lat="39.6257" lon="-8.68512">
        <ele>350.54</ele>
        <time>2019-05-16T10:59:19Z</time>
      </trkpt>
      <trkpt lat="39.6258" lon="-8.685">
        <ele>350.06</ele>
        <time>2019-05-16T10:59:28Z</time>
      </trkpt>
      <trkpt lat="39.62585" lon="-8.68495">
        <ele>351.02</ele>
        <time>2019-05-16T10:59:32Z</time>
      </trkpt>
      <trkpt lat="39.62598" lon="-8.68473">
        <ele>350.54</ele>
        <time>2019-05-16T10:59:47Z</time>
      </trkpt>
      <trkpt lat="39.62602" lon="-8.68449">
        <ele>351.02</ele>
        <time>2019-05-16T11:00:03Z</time>
      </trkpt>
      <trkpt lat="39.62603" lon="-8.68429">
        <ele>351.5</ele>
        <time>2019-05-16T11:00:16Z</time>
      </trkpt>
      <trkpt lat="39.62606" lon="-8.68406">
        <ele>351.02</ele>
        <time>2019-05-16T11:00:30Z</time>
      </trkpt>
      <trkpt lat="39.62609" lon="-8.68386">
        <ele>351.5</ele>
        <time>2019-05-16T11:00:42Z</time>
      </trkpt>
      <trkpt lat="39.62612" lon="-8.68361">
        <ele>351.98</ele>
        <time>2019-05-16T11:00:57Z</time>
      </trkpt>
      <trkpt lat="39.62616" lon="-8.68334">
        <ele>351.02</ele>
        <time>2019-05-16T11:01:12Z</time>
      </trkpt>
      <trkpt lat="39.6262" lon="-8.68308">
        <ele>351.5</ele>
        <time>2019-05-16T11:01:28Z</time>
      </trkpt>
      <trkpt lat="39.62626" lon="-8.68285">
        <ele>351.02</ele>
        <time>2019-05-16T11:01:42Z</time>
      </trkpt>
      <trkpt lat="39.62631" lon="-8.68259">
        <ele>351.02</ele>
        <time>2019-05-16T11:01:59Z</time>
      </trkpt>
      <trkpt lat="39.62633" lon="-8.68251">
        <ele>351.02</ele>
        <time>2019-05-16T11:02:14Z</time>
      </trkpt>
      <trkpt lat="39.62636" lon="-8.68246">
        <ele>351.5</ele>
        <time>2019-05-16T11:02:19Z</time>
      </trkpt>
      <trkpt lat="39.6264" lon="-8.68225">
        <ele>350.54</ele>
        <time>2019-05-16T11:02:32Z</time>
      </trkpt>
      <trkpt lat="39.62645" lon="-8.68204">
        <ele>350.54</ele>
        <time>2019-05-16T11:02:45Z</time>
      </trkpt>
      <trkpt lat="39.62651" lon="-8.68189">
        <ele>350.54</ele>
        <time>2019-05-16T11:02:56Z</time>
      </trkpt>
      <trkpt lat="39.62655" lon="-8.68176">
        <ele>350.54</ele>
        <time>2019-05-16T11:03:04Z</time>
      </trkpt>
      <trkpt lat="39.62662" lon="-8.68158">
        <ele>350.54</ele>
        <time>2019-05-16T11:03:18Z</time>
      </trkpt>
      <trkpt lat="39.62666" lon="-8.68146">
        <ele>349.1</ele>
        <time>2019-05-16T11:03:25Z</time>
      </trkpt>
      <trkpt lat="39.62673" lon="-8.68121">
        <ele>349.58</ele>
        <time>2019-05-16T11:03:41Z</time>
      </trkpt>
      <trkpt lat="39.6268" lon="-8.68098">
        <ele>349.58</ele>
        <time>2019-05-16T11:03:56Z</time>
      </trkpt>
      <trkpt lat="39.62688" lon="-8.68074">
        <ele>348.62</ele>
        <time>2019-05-16T11:04:12Z</time>
      </trkpt>
      <trkpt lat="39.62696" lon="-8.68048">
        <ele>349.1</ele>
        <time>2019-05-16T11:04:27Z</time>
      </trkpt>
      <trkpt lat="39.62703" lon="-8.68035">
        <ele>348.62</ele>
        <time>2019-05-16T11:04:37Z</time>
      </trkpt>
      <trkpt lat="39.62706" lon="-8.68028">
        <ele>348.13</ele>
        <time>2019-05-16T11:04:41Z</time>
      </trkpt>
      <trkpt lat="39.62717" lon="-8.68006">
        <ele>348.62</ele>
        <time>2019-05-16T11:04:57Z</time>
      </trkpt>
      <trkpt lat="39.6272" lon="-8.68002">
        <ele>347.17</ele>
        <time>2019-05-16T11:05:00Z</time>
      </trkpt>
      <trkpt lat="39.62729" lon="-8.67991">
        <ele>345.73</ele>
        <time>2019-05-16T11:05:10Z</time>
      </trkpt>
      <trkpt lat="39.62733" lon="-8.67984">
        <ele>348.62</ele>
        <time>2019-05-16T11:05:17Z</time>
      </trkpt>
      <trkpt lat="39.62733" lon="-8.67983">
        <ele>347.17</ele>
        <time>2019-05-16T11:05:19Z</time>
      </trkpt>
      <trkpt lat="39.62736" lon="-8.67982">
        <ele>346.69</ele>
        <time>2019-05-16T11:05:24Z</time>
      </trkpt>
      <trkpt lat="39.62738" lon="-8.67982">
        <ele>346.21</ele>
        <time>2019-05-16T11:05:26Z</time>
      </trkpt>
      <trkpt lat="39.62741" lon="-8.67983">
        <ele>345.25</ele>
        <time>2019-05-16T11:05:28Z</time>
      </trkpt>
      <trkpt lat="39.62746" lon="-8.67986">
        <ele>347.17</ele>
        <time>2019-05-16T11:05:35Z</time>
      </trkpt>
      <trkpt lat="39.62742" lon="-8.67982">
        <ele>347.17</ele>
        <time>2019-05-16T11:05:46Z</time>
      </trkpt>
      <trkpt lat="39.62739" lon="-8.6798">
        <ele>346.21</ele>
        <time>2019-05-16T11:05:57Z</time>
      </trkpt>
      <trkpt lat="39.62737" lon="-8.67978">
        <ele>347.17</ele>
        <time>2019-05-16T11:06:00Z</time>
      </trkpt>
      <trkpt lat="39.62728" lon="-8.67964">
        <ele>347.17</ele>
        <time>2019-05-16T11:06:15Z</time>
      </trkpt>
      <trkpt lat="39.62728" lon="-8.67961">
        <ele>348.13</ele>
        <time>2019-05-16T11:06:17Z</time>
      </trkpt>
      <trkpt lat="39.62742" lon="-8.67947">
        <ele>345.25</ele>
        <time>2019-05-16T11:06:34Z</time>
      </trkpt>
      <trkpt lat="39.62745" lon="-8.67945">
        <ele>346.69</ele>
        <time>2019-05-16T11:06:36Z</time>
      </trkpt>
      <trkpt lat="39.62756" lon="-8.67932">
        <ele>343.33</ele>
        <time>2019-05-16T11:06:48Z</time>
      </trkpt>
      <trkpt lat="39.62762" lon="-8.67924">
        <ele>346.69</ele>
        <time>2019-05-16T11:06:55Z</time>
      </trkpt>
      <trkpt lat="39.62764" lon="-8.6792">
        <ele>346.21</ele>
        <time>2019-05-16T11:06:58Z</time>
      </trkpt>
      <trkpt lat="39.62768" lon="-8.67918">
        <ele>344.29</ele>
        <time>2019-05-16T11:07:01Z</time>
      </trkpt>
      <trkpt lat="39.62784" lon="-8.67912">
        <ele>344.29</ele>
        <time>2019-05-16T11:07:12Z</time>
      </trkpt>
      <trkpt lat="39.62797" lon="-8.67906">
        <ele>345.25</ele>
        <time>2019-05-16T11:07:22Z</time>
      </trkpt>
      <trkpt lat="39.62801" lon="-8.67905">
        <ele>342.37</ele>
        <time>2019-05-16T11:07:25Z</time>
      </trkpt>
      <trkpt lat="39.62801" lon="-8.67904">
        <ele>342.37</ele>
        <time>2019-05-16T11:07:26Z</time>
      </trkpt>
      <trkpt lat="39.62811" lon="-8.67899">
        <ele>339.48</ele>
        <time>2019-05-16T11:07:34Z</time>
      </trkpt>
      <trkpt lat="39.62812" lon="-8.67898">
        <ele>341.89</ele>
        <time>2019-05-16T11:07:35Z</time>
      </trkpt>
      <trkpt lat="39.62814" lon="-8.67897">
        <ele>339.96</ele>
        <time>2019-05-16T11:07:37Z</time>
      </trkpt>
      <trkpt lat="39.62817" lon="-8.67896">
        <ele>341.89</ele>
        <time>2019-05-16T11:07:39Z</time>
      </trkpt>
      <trkpt lat="39.6282" lon="-8.67893">
        <ele>341.89</ele>
        <time>2019-05-16T11:07:42Z</time>
      </trkpt>
      <trkpt lat="39.62836" lon="-8.67882">
        <ele>341.41</ele>
        <time>2019-05-16T11:07:57Z</time>
      </trkpt>
      <trkpt lat="39.6285" lon="-8.67876">
        <ele>342.37</ele>
        <time>2019-05-16T11:08:09Z</time>
      </trkpt>
      <trkpt lat="39.62864" lon="-8.67878">
        <ele>343.81</ele>
        <time>2019-05-16T11:08:22Z</time>
      </trkpt>
      <trkpt lat="39.62875" lon="-8.6787">
        <ele>343.33</ele>
        <time>2019-05-16T11:08:36Z</time>
      </trkpt>
      <trkpt lat="39.62886" lon="-8.6786">
        <ele>343.33</ele>
        <time>2019-05-16T11:08:49Z</time>
      </trkpt>
      <trkpt lat="39.62892" lon="-8.67853">
        <ele>343.33</ele>
        <time>2019-05-16T11:08:55Z</time>
      </trkpt>
      <trkpt lat="39.62901" lon="-8.67842">
        <ele>344.29</ele>
        <time>2019-05-16T11:09:06Z</time>
      </trkpt>
      <trkpt lat="39.62907" lon="-8.67839">
        <ele>343.81</ele>
        <time>2019-05-16T11:09:10Z</time>
      </trkpt>
      <trkpt lat="39.62911" lon="-8.67824">
        <ele>343.81</ele>
        <time>2019-05-16T11:09:21Z</time>
      </trkpt>
      <trkpt lat="39.62912" lon="-8.67819">
        <ele>344.77</ele>
        <time>2019-05-16T11:09:24Z</time>
      </trkpt>
      <trkpt lat="39.62914" lon="-8.67813">
        <ele>345.73</ele>
        <time>2019-05-16T11:09:28Z</time>
      </trkpt>
      <trkpt lat="39.62922" lon="-8.67794">
        <ele>347.17</ele>
        <time>2019-05-16T11:09:43Z</time>
      </trkpt>
      <trkpt lat="39.62929" lon="-8.67782">
        <ele>345.73</ele>
        <time>2019-05-16T11:09:56Z</time>
      </trkpt>
      <trkpt lat="39.62929" lon="-8.67781">
        <ele>346.21</ele>
        <time>2019-05-16T11:09:57Z</time>
      </trkpt>
      <trkpt lat="39.62929" lon="-8.67779">
        <ele>347.65</ele>
        <time>2019-05-16T11:09:59Z</time>
      </trkpt>
      <trkpt lat="39.62932" lon="-8.67774">
        <ele>346.21</ele>
        <time>2019-05-16T11:10:12Z</time>
      </trkpt>
      <trkpt lat="39.62937" lon="-8.67789">
        <ele>347.17</ele>
        <time>2019-05-16T11:10:25Z</time>
      </trkpt>
      <trkpt lat="39.62939" lon="-8.67796">
        <ele>347.17</ele>
        <time>2019-05-16T11:10:39Z</time>
      </trkpt>
      <trkpt lat="39.62944" lon="-8.67806">
        <ele>346.69</ele>
        <time>2019-05-16T11:10:54Z</time>
      </trkpt>
      <trkpt lat="39.62947" lon="-8.6781">
        <ele>346.69</ele>
        <time>2019-05-16T11:11:13Z</time>
      </trkpt>
      <trkpt lat="39.62945" lon="-8.67812">
        <ele>347.17</ele>
        <time>2019-05-16T11:11:35Z</time>
      </trkpt>
      <trkpt lat="39.62946" lon="-8.67815">
        <ele>347.17</ele>
        <time>2019-05-16T11:11:49Z</time>
      </trkpt>
      <trkpt lat="39.62943" lon="-8.67817">
        <ele>347.65</ele>
        <time>2019-05-16T11:12:07Z</time>
      </trkpt>
      <trkpt lat="39.62942" lon="-8.67817">
        <ele>345.73</ele>
        <time>2019-05-16T11:12:33Z</time>
      </trkpt>
      <trkpt lat="39.62941" lon="-8.67817">
        <ele>345.73</ele>
        <time>2019-05-16T11:13:01Z</time>
      </trkpt>
      <trkpt lat="39.62944" lon="-8.67813">
        <ele>346.21</ele>
        <time>2019-05-16T11:13:42Z</time>
      </trkpt>
      <trkpt lat="39.62944" lon="-8.67818">
        <ele>346.69</ele>
        <time>2019-05-16T11:14:22Z</time>
      </trkpt>
      <trkpt lat="39.62947" lon="-8.67818">
        <ele>345.73</ele>
        <time>2019-05-16T11:15:01Z</time>
      </trkpt>
      <trkpt lat="39.62945" lon="-8.67822">
        <ele>345.25</ele>
        <time>2019-05-16T11:15:40Z</time>
      </trkpt>
      <trkpt lat="39.62945" lon="-8.6782">
        <ele>345.25</ele>
        <time>2019-05-16T11:16:16Z</time>
      </trkpt>
      <trkpt lat="39.62945" lon="-8.67813">
        <ele>345.25</ele>
        <time>2019-05-16T11:16:51Z</time>
      </trkpt>
      <trkpt lat="39.62948" lon="-8.67811">
        <ele>345.25</ele>
        <time>2019-05-16T11:17:17Z</time>
      </trkpt>
      <trkpt lat="39.62952" lon="-8.67807">
        <ele>345.25</ele>
        <time>2019-05-16T11:18:00Z</time>
      </trkpt>
      <trkpt lat="39.62946" lon="-8.67811">
        <ele>345.25</ele>
        <time>2019-05-16T11:18:40Z</time>
      </trkpt>
      <trkpt lat="39.62946" lon="-8.67813">
        <ele>345.25</ele>
        <time>2019-05-16T11:19:12Z</time>
      </trkpt>
      <trkpt lat="39.62941" lon="-8.67812">
        <ele>345.73</ele>
        <time>2019-05-16T11:20:00Z</time>
      </trkpt>
      <trkpt lat="39.62937" lon="-8.6781">
        <ele>345.73</ele>
        <time>2019-05-16T11:20:44Z</time>
      </trkpt>
      <trkpt lat="39.62937" lon="-8.67809">
        <ele>346.21</ele>
        <time>2019-05-16T11:21:26Z</time>
      </trkpt>
      <trkpt lat="39.62939" lon="-8.67812">
        <ele>345.73</ele>
        <time>2019-05-16T11:22:08Z</time>
      </trkpt>
      <trkpt lat="39.6294" lon="-8.67812">
        <ele>347.17</ele>
        <time>2019-05-16T11:22:51Z</time>
      </trkpt>
      <trkpt lat="39.62945" lon="-8.67806">
        <ele>346.69</ele>
        <time>2019-05-16T11:23:33Z</time>
      </trkpt>
      <trkpt lat="39.62944" lon="-8.67813">
        <ele>347.17</ele>
        <time>2019-05-16T11:24:09Z</time>
      </trkpt>
      <trkpt lat="39.62944" lon="-8.67814">
        <ele>347.17</ele>
        <time>2019-05-16T11:24:59Z</time>
      </trkpt>
      <trkpt lat="39.62943" lon="-8.67815">
        <ele>347.65</ele>
        <time>2019-05-16T11:25:04Z</time>
      </trkpt>
      <trkpt lat="39.62942" lon="-8.67815">
        <ele>347.65</ele>
        <time>2019-05-16T11:25:41Z</time>
      </trkpt>
      <trkpt lat="39.6294" lon="-8.67815">
        <ele>347.17</ele>
        <time>2019-05-16T11:26:22Z</time>
      </trkpt>
      <trkpt lat="39.62949" lon="-8.67809">
        <ele>348.62</ele>
        <time>2019-05-16T11:26:51Z</time>
      </trkpt>
      <trkpt lat="39.62949" lon="-8.67812">
        <ele>346.69</ele>
        <time>2019-05-16T11:27:25Z</time>
      </trkpt>
      <trkpt lat="39.62946" lon="-8.67818">
        <ele>347.17</ele>
        <time>2019-05-16T11:28:00Z</time>
      </trkpt>
      <trkpt lat="39.62946" lon="-8.67819">
        <ele>347.17</ele>
        <time>2019-05-16T11:28:36Z</time>
      </trkpt>
      <trkpt lat="39.62945" lon="-8.67819">
        <ele>347.65</ele>
        <time>2019-05-16T11:29:19Z</time>
      </trkpt>
      <trkpt lat="39.62947" lon="-8.67818">
        <ele>347.65</ele>
        <time>2019-05-16T11:30:03Z</time>
      </trkpt>
      <trkpt lat="39.62943" lon="-8.67813">
        <ele>346.69</ele>
        <time>2019-05-16T11:30:52Z</time>
      </trkpt>
      <trkpt lat="39.62946" lon="-8.67811">
        <ele>347.65</ele>
        <time>2019-05-16T11:31:36Z</time>
      </trkpt>
      <trkpt lat="39.62948" lon="-8.6781">
        <ele>348.13</ele>
        <time>2019-05-16T11:32:17Z</time>
      </trkpt>
      <trkpt lat="39.62944" lon="-8.67814">
        <ele>347.65</ele>
        <time>2019-05-16T11:33:01Z</time>
      </trkpt>
      <trkpt lat="39.62942" lon="-8.67815">
        <ele>348.62</ele>
        <time>2019-05-16T11:33:48Z</time>
      </trkpt>
      <trkpt lat="39.62944" lon="-8.67818">
        <ele>348.62</ele>
        <time>2019-05-16T11:34:30Z</time>
      </trkpt>
      <trkpt lat="39.62949" lon="-8.67816">
        <ele>348.62</ele>
        <time>2019-05-16T11:35:10Z</time>
      </trkpt>
      <trkpt lat="39.62947" lon="-8.67811">
        <ele>349.58</ele>
        <time>2019-05-16T11:35:41Z</time>
      </trkpt>
      <trkpt lat="39.62946" lon="-8.6781">
        <ele>349.1</ele>
        <time>2019-05-16T11:36:06Z</time>
      </trkpt>
      <trkpt lat="39.62946" lon="-8.67808">
        <ele>348.62</ele>
        <time>2019-05-16T11:36:30Z</time>
      </trkpt>
      <trkpt lat="39.6295" lon="-8.67801">
        <ele>348.13</ele>
        <time>2019-05-16T11:36:39Z</time>
      </trkpt>
      <trkpt lat="39.62948" lon="-8.678">
        <ele>348.62</ele>
        <time>2019-05-16T11:37:02Z</time>
      </trkpt>
      <trkpt lat="39.62946" lon="-8.67797">
        <ele>348.62</ele>
        <time>2019-05-16T11:37:28Z</time>
      </trkpt>
      <trkpt lat="39.62951" lon="-8.67798">
        <ele>348.13</ele>
        <time>2019-05-16T11:37:58Z</time>
      </trkpt>
      <trkpt lat="39.62955" lon="-8.67802">
        <ele>349.58</ele>
        <time>2019-05-16T11:38:15Z</time>
      </trkpt>
      <trkpt lat="39.62959" lon="-8.67805">
        <ele>349.58</ele>
        <time>2019-05-16T11:38:30Z</time>
      </trkpt>
      <trkpt lat="39.62959" lon="-8.67804">
        <ele>349.58</ele>
        <time>2019-05-16T11:38:43Z</time>
      </trkpt>
      <trkpt lat="39.62955" lon="-8.67802">
        <ele>349.58</ele>
        <time>2019-05-16T11:38:56Z</time>
      </trkpt>
      <trkpt lat="39.62952" lon="-8.67797">
        <ele>348.62</ele>
        <time>2019-05-16T11:39:04Z</time>
      </trkpt>
      <trkpt lat="39.62939" lon="-8.67777">
        <ele>349.1</ele>
        <time>2019-05-16T11:39:19Z</time>
      </trkpt>
      <trkpt lat="39.62938" lon="-8.67775">
        <ele>348.62</ele>
        <time>2019-05-16T11:39:21Z</time>
      </trkpt>
      <trkpt lat="39.62929" lon="-8.67758">
        <ele>349.58</ele>
        <time>2019-05-16T11:39:36Z</time>
      </trkpt>
      <trkpt lat="39.62923" lon="-8.6775">
        <ele>349.1</ele>
        <time>2019-05-16T11:39:44Z</time>
      </trkpt>
      <trkpt lat="39.62919" lon="-8.67743">
        <ele>350.54</ele>
        <time>2019-05-16T11:39:49Z</time>
      </trkpt>
      <trkpt lat="39.62906" lon="-8.67727">
        <ele>349.1</ele>
        <time>2019-05-16T11:40:04Z</time>
      </trkpt>
      <trkpt lat="39.62902" lon="-8.67721">
        <ele>349.58</ele>
        <time>2019-05-16T11:40:11Z</time>
      </trkpt>
      <trkpt lat="39.629" lon="-8.6771">
        <ele>348.62</ele>
        <time>2019-05-16T11:40:19Z</time>
      </trkpt>
      <trkpt lat="39.62894" lon="-8.67704">
        <ele>350.54</ele>
        <time>2019-05-16T11:40:26Z</time>
      </trkpt>
      <trkpt lat="39.62891" lon="-8.67699">
        <ele>350.06</ele>
        <time>2019-05-16T11:40:30Z</time>
      </trkpt>
      <trkpt lat="39.62884" lon="-8.67681">
        <ele>350.54</ele>
        <time>2019-05-16T11:40:46Z</time>
      </trkpt>
      <trkpt lat="39.62875" lon="-8.67664">
        <ele>351.02</ele>
        <time>2019-05-16T11:41:01Z</time>
      </trkpt>
      <trkpt lat="39.62867" lon="-8.67651">
        <ele>353.9</ele>
        <time>2019-05-16T11:41:12Z</time>
      </trkpt>
      <trkpt lat="39.62858" lon="-8.67635">
        <ele>351.02</ele>
        <time>2019-05-16T11:41:25Z</time>
      </trkpt>
      <trkpt lat="39.62851" lon="-8.67623">
        <ele>351.5</ele>
        <time>2019-05-16T11:41:36Z</time>
      </trkpt>
      <trkpt lat="39.62839" lon="-8.67607">
        <ele>350.06</ele>
        <time>2019-05-16T11:41:52Z</time>
      </trkpt>
      <trkpt lat="39.6283" lon="-8.67592">
        <ele>349.58</ele>
        <time>2019-05-16T11:42:06Z</time>
      </trkpt>
      <trkpt lat="39.6283" lon="-8.67591">
        <ele>350.06</ele>
        <time>2019-05-16T11:42:07Z</time>
      </trkpt>
      <trkpt lat="39.62823" lon="-8.67576">
        <ele>349.58</ele>
        <time>2019-05-16T11:42:21Z</time>
      </trkpt>
      <trkpt lat="39.62821" lon="-8.6757">
        <ele>350.06</ele>
        <time>2019-05-16T11:42:33Z</time>
      </trkpt>
      <trkpt lat="39.62813" lon="-8.6756">
        <ele>349.58</ele>
        <time>2019-05-16T11:42:45Z</time>
      </trkpt>
      <trkpt lat="39.62813" lon="-8.6756">
        <ele>352.94</ele>
        <time>2019-05-16T11:42:48Z</time>
      </trkpt>
      <trkpt lat="39.62811" lon="-8.67557">
        <ele>351.02</ele>
        <time>2019-05-16T11:42:54Z</time>
      </trkpt>
      <trkpt lat="39.62811" lon="-8.67557">
        <ele>351.02</ele>
        <time>2019-05-16T11:42:55Z</time>
      </trkpt>
      <trkpt lat="39.62807" lon="-8.67555">
        <ele>350.54</ele>
        <time>2019-05-16T11:42:59Z</time>
      </trkpt>
      <trkpt lat="39.62798" lon="-8.67541">
        <ele>349.58</ele>
        <time>2019-05-16T11:43:12Z</time>
      </trkpt>
      <trkpt lat="39.62792" lon="-8.67534">
        <ele>350.54</ele>
        <time>2019-05-16T11:43:23Z</time>
      </trkpt>
      <trkpt lat="39.6279" lon="-8.6753">
        <ele>351.02</ele>
        <time>2019-05-16T11:43:26Z</time>
      </trkpt>
      <trkpt lat="39.6279" lon="-8.67524">
        <ele>351.5</ele>
        <time>2019-05-16T11:43:31Z</time>
      </trkpt>
      <trkpt lat="39.62782" lon="-8.67513">
        <ele>350.06</ele>
        <time>2019-05-16T11:43:44Z</time>
      </trkpt>
      <trkpt lat="39.62774" lon="-8.67502">
        <ele>350.06</ele>
        <time>2019-05-16T11:43:55Z</time>
      </trkpt>
      <trkpt lat="39.6277" lon="-8.67493">
        <ele>349.58</ele>
        <time>2019-05-16T11:44:06Z</time>
      </trkpt>
      <trkpt lat="39.62756" lon="-8.67489">
        <ele>348.62</ele>
        <time>2019-05-16T11:44:20Z</time>
      </trkpt>
      <trkpt lat="39.62743" lon="-8.67473">
        <ele>348.13</ele>
        <time>2019-05-16T11:44:35Z</time>
      </trkpt>
      <trkpt lat="39.62735" lon="-8.67462">
        <ele>348.13</ele>
        <time>2019-05-16T11:44:47Z</time>
      </trkpt>
      <trkpt lat="39.62725" lon="-8.67445">
        <ele>347.65</ele>
        <time>2019-05-16T11:45:00Z</time>
      </trkpt>
      <trkpt lat="39.62723" lon="-8.67435">
        <ele>346.69</ele>
        <time>2019-05-16T11:45:06Z</time>
      </trkpt>
      <trkpt lat="39.62717" lon="-8.67423">
        <ele>346.69</ele>
        <time>2019-05-16T11:45:18Z</time>
      </trkpt>
      <trkpt lat="39.6271" lon="-8.67408">
        <ele>346.69</ele>
        <time>2019-05-16T11:45:31Z</time>
      </trkpt>
      <trkpt lat="39.62705" lon="-8.67394">
        <ele>346.21</ele>
        <time>2019-05-16T11:45:42Z</time>
      </trkpt>
      <trkpt lat="39.627" lon="-8.67385">
        <ele>346.21</ele>
        <time>2019-05-16T11:45:50Z</time>
      </trkpt>
      <trkpt lat="39.62694" lon="-8.67367">
        <ele>345.25</ele>
        <time>2019-05-16T11:46:05Z</time>
      </trkpt>
      <trkpt lat="39.62696" lon="-8.67344">
        <ele>345.25</ele>
        <time>2019-05-16T11:46:19Z</time>
      </trkpt>
      <trkpt lat="39.62698" lon="-8.67331">
        <ele>344.77</ele>
        <time>2019-05-16T11:46:28Z</time>
      </trkpt>
      <trkpt lat="39.62698" lon="-8.6731">
        <ele>344.29</ele>
        <time>2019-05-16T11:46:41Z</time>
      </trkpt>
      <trkpt lat="39.62702" lon="-8.67298">
        <ele>344.29</ele>
        <time>2019-05-16T11:46:51Z</time>
      </trkpt>
      <trkpt lat="39.62702" lon="-8.67282">
        <ele>343.81</ele>
        <time>2019-05-16T11:47:02Z</time>
      </trkpt>
      <trkpt lat="39.62708" lon="-8.67269">
        <ele>343.33</ele>
        <time>2019-05-16T11:47:13Z</time>
      </trkpt>
      <trkpt lat="39.62715" lon="-8.67255">
        <ele>342.85</ele>
        <time>2019-05-16T11:47:25Z</time>
      </trkpt>
      <trkpt lat="39.62723" lon="-8.67237">
        <ele>341.89</ele>
        <time>2019-05-16T11:47:39Z</time>
      </trkpt>
      <trkpt lat="39.62724" lon="-8.67225">
        <ele>342.85</ele>
        <time>2019-05-16T11:47:47Z</time>
      </trkpt>
      <trkpt lat="39.62729" lon="-8.67211">
        <ele>342.37</ele>
        <time>2019-05-16T11:47:56Z</time>
      </trkpt>
      <trkpt lat="39.62737" lon="-8.672">
        <ele>342.85</ele>
        <time>2019-05-16T11:48:05Z</time>
      </trkpt>
      <trkpt lat="39.62745" lon="-8.67188">
        <ele>341.89</ele>
        <time>2019-05-16T11:48:18Z</time>
      </trkpt>
      <trkpt lat="39.62749" lon="-8.67179">
        <ele>341.89</ele>
        <time>2019-05-16T11:48:29Z</time>
      </trkpt>
      <trkpt lat="39.62743" lon="-8.67156">
        <ele>342.37</ele>
        <time>2019-05-16T11:48:43Z</time>
      </trkpt>
      <trkpt lat="39.62746" lon="-8.67141">
        <ele>341.89</ele>
        <time>2019-05-16T11:48:58Z</time>
      </trkpt>
      <trkpt lat="39.62752" lon="-8.6713">
        <ele>342.37</ele>
        <time>2019-05-16T11:49:11Z</time>
      </trkpt>
      <trkpt lat="39.62757" lon="-8.67124">
        <ele>342.37</ele>
        <time>2019-05-16T11:49:20Z</time>
      </trkpt>
      <trkpt lat="39.62763" lon="-8.67111">
        <ele>342.85</ele>
        <time>2019-05-16T11:49:33Z</time>
      </trkpt>
      <trkpt lat="39.62763" lon="-8.67099">
        <ele>342.85</ele>
        <time>2019-05-16T11:49:44Z</time>
      </trkpt>
      <trkpt lat="39.62764" lon="-8.67097">
        <ele>342.37</ele>
        <time>2019-05-16T11:50:02Z</time>
      </trkpt>
      <trkpt lat="39.62762" lon="-8.67097">
        <ele>341.89</ele>
        <time>2019-05-16T11:50:30Z</time>
      </trkpt>
      <trkpt lat="39.62761" lon="-8.67095">
        <ele>339.96</ele>
        <time>2019-05-16T11:50:36Z</time>
      </trkpt>
      <trkpt lat="39.62751" lon="-8.67089">
        <ele>340.92</ele>
        <time>2019-05-16T11:51:00Z</time>
      </trkpt>
      <trkpt lat="39.62747" lon="-8.67088">
        <ele>340.44</ele>
        <time>2019-05-16T11:51:26Z</time>
      </trkpt>
      <trkpt lat="39.62749" lon="-8.67092">
        <ele>339.96</ele>
        <time>2019-05-16T11:51:53Z</time>
      </trkpt>
      <trkpt lat="39.62746" lon="-8.67079">
        <ele>338.52</ele>
        <time>2019-05-16T11:52:14Z</time>
      </trkpt>
      <trkpt lat="39.62743" lon="-8.67093">
        <ele>338.04</ele>
        <time>2019-05-16T11:52:43Z</time>
      </trkpt>
      <trkpt lat="39.6275" lon="-8.67089">
        <ele>337.56</ele>
        <time>2019-05-16T11:53:07Z</time>
      </trkpt>
      <trkpt lat="39.6275" lon="-8.6709">
        <ele>337.08</ele>
        <time>2019-05-16T11:53:31Z</time>
      </trkpt>
      <trkpt lat="39.62754" lon="-8.67094">
        <ele>336.6</ele>
        <time>2019-05-16T11:53:52Z</time>
      </trkpt>
      <trkpt lat="39.62741" lon="-8.67088">
        <ele>337.08</ele>
        <time>2019-05-16T11:54:17Z</time>
      </trkpt>
      <trkpt lat="39.62743" lon="-8.67091">
        <ele>337.56</ele>
        <time>2019-05-16T11:54:43Z</time>
      </trkpt>
      <trkpt lat="39.62738" lon="-8.6709">
        <ele>335.16</ele>
        <time>2019-05-16T11:55:04Z</time>
      </trkpt>
      <trkpt lat="39.62742" lon="-8.67092">
        <ele>336.6</ele>
        <time>2019-05-16T11:55:25Z</time>
      </trkpt>
      <trkpt lat="39.62748" lon="-8.67097">
        <ele>336.12</ele>
        <time>2019-05-16T11:55:44Z</time>
      </trkpt>
      <trkpt lat="39.62744" lon="-8.67076">
        <ele>336.12</ele>
        <time>2019-05-16T11:56:10Z</time>
      </trkpt>
      <trkpt lat="39.62742" lon="-8.67088">
        <ele>336.6</ele>
        <time>2019-05-16T11:56:37Z</time>
      </trkpt>
      <trkpt lat="39.62748" lon="-8.67088">
        <ele>335.64</ele>
        <time>2019-05-16T11:56:54Z</time>
      </trkpt>
      <trkpt lat="39.62748" lon="-8.67085">
        <ele>336.6</ele>
        <time>2019-05-16T11:57:16Z</time>
      </trkpt>
      <trkpt lat="39.62757" lon="-8.67098">
        <ele>336.12</ele>
        <time>2019-05-16T11:57:39Z</time>
      </trkpt>
      <trkpt lat="39.62751" lon="-8.67093">
        <ele>336.6</ele>
        <time>2019-05-16T11:58:00Z</time>
      </trkpt>
      <trkpt lat="39.62739" lon="-8.67074">
        <ele>337.08</ele>
        <time>2019-05-16T11:58:24Z</time>
      </trkpt>
      <trkpt lat="39.62747" lon="-8.67075">
        <ele>334.68</ele>
        <time>2019-05-16T11:58:50Z</time>
      </trkpt>
      <trkpt lat="39.62753" lon="-8.67091">
        <ele>338.04</ele>
        <time>2019-05-16T11:59:09Z</time>
      </trkpt>
      <trkpt lat="39.62757" lon="-8.67095">
        <ele>340.44</ele>
        <time>2019-05-16T11:59:13Z</time>
      </trkpt>
      <trkpt lat="39.62758" lon="-8.67095">
        <ele>341.41</ele>
        <time>2019-05-16T11:59:14Z</time>
      </trkpt>
      <trkpt lat="39.62761" lon="-8.67098">
        <ele>343.81</ele>
        <time>2019-05-16T11:59:17Z</time>
      </trkpt>
      <trkpt lat="39.62803" lon="-8.67155">
        <ele>344.29</ele>
        <time>2019-05-16T11:59:37Z</time>
      </trkpt>
      <trkpt lat="39.62765" lon="-8.67077">
        <ele>346.21</ele>
        <time>2019-05-16T11:59:59Z</time>
      </trkpt>
      <trkpt lat="39.62764" lon="-8.67078">
        <ele>345.25</ele>
        <time>2019-05-16T12:00:21Z</time>
      </trkpt>
      <trkpt lat="39.62766" lon="-8.67076">
        <ele>344.29</ele>
        <time>2019-05-16T12:00:44Z</time>
      </trkpt>
      <trkpt lat="39.62774" lon="-8.67078">
        <ele>342.37</ele>
        <time>2019-05-16T12:01:15Z</time>
      </trkpt>
      <trkpt lat="39.62773" lon="-8.67075">
        <ele>342.37</ele>
        <time>2019-05-16T12:01:52Z</time>
      </trkpt>
      <trkpt lat="39.62767" lon="-8.67074">
        <ele>343.81</ele>
        <time>2019-05-16T12:02:21Z</time>
      </trkpt>
      <trkpt lat="39.62769" lon="-8.67076">
        <ele>341.89</ele>
        <time>2019-05-16T12:02:50Z</time>
      </trkpt>
      <trkpt lat="39.62772" lon="-8.6707">
        <ele>344.29</ele>
        <time>2019-05-16T12:03:20Z</time>
      </trkpt>
      <trkpt lat="39.62774" lon="-8.67056">
        <ele>344.29</ele>
        <time>2019-05-16T12:03:44Z</time>
      </trkpt>
    </trkseg>
  </trk>
</gpx>